<?xml version="1.0" encoding="UTF-8" standalone="no" ?>
<gpx xmlns="http://www.topografix.com/GPX/1/1" creator="CompeGPS" version="1.1" xmlns:xsi="http://www.w3.org/2001/XMLSchema-instance" xsi:schemaLocation="http://www.topografix.com/GPX/1/1 http://www.topografix.com/GPX/1/1/gpx.xsd http://www.garmin.com/xmlschemas/GpxExtensions/v3 http://www.garmin.com/xmlschemas/GpxExtensionsv3.xsd http://www.garmin.com/xmlschemas/TrackPointExtension/v1 http://www.garmin.com/xmlschemas/TrackPointExtensionv1.xsd" xmlns:gpxtpx="http://www.garmin.com/xmlschemas/TrackPointExtension/v1">
  <metadata>
    <link href="http://www.compegps.com">
      <text>CompeGPS TEAM, SL</text>
    </link>
    <time>2020-06-12T09:29:09Z</time>
    <bounds maxlat="42.755191" maxlon="0.350479" minlat="42.732463" minlon="0.307996"/>
  </metadata>
    <wpt lat="42.741404" lon="0.348604">
    <ele>2646.1</ele>
    <time>2020-06-11T18:46:07Z</time>
    <name>Col de Lustou</name>
    <desc></desc>
    <sym>Waypoint</sym>
  </wpt>
  <wpt lat="42.732731" lon="0.322141">
    <ele>1553.2</ele>
    <time>2020-06-11T18:53:01Z</time>
    <name>Traversee a gue</name>
    <desc></desc>
    <sym>Waypoint</sym>
  </wpt>
  <wpt lat="42.733731" lon="0.317880">
    <ele>1532.1</ele>
    <time>2020-06-11T18:01:35Z</time>
    <name>Bifurcation - piste herbeuse</name>
    <desc></desc>
    <sym>Waypoint</sym>
  </wpt>
  <wpt lat="42.741482" lon="0.322806">
    <ele>2093.9</ele>
    <time>2020-06-11T18:02:04Z</time>
    <name>Cortail des Cauts</name>
    <desc></desc>
    <sym>Waypoint</sym>
  </wpt>
  <wpt lat="42.755081" lon="0.329616">
    <ele>2609.2</ele>
    <time>2020-06-07T08:03:53Z</time>
    <name>Pic de la Haille</name>
    <desc></desc>
    <sym>Waypoint</sym>
  </wpt>
  <wpt lat="42.752368" lon="0.330515">
    <ele>2660.4</ele>
    <time>2020-06-07T08:04:06Z</time>
    <name>Crete de la Haille</name>
    <desc></desc>
    <sym>Waypoint</sym>
  </wpt>
  <wpt lat="42.748293" lon="0.343216">
    <ele>2674.6</ele>
    <time>2020-06-07T08:04:20Z</time>
    <name>Pic de Thou</name>
    <desc></desc>
    <sym>Waypoint</sym>
  </wpt>
  <wpt lat="42.742847" lon="0.347529">
    <ele>2663.1</ele>
    <time>2020-06-07T08:04:29Z</time>
    <name>Pic de Bocou</name>
    <desc></desc>
    <sym>Waypoint</sym>
  </wpt>
  <wpt lat="42.737745" lon="0.336729">
    <ele>2084.2</ele>
    <time>2020-06-07T08:16:02Z</time>
    <name>Cabane du Lustou</name>
    <desc></desc>
    <sym>Waypoint</sym>
  </wpt>
<trk>
    <name>pic_de_thou</name>
    <userMyTwoNav></userMyTwoNav>
    <serialNumber></serialNumber>
    <trkseg>
      <trkpt lat="42.740373" lon="0.308090">
        <ele>1365.3</ele>
        <time>2020-06-10T06:56:06Z</time>
      </trkpt>
      <trkpt lat="42.740288" lon="0.308159">
        <ele>1371.6</ele>
        <time>2020-06-10T06:56:19Z</time>
      </trkpt>
      <trkpt lat="42.740208" lon="0.308268">
        <ele>1371.7</ele>
        <time>2020-06-10T06:56:29Z</time>
      </trkpt>
      <trkpt lat="42.740125" lon="0.308451">
        <ele>1371.7</ele>
        <time>2020-06-10T06:56:38Z</time>
      </trkpt>
      <trkpt lat="42.740044" lon="0.308603">
        <ele>1371.7</ele>
        <time>2020-06-10T06:56:46Z</time>
      </trkpt>
      <trkpt lat="42.739965" lon="0.308718">
        <ele>1371.6</ele>
        <time>2020-06-10T06:56:54Z</time>
      </trkpt>
      <trkpt lat="42.739868" lon="0.308778">
        <ele>1371.6</ele>
        <time>2020-06-10T06:57:03Z</time>
      </trkpt>
      <trkpt lat="42.739773" lon="0.308888">
        <ele>1371.6</ele>
        <time>2020-06-10T06:57:13Z</time>
      </trkpt>
      <trkpt lat="42.739647" lon="0.308995">
        <ele>1371.4</ele>
        <time>2020-06-10T06:57:27Z</time>
      </trkpt>
      <trkpt lat="42.739470" lon="0.309039">
        <ele>1371.2</ele>
        <time>2020-06-10T06:57:41Z</time>
      </trkpt>
      <trkpt lat="42.739369" lon="0.309110">
        <ele>1371.0</ele>
        <time>2020-06-10T06:57:52Z</time>
      </trkpt>
      <trkpt lat="42.739280" lon="0.309168">
        <ele>1370.9</ele>
        <time>2020-06-10T06:58:01Z</time>
      </trkpt>
      <trkpt lat="42.739188" lon="0.309236">
        <ele>1373.3</ele>
        <time>2020-06-10T06:58:10Z</time>
      </trkpt>
      <trkpt lat="42.739091" lon="0.309295">
        <ele>1374.1</ele>
        <time>2020-06-10T06:58:19Z</time>
      </trkpt>
      <trkpt lat="42.738984" lon="0.309358">
        <ele>1374.8</ele>
        <time>2020-06-10T06:58:27Z</time>
      </trkpt>
      <trkpt lat="42.738878" lon="0.309431">
        <ele>1376.8</ele>
        <time>2020-06-10T06:58:36Z</time>
      </trkpt>
      <trkpt lat="42.738781" lon="0.309507">
        <ele>1378.5</ele>
        <time>2020-06-10T06:58:46Z</time>
      </trkpt>
      <trkpt lat="42.738671" lon="0.309590">
        <ele>1380.1</ele>
        <time>2020-06-10T06:58:58Z</time>
      </trkpt>
      <trkpt lat="42.738529" lon="0.309632">
        <ele>1382.2</ele>
        <time>2020-06-10T06:59:11Z</time>
      </trkpt>
      <trkpt lat="42.738377" lon="0.309690">
        <ele>1384.3</ele>
        <time>2020-06-10T06:59:26Z</time>
      </trkpt>
      <trkpt lat="42.738235" lon="0.309725">
        <ele>1385.7</ele>
        <time>2020-06-10T06:59:40Z</time>
      </trkpt>
      <trkpt lat="42.738116" lon="0.309755">
        <ele>1387.0</ele>
        <time>2020-06-10T06:59:51Z</time>
      </trkpt>
      <trkpt lat="42.737981" lon="0.309788">
        <ele>1388.5</ele>
        <time>2020-06-10T07:00:04Z</time>
      </trkpt>
      <trkpt lat="42.737858" lon="0.309783">
        <ele>1389.9</ele>
        <time>2020-06-10T07:00:14Z</time>
      </trkpt>
      <trkpt lat="42.737727" lon="0.309815">
        <ele>1392.1</ele>
        <time>2020-06-10T07:00:26Z</time>
      </trkpt>
      <trkpt lat="42.737582" lon="0.309959">
        <ele>1393.5</ele>
        <time>2020-06-10T07:00:38Z</time>
      </trkpt>
      <trkpt lat="42.737474" lon="0.310055">
        <ele>1394.0</ele>
        <time>2020-06-10T07:00:48Z</time>
      </trkpt>
      <trkpt lat="42.737342" lon="0.310124">
        <ele>1396.2</ele>
        <time>2020-06-10T07:01:01Z</time>
      </trkpt>
      <trkpt lat="42.737227" lon="0.310198">
        <ele>1396.6</ele>
        <time>2020-06-10T07:01:12Z</time>
      </trkpt>
      <trkpt lat="42.737107" lon="0.310276">
        <ele>1397.8</ele>
        <time>2020-06-10T07:01:23Z</time>
      </trkpt>
      <trkpt lat="42.736998" lon="0.310372">
        <ele>1400.1</ele>
        <time>2020-06-10T07:01:34Z</time>
      </trkpt>
      <trkpt lat="42.736869" lon="0.310434">
        <ele>1401.4</ele>
        <time>2020-06-10T07:01:47Z</time>
      </trkpt>
      <trkpt lat="42.736740" lon="0.310513">
        <ele>1402.8</ele>
        <time>2020-06-10T07:01:59Z</time>
      </trkpt>
      <trkpt lat="42.736631" lon="0.310588">
        <ele>1405.0</ele>
        <time>2020-06-10T07:02:12Z</time>
      </trkpt>
      <trkpt lat="42.736491" lon="0.310628">
        <ele>1406.3</ele>
        <time>2020-06-10T07:02:24Z</time>
      </trkpt>
      <trkpt lat="42.736372" lon="0.310730">
        <ele>1408.3</ele>
        <time>2020-06-10T07:02:38Z</time>
      </trkpt>
      <trkpt lat="42.736249" lon="0.310832">
        <ele>1409.4</ele>
        <time>2020-06-10T07:02:52Z</time>
      </trkpt>
      <trkpt lat="42.736122" lon="0.310919">
        <ele>1411.4</ele>
        <time>2020-06-10T07:03:07Z</time>
      </trkpt>
      <trkpt lat="42.735992" lon="0.311030">
        <ele>1413.5</ele>
        <time>2020-06-10T07:03:24Z</time>
      </trkpt>
      <trkpt lat="42.735849" lon="0.311090">
        <ele>1415.7</ele>
        <time>2020-06-10T07:03:38Z</time>
      </trkpt>
      <trkpt lat="42.735728" lon="0.311225">
        <ele>1418.2</ele>
        <time>2020-06-10T07:03:55Z</time>
      </trkpt>
      <trkpt lat="42.735608" lon="0.311349">
        <ele>1419.5</ele>
        <time>2020-06-10T07:04:10Z</time>
      </trkpt>
      <trkpt lat="42.735433" lon="0.311419">
        <ele>1421.4</ele>
        <time>2020-06-10T07:04:23Z</time>
      </trkpt>
      <trkpt lat="42.735282" lon="0.311539">
        <ele>1422.3</ele>
        <time>2020-06-10T07:04:37Z</time>
      </trkpt>
      <trkpt lat="42.735107" lon="0.311600">
        <ele>1425.2</ele>
        <time>2020-06-10T07:04:51Z</time>
      </trkpt>
      <trkpt lat="42.734905" lon="0.311658">
        <ele>1426.4</ele>
        <time>2020-06-10T07:05:04Z</time>
      </trkpt>
      <trkpt lat="42.734806" lon="0.311858">
        <ele>1428.1</ele>
        <time>2020-06-10T07:05:19Z</time>
      </trkpt>
      <trkpt lat="42.734809" lon="0.312032">
        <ele>1430.1</ele>
        <time>2020-06-10T07:05:32Z</time>
      </trkpt>
      <trkpt lat="42.734792" lon="0.312247">
        <ele>1431.9</ele>
        <time>2020-06-10T07:05:49Z</time>
      </trkpt>
      <trkpt lat="42.734821" lon="0.312513">
        <ele>1434.1</ele>
        <time>2020-06-10T07:06:03Z</time>
      </trkpt>
      <trkpt lat="42.734882" lon="0.312659">
        <ele>1435.3</ele>
        <time>2020-06-10T07:06:14Z</time>
      </trkpt>
      <trkpt lat="42.734933" lon="0.312877">
        <ele>1436.4</ele>
        <time>2020-06-10T07:06:26Z</time>
      </trkpt>
      <trkpt lat="42.734908" lon="0.313171">
        <ele>1437.9</ele>
        <time>2020-06-10T07:06:39Z</time>
      </trkpt>
      <trkpt lat="42.734839" lon="0.313430">
        <ele>1439.1</ele>
        <time>2020-06-10T07:06:55Z</time>
      </trkpt>
      <trkpt lat="42.734795" lon="0.313709">
        <ele>1439.4</ele>
        <time>2020-06-10T07:07:10Z</time>
      </trkpt>
      <trkpt lat="42.734780" lon="0.313974">
        <ele>1440.7</ele>
        <time>2020-06-10T07:07:21Z</time>
      </trkpt>
      <trkpt lat="42.734718" lon="0.314105">
        <ele>1441.9</ele>
        <time>2020-06-10T07:07:32Z</time>
      </trkpt>
      <trkpt lat="42.734640" lon="0.314313">
        <ele>1442.4</ele>
        <time>2020-06-10T07:07:43Z</time>
      </trkpt>
      <trkpt lat="42.734585" lon="0.314520">
        <ele>1443.8</ele>
        <time>2020-06-10T07:07:55Z</time>
      </trkpt>
      <trkpt lat="42.734541" lon="0.314761">
        <ele>1445.2</ele>
        <time>2020-06-10T07:08:06Z</time>
      </trkpt>
      <trkpt lat="42.734494" lon="0.314956">
        <ele>1446.3</ele>
        <time>2020-06-10T07:08:20Z</time>
      </trkpt>
      <trkpt lat="42.734455" lon="0.315234">
        <ele>1446.8</ele>
        <time>2020-06-10T07:08:32Z</time>
      </trkpt>
      <trkpt lat="42.734299" lon="0.315408">
        <ele>1447.2</ele>
        <time>2020-06-10T07:08:46Z</time>
      </trkpt>
      <trkpt lat="42.734221" lon="0.315652">
        <ele>1449.5</ele>
        <time>2020-06-10T07:09:00Z</time>
      </trkpt>
      <trkpt lat="42.734181" lon="0.315881">
        <ele>1449.9</ele>
        <time>2020-06-10T07:09:13Z</time>
      </trkpt>
      <trkpt lat="42.734141" lon="0.316098">
        <ele>1450.3</ele>
        <time>2020-06-10T07:09:26Z</time>
      </trkpt>
      <trkpt lat="42.734101" lon="0.316282">
        <ele>1451.9</ele>
        <time>2020-06-10T07:09:38Z</time>
      </trkpt>
      <trkpt lat="42.733988" lon="0.316374">
        <ele>1452.6</ele>
        <time>2020-06-10T07:09:47Z</time>
      </trkpt>
      <trkpt lat="42.733927" lon="0.316557">
        <ele>1453.2</ele>
        <time>2020-06-10T07:09:56Z</time>
      </trkpt>
      <trkpt lat="42.733918" lon="0.316705">
        <ele>1453.8</ele>
        <time>2020-06-10T07:10:10Z</time>
      </trkpt>
      <trkpt lat="42.733898" lon="0.316862">
        <ele>1453.5</ele>
        <time>2020-06-10T07:10:29Z</time>
      </trkpt>
      <trkpt lat="42.733873" lon="0.317071">
        <ele>1454.5</ele>
        <time>2020-06-10T07:10:41Z</time>
      </trkpt>
      <trkpt lat="42.733833" lon="0.317232">
        <ele>1455.4</ele>
        <time>2020-06-10T07:10:55Z</time>
      </trkpt>
      <trkpt lat="42.733797" lon="0.317430">
        <ele>1456.3</ele>
        <time>2020-06-10T07:11:06Z</time>
      </trkpt>
      <trkpt lat="42.733757" lon="0.317586">
        <ele>1457.0</ele>
        <time>2020-06-10T07:11:15Z</time>
      </trkpt>
      <trkpt lat="42.733732" lon="0.317699">
        <ele>1457.9</ele>
        <time>2020-06-10T07:11:25Z</time>
      </trkpt>
      <trkpt lat="42.733747" lon="0.318014">
        <ele>1463.8</ele>
        <time>2020-06-10T07:11:51Z</time>
      </trkpt>
      <trkpt lat="42.733829" lon="0.318250">
        <ele>1466.4</ele>
        <time>2020-06-10T07:12:08Z</time>
      </trkpt>
      <trkpt lat="42.733885" lon="0.318398">
        <ele>1469.2</ele>
        <time>2020-06-10T07:12:24Z</time>
      </trkpt>
      <trkpt lat="42.733871" lon="0.318622">
        <ele>1471.9</ele>
        <time>2020-06-10T07:12:39Z</time>
      </trkpt>
      <trkpt lat="42.733892" lon="0.318824">
        <ele>1473.7</ele>
        <time>2020-06-10T07:12:53Z</time>
      </trkpt>
      <trkpt lat="42.733924" lon="0.319019">
        <ele>1477.1</ele>
        <time>2020-06-10T07:13:10Z</time>
      </trkpt>
      <trkpt lat="42.733945" lon="0.319268">
        <ele>1479.9</ele>
        <time>2020-06-10T07:13:24Z</time>
      </trkpt>
      <trkpt lat="42.733923" lon="0.319482">
        <ele>1481.6</ele>
        <time>2020-06-10T07:13:37Z</time>
      </trkpt>
      <trkpt lat="42.733916" lon="0.319666">
        <ele>1484.4</ele>
        <time>2020-06-10T07:13:51Z</time>
      </trkpt>
      <trkpt lat="42.733922" lon="0.319867">
        <ele>1486.2</ele>
        <time>2020-06-10T07:14:05Z</time>
      </trkpt>
      <trkpt lat="42.733952" lon="0.320034">
        <ele>1490.9</ele>
        <time>2020-06-10T07:14:22Z</time>
      </trkpt>
      <trkpt lat="42.733973" lon="0.320180">
        <ele>1494.2</ele>
        <time>2020-06-10T07:14:41Z</time>
      </trkpt>
      <trkpt lat="42.734031" lon="0.320299">
        <ele>1496.8</ele>
        <time>2020-06-10T07:14:58Z</time>
      </trkpt>
      <trkpt lat="42.734068" lon="0.320473">
        <ele>1500.6</ele>
        <time>2020-06-10T07:15:18Z</time>
      </trkpt>
      <trkpt lat="42.734087" lon="0.320685">
        <ele>1503.2</ele>
        <time>2020-06-10T07:15:36Z</time>
      </trkpt>
      <trkpt lat="42.734194" lon="0.320792">
        <ele>1506.3</ele>
        <time>2020-06-10T07:15:53Z</time>
      </trkpt>
      <trkpt lat="42.734272" lon="0.320892">
        <ele>1510.6</ele>
        <time>2020-06-10T07:16:15Z</time>
      </trkpt>
      <trkpt lat="42.734262" lon="0.320995">
        <ele>1513.3</ele>
        <time>2020-06-10T07:16:32Z</time>
      </trkpt>
      <trkpt lat="42.734288" lon="0.321158">
        <ele>1515.0</ele>
        <time>2020-06-10T07:16:46Z</time>
      </trkpt>
      <trkpt lat="42.734268" lon="0.321336">
        <ele>1517.6</ele>
        <time>2020-06-10T07:17:02Z</time>
      </trkpt>
      <trkpt lat="42.734241" lon="0.321548">
        <ele>1520.8</ele>
        <time>2020-06-10T07:17:19Z</time>
      </trkpt>
      <trkpt lat="42.734214" lon="0.321742">
        <ele>1523.4</ele>
        <time>2020-06-10T07:17:35Z</time>
      </trkpt>
      <trkpt lat="42.734206" lon="0.321925">
        <ele>1527.1</ele>
        <time>2020-06-10T07:17:52Z</time>
      </trkpt>
      <trkpt lat="42.734256" lon="0.322096">
        <ele>1528.6</ele>
        <time>2020-06-10T07:18:09Z</time>
      </trkpt>
      <trkpt lat="42.734359" lon="0.322222">
        <ele>1531.7</ele>
        <time>2020-06-10T07:18:27Z</time>
      </trkpt>
      <trkpt lat="42.734389" lon="0.322320">
        <ele>1534.1</ele>
        <time>2020-06-10T07:18:43Z</time>
      </trkpt>
      <trkpt lat="42.734435" lon="0.322405">
        <ele>1537.6</ele>
        <time>2020-06-10T07:19:03Z</time>
      </trkpt>
      <trkpt lat="42.734437" lon="0.322434">
        <ele>1537.2</ele>
        <time>2020-06-10T07:19:28Z</time>
      </trkpt>
      <trkpt lat="42.734449" lon="0.322425">
        <ele>1537.0</ele>
        <time>2020-06-10T07:19:58Z</time>
      </trkpt>
      <trkpt lat="42.734446" lon="0.322440">
        <ele>1536.8</ele>
        <time>2020-06-10T07:20:17Z</time>
      </trkpt>
      <trkpt lat="42.734501" lon="0.322474">
        <ele>1542.9</ele>
        <time>2020-06-10T07:20:50Z</time>
      </trkpt>
      <trkpt lat="42.734572" lon="0.322450">
        <ele>1546.9</ele>
        <time>2020-06-10T07:21:12Z</time>
      </trkpt>
      <trkpt lat="42.734637" lon="0.322457">
        <ele>1549.1</ele>
        <time>2020-06-10T07:21:35Z</time>
      </trkpt>
      <trkpt lat="42.734719" lon="0.322436">
        <ele>1552.6</ele>
        <time>2020-06-10T07:21:51Z</time>
      </trkpt>
      <trkpt lat="42.734793" lon="0.322352">
        <ele>1557.8</ele>
        <time>2020-06-10T07:22:12Z</time>
      </trkpt>
      <trkpt lat="42.734846" lon="0.322293">
        <ele>1561.4</ele>
        <time>2020-06-10T07:22:36Z</time>
      </trkpt>
      <trkpt lat="42.734869" lon="0.322373">
        <ele>1563.1</ele>
        <time>2020-06-10T07:22:55Z</time>
      </trkpt>
      <trkpt lat="42.734923" lon="0.322441">
        <ele>1567.8</ele>
        <time>2020-06-10T07:23:19Z</time>
      </trkpt>
      <trkpt lat="42.734978" lon="0.322503">
        <ele>1572.4</ele>
        <time>2020-06-10T07:23:47Z</time>
      </trkpt>
      <trkpt lat="42.735028" lon="0.322572">
        <ele>1575.6</ele>
        <time>2020-06-10T07:24:07Z</time>
      </trkpt>
      <trkpt lat="42.735102" lon="0.322616">
        <ele>1579.8</ele>
        <time>2020-06-10T07:24:31Z</time>
      </trkpt>
      <trkpt lat="42.735151" lon="0.322664">
        <ele>1583.2</ele>
        <time>2020-06-10T07:24:56Z</time>
      </trkpt>
      <trkpt lat="42.735184" lon="0.322730">
        <ele>1587.8</ele>
        <time>2020-06-10T07:25:22Z</time>
      </trkpt>
      <trkpt lat="42.735243" lon="0.322828">
        <ele>1591.9</ele>
        <time>2020-06-10T07:25:44Z</time>
      </trkpt>
      <trkpt lat="42.735294" lon="0.322784">
        <ele>1597.6</ele>
        <time>2020-06-10T07:26:12Z</time>
      </trkpt>
      <trkpt lat="42.735383" lon="0.322748">
        <ele>1600.4</ele>
        <time>2020-06-10T07:26:31Z</time>
      </trkpt>
      <trkpt lat="42.735461" lon="0.322666">
        <ele>1601.8</ele>
        <time>2020-06-10T07:26:55Z</time>
      </trkpt>
      <trkpt lat="42.735550" lon="0.322541">
        <ele>1604.9</ele>
        <time>2020-06-10T07:27:16Z</time>
      </trkpt>
      <trkpt lat="42.735565" lon="0.322423">
        <ele>1610.4</ele>
        <time>2020-06-10T07:27:43Z</time>
      </trkpt>
      <trkpt lat="42.735612" lon="0.322398">
        <ele>1612.6</ele>
        <time>2020-06-10T07:28:21Z</time>
      </trkpt>
      <trkpt lat="42.735699" lon="0.322399">
        <ele>1617.7</ele>
        <time>2020-06-10T07:28:47Z</time>
      </trkpt>
      <trkpt lat="42.735786" lon="0.322422">
        <ele>1621.1</ele>
        <time>2020-06-10T07:29:09Z</time>
      </trkpt>
      <trkpt lat="42.735832" lon="0.322529">
        <ele>1625.9</ele>
        <time>2020-06-10T07:29:40Z</time>
      </trkpt>
      <trkpt lat="42.735898" lon="0.322567">
        <ele>1630.1</ele>
        <time>2020-06-10T07:30:06Z</time>
      </trkpt>
      <trkpt lat="42.735961" lon="0.322653">
        <ele>1634.4</ele>
        <time>2020-06-10T07:30:28Z</time>
      </trkpt>
      <trkpt lat="42.736002" lon="0.322734">
        <ele>1637.0</ele>
        <time>2020-06-10T07:30:56Z</time>
      </trkpt>
      <trkpt lat="42.736084" lon="0.322742">
        <ele>1639.4</ele>
        <time>2020-06-10T07:31:18Z</time>
      </trkpt>
      <trkpt lat="42.736159" lon="0.322663">
        <ele>1644.4</ele>
        <time>2020-06-10T07:31:45Z</time>
      </trkpt>
      <trkpt lat="42.736225" lon="0.322607">
        <ele>1649.4</ele>
        <time>2020-06-10T07:32:12Z</time>
      </trkpt>
      <trkpt lat="42.736307" lon="0.322694">
        <ele>1652.4</ele>
        <time>2020-06-10T07:32:34Z</time>
      </trkpt>
      <trkpt lat="42.736350" lon="0.322825">
        <ele>1655.0</ele>
        <time>2020-06-10T07:32:55Z</time>
      </trkpt>
      <trkpt lat="42.736402" lon="0.322907">
        <ele>1657.4</ele>
        <time>2020-06-10T07:33:19Z</time>
      </trkpt>
      <trkpt lat="42.736477" lon="0.322987">
        <ele>1661.2</ele>
        <time>2020-06-10T07:33:36Z</time>
      </trkpt>
      <trkpt lat="42.736507" lon="0.323069">
        <ele>1661.7</ele>
        <time>2020-06-10T07:34:01Z</time>
      </trkpt>
      <trkpt lat="42.736591" lon="0.323170">
        <ele>1665.1</ele>
        <time>2020-06-10T07:34:21Z</time>
      </trkpt>
      <trkpt lat="42.736630" lon="0.323233">
        <ele>1669.4</ele>
        <time>2020-06-10T07:34:58Z</time>
      </trkpt>
      <trkpt lat="42.736679" lon="0.323300">
        <ele>1670.1</ele>
        <time>2020-06-10T07:35:21Z</time>
      </trkpt>
      <trkpt lat="42.736753" lon="0.323329">
        <ele>1674.2</ele>
        <time>2020-06-10T07:35:46Z</time>
      </trkpt>
      <trkpt lat="42.736809" lon="0.323312">
        <ele>1681.7</ele>
        <time>2020-06-10T07:36:56Z</time>
      </trkpt>
      <trkpt lat="42.736871" lon="0.323196">
        <ele>1686.3</ele>
        <time>2020-06-10T07:37:17Z</time>
      </trkpt>
      <trkpt lat="42.736914" lon="0.323109">
        <ele>1692.5</ele>
        <time>2020-06-10T07:37:46Z</time>
      </trkpt>
      <trkpt lat="42.736951" lon="0.323023">
        <ele>1694.9</ele>
        <time>2020-06-10T07:38:08Z</time>
      </trkpt>
      <trkpt lat="42.737022" lon="0.323021">
        <ele>1698.1</ele>
        <time>2020-06-10T07:38:30Z</time>
      </trkpt>
      <trkpt lat="42.737056" lon="0.322974">
        <ele>1703.4</ele>
        <time>2020-06-10T07:39:01Z</time>
      </trkpt>
      <trkpt lat="42.737130" lon="0.322919">
        <ele>1706.1</ele>
        <time>2020-06-10T07:39:17Z</time>
      </trkpt>
      <trkpt lat="42.737192" lon="0.322855">
        <ele>1709.4</ele>
        <time>2020-06-10T07:39:40Z</time>
      </trkpt>
      <trkpt lat="42.737260" lon="0.322836">
        <ele>1711.9</ele>
        <time>2020-06-10T07:40:00Z</time>
      </trkpt>
      <trkpt lat="42.737283" lon="0.322845">
        <ele>1715.3</ele>
        <time>2020-06-10T07:40:25Z</time>
      </trkpt>
      <trkpt lat="42.737352" lon="0.322959">
        <ele>1717.4</ele>
        <time>2020-06-10T07:40:43Z</time>
      </trkpt>
      <trkpt lat="42.737393" lon="0.323019">
        <ele>1720.7</ele>
        <time>2020-06-10T07:41:01Z</time>
      </trkpt>
      <trkpt lat="42.737471" lon="0.322977">
        <ele>1728.1</ele>
        <time>2020-06-10T07:42:08Z</time>
      </trkpt>
      <trkpt lat="42.737548" lon="0.322870">
        <ele>1731.6</ele>
        <time>2020-06-10T07:42:26Z</time>
      </trkpt>
      <trkpt lat="42.737623" lon="0.322776">
        <ele>1734.1</ele>
        <time>2020-06-10T07:42:44Z</time>
      </trkpt>
      <trkpt lat="42.737657" lon="0.322667">
        <ele>1735.6</ele>
        <time>2020-06-10T07:43:09Z</time>
      </trkpt>
      <trkpt lat="42.737670" lon="0.322550">
        <ele>1737.3</ele>
        <time>2020-06-10T07:43:27Z</time>
      </trkpt>
      <trkpt lat="42.737753" lon="0.322424">
        <ele>1740.9</ele>
        <time>2020-06-10T07:43:46Z</time>
      </trkpt>
      <trkpt lat="42.737861" lon="0.322309">
        <ele>1744.7</ele>
        <time>2020-06-10T07:44:08Z</time>
      </trkpt>
      <trkpt lat="42.737937" lon="0.322246">
        <ele>1748.5</ele>
        <time>2020-06-10T07:44:29Z</time>
      </trkpt>
      <trkpt lat="42.738009" lon="0.322159">
        <ele>1752.8</ele>
        <time>2020-06-10T07:44:50Z</time>
      </trkpt>
      <trkpt lat="42.738072" lon="0.322084">
        <ele>1756.8</ele>
        <time>2020-06-10T07:45:10Z</time>
      </trkpt>
      <trkpt lat="42.738142" lon="0.322021">
        <ele>1760.3</ele>
        <time>2020-06-10T07:45:27Z</time>
      </trkpt>
      <trkpt lat="42.738204" lon="0.321935">
        <ele>1763.6</ele>
        <time>2020-06-10T07:45:45Z</time>
      </trkpt>
      <trkpt lat="42.738241" lon="0.321825">
        <ele>1766.3</ele>
        <time>2020-06-10T07:45:59Z</time>
      </trkpt>
      <trkpt lat="42.738277" lon="0.321760">
        <ele>1768.8</ele>
        <time>2020-06-10T07:46:17Z</time>
      </trkpt>
      <trkpt lat="42.738328" lon="0.321667">
        <ele>1772.0</ele>
        <time>2020-06-10T07:46:39Z</time>
      </trkpt>
      <trkpt lat="42.738406" lon="0.321590">
        <ele>1774.0</ele>
        <time>2020-06-10T07:46:54Z</time>
      </trkpt>
      <trkpt lat="42.738461" lon="0.321508">
        <ele>1778.1</ele>
        <time>2020-06-10T07:47:17Z</time>
      </trkpt>
      <trkpt lat="42.738529" lon="0.321422">
        <ele>1780.6</ele>
        <time>2020-06-10T07:47:35Z</time>
      </trkpt>
      <trkpt lat="42.738600" lon="0.321357">
        <ele>1783.0</ele>
        <time>2020-06-10T07:47:55Z</time>
      </trkpt>
      <trkpt lat="42.738676" lon="0.321294">
        <ele>1785.7</ele>
        <time>2020-06-10T07:48:11Z</time>
      </trkpt>
      <trkpt lat="42.738734" lon="0.321377">
        <ele>1789.1</ele>
        <time>2020-06-10T07:48:31Z</time>
      </trkpt>
      <trkpt lat="42.738760" lon="0.321483">
        <ele>1791.7</ele>
        <time>2020-06-10T07:48:45Z</time>
      </trkpt>
      <trkpt lat="42.738786" lon="0.321412">
        <ele>1798.9</ele>
        <time>2020-06-10T07:49:34Z</time>
      </trkpt>
      <trkpt lat="42.738870" lon="0.321360">
        <ele>1801.5</ele>
        <time>2020-06-10T07:49:48Z</time>
      </trkpt>
      <trkpt lat="42.738973" lon="0.321329">
        <ele>1805.9</ele>
        <time>2020-06-10T07:50:05Z</time>
      </trkpt>
      <trkpt lat="42.739039" lon="0.321257">
        <ele>1808.4</ele>
        <time>2020-06-10T07:50:22Z</time>
      </trkpt>
      <trkpt lat="42.739124" lon="0.321218">
        <ele>1811.7</ele>
        <time>2020-06-10T07:50:37Z</time>
      </trkpt>
      <trkpt lat="42.739218" lon="0.321170">
        <ele>1814.2</ele>
        <time>2020-06-10T07:50:51Z</time>
      </trkpt>
      <trkpt lat="42.739310" lon="0.321121">
        <ele>1817.4</ele>
        <time>2020-06-10T07:51:10Z</time>
      </trkpt>
      <trkpt lat="42.739379" lon="0.321031">
        <ele>1818.2</ele>
        <time>2020-06-10T07:51:26Z</time>
      </trkpt>
      <trkpt lat="42.739473" lon="0.321014">
        <ele>1820.6</ele>
        <time>2020-06-10T07:51:39Z</time>
      </trkpt>
      <trkpt lat="42.739588" lon="0.320944">
        <ele>1822.1</ele>
        <time>2020-06-10T07:51:58Z</time>
      </trkpt>
      <trkpt lat="42.739628" lon="0.320856">
        <ele>1823.8</ele>
        <time>2020-06-10T07:52:19Z</time>
      </trkpt>
      <trkpt lat="42.739683" lon="0.320683">
        <ele>1827.6</ele>
        <time>2020-06-10T07:52:41Z</time>
      </trkpt>
      <trkpt lat="42.739716" lon="0.320524">
        <ele>1830.1</ele>
        <time>2020-06-10T07:53:02Z</time>
      </trkpt>
      <trkpt lat="42.739768" lon="0.320361">
        <ele>1833.3</ele>
        <time>2020-06-10T07:53:23Z</time>
      </trkpt>
      <trkpt lat="42.739815" lon="0.320302">
        <ele>1835.2</ele>
        <time>2020-06-10T07:53:44Z</time>
      </trkpt>
      <trkpt lat="42.739837" lon="0.320255">
        <ele>1837.0</ele>
        <time>2020-06-10T07:54:04Z</time>
      </trkpt>
      <trkpt lat="42.739882" lon="0.320104">
        <ele>1840.6</ele>
        <time>2020-06-10T07:54:25Z</time>
      </trkpt>
      <trkpt lat="42.739920" lon="0.319962">
        <ele>1843.8</ele>
        <time>2020-06-10T07:54:50Z</time>
      </trkpt>
      <trkpt lat="42.739982" lon="0.319837">
        <ele>1847.2</ele>
        <time>2020-06-10T07:55:10Z</time>
      </trkpt>
      <trkpt lat="42.740036" lon="0.319738">
        <ele>1849.6</ele>
        <time>2020-06-10T07:55:32Z</time>
      </trkpt>
      <trkpt lat="42.740077" lon="0.319658">
        <ele>1852.2</ele>
        <time>2020-06-10T07:55:51Z</time>
      </trkpt>
      <trkpt lat="42.740124" lon="0.319576">
        <ele>1855.9</ele>
        <time>2020-06-10T07:56:12Z</time>
      </trkpt>
      <trkpt lat="42.740172" lon="0.319462">
        <ele>1860.8</ele>
        <time>2020-06-10T07:56:38Z</time>
      </trkpt>
      <trkpt lat="42.740222" lon="0.319330">
        <ele>1863.5</ele>
        <time>2020-06-10T07:56:56Z</time>
      </trkpt>
      <trkpt lat="42.740281" lon="0.319187">
        <ele>1865.9</ele>
        <time>2020-06-10T07:57:10Z</time>
      </trkpt>
      <trkpt lat="42.740358" lon="0.319043">
        <ele>1869.1</ele>
        <time>2020-06-10T07:57:28Z</time>
      </trkpt>
      <trkpt lat="42.740448" lon="0.318930">
        <ele>1871.8</ele>
        <time>2020-06-10T07:57:43Z</time>
      </trkpt>
      <trkpt lat="42.740490" lon="0.318801">
        <ele>1875.2</ele>
        <time>2020-06-10T07:58:02Z</time>
      </trkpt>
      <trkpt lat="42.740516" lon="0.318682">
        <ele>1877.7</ele>
        <time>2020-06-10T07:58:22Z</time>
      </trkpt>
      <trkpt lat="42.740591" lon="0.318584">
        <ele>1879.4</ele>
        <time>2020-06-10T07:58:45Z</time>
      </trkpt>
      <trkpt lat="42.740654" lon="0.318598">
        <ele>1881.2</ele>
        <time>2020-06-10T07:59:09Z</time>
      </trkpt>
      <trkpt lat="42.740747" lon="0.318641">
        <ele>1883.9</ele>
        <time>2020-06-10T07:59:26Z</time>
      </trkpt>
      <trkpt lat="42.740794" lon="0.318755">
        <ele>1886.5</ele>
        <time>2020-06-10T07:59:45Z</time>
      </trkpt>
      <trkpt lat="42.740822" lon="0.318847">
        <ele>1890.2</ele>
        <time>2020-06-10T08:00:12Z</time>
      </trkpt>
      <trkpt lat="42.740840" lon="0.318927">
        <ele>1895.1</ele>
        <time>2020-06-10T08:00:35Z</time>
      </trkpt>
      <trkpt lat="42.740912" lon="0.318961">
        <ele>1897.7</ele>
        <time>2020-06-10T08:00:51Z</time>
      </trkpt>
      <trkpt lat="42.740981" lon="0.318972">
        <ele>1902.1</ele>
        <time>2020-06-10T08:01:11Z</time>
      </trkpt>
      <trkpt lat="42.740996" lon="0.319103">
        <ele>1907.1</ele>
        <time>2020-06-10T08:01:33Z</time>
      </trkpt>
      <trkpt lat="42.741016" lon="0.319221">
        <ele>1911.7</ele>
        <time>2020-06-10T08:01:55Z</time>
      </trkpt>
      <trkpt lat="42.741032" lon="0.319316">
        <ele>1916.2</ele>
        <time>2020-06-10T08:02:19Z</time>
      </trkpt>
      <trkpt lat="42.741117" lon="0.319245">
        <ele>1920.8</ele>
        <time>2020-06-10T08:02:44Z</time>
      </trkpt>
      <trkpt lat="42.741221" lon="0.319244">
        <ele>1926.3</ele>
        <time>2020-06-10T08:03:11Z</time>
      </trkpt>
      <trkpt lat="42.741259" lon="0.319328">
        <ele>1929.9</ele>
        <time>2020-06-10T08:03:30Z</time>
      </trkpt>
      <trkpt lat="42.741336" lon="0.319345">
        <ele>1932.6</ele>
        <time>2020-06-10T08:03:43Z</time>
      </trkpt>
      <trkpt lat="42.741341" lon="0.319463">
        <ele>1935.3</ele>
        <time>2020-06-10T08:04:03Z</time>
      </trkpt>
      <trkpt lat="42.741301" lon="0.319609">
        <ele>1936.4</ele>
        <time>2020-06-10T08:04:22Z</time>
      </trkpt>
      <trkpt lat="42.741372" lon="0.319626">
        <ele>1939.9</ele>
        <time>2020-06-10T08:04:43Z</time>
      </trkpt>
      <trkpt lat="42.741339" lon="0.319711">
        <ele>1941.9</ele>
        <time>2020-06-10T08:05:19Z</time>
      </trkpt>
      <trkpt lat="42.741336" lon="0.319815">
        <ele>1944.1</ele>
        <time>2020-06-10T08:05:51Z</time>
      </trkpt>
      <trkpt lat="42.741390" lon="0.319754">
        <ele>1946.2</ele>
        <time>2020-06-10T08:06:17Z</time>
      </trkpt>
      <trkpt lat="42.741413" lon="0.319893">
        <ele>1949.2</ele>
        <time>2020-06-10T08:06:41Z</time>
      </trkpt>
      <trkpt lat="42.741446" lon="0.320003">
        <ele>1954.2</ele>
        <time>2020-06-10T08:07:03Z</time>
      </trkpt>
      <trkpt lat="42.741490" lon="0.320153">
        <ele>1957.8</ele>
        <time>2020-06-10T08:07:24Z</time>
      </trkpt>
      <trkpt lat="42.741504" lon="0.320293">
        <ele>1960.4</ele>
        <time>2020-06-10T08:07:40Z</time>
      </trkpt>
      <trkpt lat="42.741514" lon="0.320430">
        <ele>1964.8</ele>
        <time>2020-06-10T08:07:59Z</time>
      </trkpt>
      <trkpt lat="42.741544" lon="0.320558">
        <ele>1968.6</ele>
        <time>2020-06-10T08:08:16Z</time>
      </trkpt>
      <trkpt lat="42.741617" lon="0.320633">
        <ele>1974.0</ele>
        <time>2020-06-10T08:08:49Z</time>
      </trkpt>
      <trkpt lat="42.741693" lon="0.320710">
        <ele>1979.2</ele>
        <time>2020-06-10T08:09:10Z</time>
      </trkpt>
      <trkpt lat="42.741729" lon="0.320850">
        <ele>1981.9</ele>
        <time>2020-06-10T08:09:28Z</time>
      </trkpt>
      <trkpt lat="42.741753" lon="0.320965">
        <ele>1983.6</ele>
        <time>2020-06-10T08:09:47Z</time>
      </trkpt>
      <trkpt lat="42.741816" lon="0.321082">
        <ele>1987.5</ele>
        <time>2020-06-10T08:10:07Z</time>
      </trkpt>
      <trkpt lat="42.741829" lon="0.321263">
        <ele>1989.3</ele>
        <time>2020-06-10T08:10:27Z</time>
      </trkpt>
      <trkpt lat="42.741805" lon="0.321373">
        <ele>1989.5</ele>
        <time>2020-06-10T08:10:59Z</time>
      </trkpt>
      <trkpt lat="42.741802" lon="0.321549">
        <ele>1989.6</ele>
        <time>2020-06-10T08:11:15Z</time>
      </trkpt>
      <trkpt lat="42.741750" lon="0.321711">
        <ele>1991.6</ele>
        <time>2020-06-10T08:11:29Z</time>
      </trkpt>
      <trkpt lat="42.741677" lon="0.321940">
        <ele>1993.4</ele>
        <time>2020-06-10T08:11:46Z</time>
      </trkpt>
      <trkpt lat="42.741616" lon="0.322066">
        <ele>1993.4</ele>
        <time>2020-06-10T08:11:57Z</time>
      </trkpt>
      <trkpt lat="42.741568" lon="0.322117">
        <ele>1994.4</ele>
        <time>2020-06-10T08:12:22Z</time>
      </trkpt>
      <trkpt lat="42.741565" lon="0.322227">
        <ele>1997.2</ele>
        <time>2020-06-10T08:12:38Z</time>
      </trkpt>
      <trkpt lat="42.741560" lon="0.322412">
        <ele>2001.6</ele>
        <time>2020-06-10T08:12:56Z</time>
      </trkpt>
      <trkpt lat="42.741540" lon="0.322553">
        <ele>2005.4</ele>
        <time>2020-06-10T08:13:14Z</time>
      </trkpt>
      <trkpt lat="42.741530" lon="0.322688">
        <ele>2009.3</ele>
        <time>2020-06-10T08:13:32Z</time>
      </trkpt>
      <trkpt lat="42.741553" lon="0.322709">
        <ele>2014.8</ele>
        <time>2020-06-10T08:15:52Z</time>
      </trkpt>
      <trkpt lat="42.741637" lon="0.322707">
        <ele>2018.6</ele>
        <time>2020-06-10T08:16:11Z</time>
      </trkpt>
      <trkpt lat="42.741714" lon="0.322654">
        <ele>2023.6</ele>
        <time>2020-06-10T08:16:30Z</time>
      </trkpt>
      <trkpt lat="42.741792" lon="0.322596">
        <ele>2024.1</ele>
        <time>2020-06-10T08:17:00Z</time>
      </trkpt>
      <trkpt lat="42.741874" lon="0.322514">
        <ele>2027.8</ele>
        <time>2020-06-10T08:17:17Z</time>
      </trkpt>
      <trkpt lat="42.741948" lon="0.322422">
        <ele>2029.4</ele>
        <time>2020-06-10T08:17:33Z</time>
      </trkpt>
      <trkpt lat="42.742029" lon="0.322432">
        <ele>2034.2</ele>
        <time>2020-06-10T08:18:11Z</time>
      </trkpt>
      <trkpt lat="42.742091" lon="0.322306">
        <ele>2035.0</ele>
        <time>2020-06-10T08:18:28Z</time>
      </trkpt>
      <trkpt lat="42.742202" lon="0.322229">
        <ele>2038.1</ele>
        <time>2020-06-10T08:18:46Z</time>
      </trkpt>
      <trkpt lat="42.742300" lon="0.322176">
        <ele>2041.9</ele>
        <time>2020-06-10T08:19:06Z</time>
      </trkpt>
      <trkpt lat="42.742376" lon="0.322075">
        <ele>2043.5</ele>
        <time>2020-06-10T08:19:23Z</time>
      </trkpt>
      <trkpt lat="42.742428" lon="0.321956">
        <ele>2044.5</ele>
        <time>2020-06-10T08:19:40Z</time>
      </trkpt>
      <trkpt lat="42.742496" lon="0.321893">
        <ele>2047.0</ele>
        <time>2020-06-10T08:20:01Z</time>
      </trkpt>
      <trkpt lat="42.742558" lon="0.321953">
        <ele>2051.4</ele>
        <time>2020-06-10T08:20:23Z</time>
      </trkpt>
      <trkpt lat="42.742629" lon="0.321931">
        <ele>2056.7</ele>
        <time>2020-06-10T08:20:49Z</time>
      </trkpt>
      <trkpt lat="42.742704" lon="0.321994">
        <ele>2059.4</ele>
        <time>2020-06-10T08:21:08Z</time>
      </trkpt>
      <trkpt lat="42.742745" lon="0.321981">
        <ele>2063.9</ele>
        <time>2020-06-10T08:21:34Z</time>
      </trkpt>
      <trkpt lat="42.742817" lon="0.321903">
        <ele>2068.2</ele>
        <time>2020-06-10T08:21:57Z</time>
      </trkpt>
      <trkpt lat="42.742871" lon="0.321817">
        <ele>2070.8</ele>
        <time>2020-06-10T08:22:22Z</time>
      </trkpt>
      <trkpt lat="42.742966" lon="0.321847">
        <ele>2075.2</ele>
        <time>2020-06-10T08:22:43Z</time>
      </trkpt>
      <trkpt lat="42.743025" lon="0.321759">
        <ele>2079.7</ele>
        <time>2020-06-10T08:23:06Z</time>
      </trkpt>
      <trkpt lat="42.743080" lon="0.321673">
        <ele>2084.1</ele>
        <time>2020-06-10T08:23:30Z</time>
      </trkpt>
      <trkpt lat="42.743143" lon="0.321622">
        <ele>2088.4</ele>
        <time>2020-06-10T08:23:52Z</time>
      </trkpt>
      <trkpt lat="42.743217" lon="0.321565">
        <ele>2092.2</ele>
        <time>2020-06-10T08:24:11Z</time>
      </trkpt>
      <trkpt lat="42.743276" lon="0.321560">
        <ele>2096.3</ele>
        <time>2020-06-10T08:24:47Z</time>
      </trkpt>
      <trkpt lat="42.743308" lon="0.321630">
        <ele>2098.3</ele>
        <time>2020-06-10T08:27:00Z</time>
      </trkpt>
      <trkpt lat="42.743370" lon="0.321713">
        <ele>2099.5</ele>
        <time>2020-06-10T08:27:17Z</time>
      </trkpt>
      <trkpt lat="42.743443" lon="0.321792">
        <ele>2102.9</ele>
        <time>2020-06-10T08:27:35Z</time>
      </trkpt>
      <trkpt lat="42.743501" lon="0.321879">
        <ele>2107.2</ele>
        <time>2020-06-10T08:27:56Z</time>
      </trkpt>
      <trkpt lat="42.743540" lon="0.321963">
        <ele>2112.4</ele>
        <time>2020-06-10T08:28:30Z</time>
      </trkpt>
      <trkpt lat="42.743567" lon="0.322068">
        <ele>2117.2</ele>
        <time>2020-06-10T08:28:58Z</time>
      </trkpt>
      <trkpt lat="42.743589" lon="0.322162">
        <ele>2121.6</ele>
        <time>2020-06-10T08:29:21Z</time>
      </trkpt>
      <trkpt lat="42.743587" lon="0.322289">
        <ele>2125.7</ele>
        <time>2020-06-10T08:29:43Z</time>
      </trkpt>
      <trkpt lat="42.743661" lon="0.322337">
        <ele>2129.5</ele>
        <time>2020-06-10T08:30:08Z</time>
      </trkpt>
      <trkpt lat="42.743690" lon="0.322434">
        <ele>2135.2</ele>
        <time>2020-06-10T08:30:33Z</time>
      </trkpt>
      <trkpt lat="42.743750" lon="0.322524">
        <ele>2139.9</ele>
        <time>2020-06-10T08:30:58Z</time>
      </trkpt>
      <trkpt lat="42.743834" lon="0.322511">
        <ele>2143.3</ele>
        <time>2020-06-10T08:31:23Z</time>
      </trkpt>
      <trkpt lat="42.743845" lon="0.322601">
        <ele>2147.9</ele>
        <time>2020-06-10T08:31:49Z</time>
      </trkpt>
      <trkpt lat="42.743870" lon="0.322715">
        <ele>2153.7</ele>
        <time>2020-06-10T08:32:14Z</time>
      </trkpt>
      <trkpt lat="42.743945" lon="0.322783">
        <ele>2158.9</ele>
        <time>2020-06-10T08:32:42Z</time>
      </trkpt>
      <trkpt lat="42.743965" lon="0.322894">
        <ele>2162.2</ele>
        <time>2020-06-10T08:33:10Z</time>
      </trkpt>
      <trkpt lat="42.743998" lon="0.322990">
        <ele>2166.8</ele>
        <time>2020-06-10T08:33:37Z</time>
      </trkpt>
      <trkpt lat="42.744008" lon="0.323108">
        <ele>2172.0</ele>
        <time>2020-06-10T08:34:03Z</time>
      </trkpt>
      <trkpt lat="42.744066" lon="0.323183">
        <ele>2176.1</ele>
        <time>2020-06-10T08:34:27Z</time>
      </trkpt>
      <trkpt lat="42.744169" lon="0.323178">
        <ele>2180.7</ele>
        <time>2020-06-10T08:34:54Z</time>
      </trkpt>
      <trkpt lat="42.744276" lon="0.323212">
        <ele>2185.2</ele>
        <time>2020-06-10T08:35:15Z</time>
      </trkpt>
      <trkpt lat="42.744374" lon="0.323225">
        <ele>2187.3</ele>
        <time>2020-06-10T08:35:36Z</time>
      </trkpt>
      <trkpt lat="42.744476" lon="0.323268">
        <ele>2190.6</ele>
        <time>2020-06-10T08:35:56Z</time>
      </trkpt>
      <trkpt lat="42.744570" lon="0.323327">
        <ele>2194.0</ele>
        <time>2020-06-10T08:36:17Z</time>
      </trkpt>
      <trkpt lat="42.744620" lon="0.323434">
        <ele>2199.5</ele>
        <time>2020-06-10T08:36:41Z</time>
      </trkpt>
      <trkpt lat="42.744659" lon="0.323535">
        <ele>2204.6</ele>
        <time>2020-06-10T08:37:07Z</time>
      </trkpt>
      <trkpt lat="42.744658" lon="0.323626">
        <ele>2210.1</ele>
        <time>2020-06-10T08:37:31Z</time>
      </trkpt>
      <trkpt lat="42.744728" lon="0.323706">
        <ele>2215.1</ele>
        <time>2020-06-10T08:37:57Z</time>
      </trkpt>
      <trkpt lat="42.744743" lon="0.323789">
        <ele>2219.2</ele>
        <time>2020-06-10T08:38:25Z</time>
      </trkpt>
      <trkpt lat="42.744752" lon="0.323884">
        <ele>2223.8</ele>
        <time>2020-06-10T08:38:52Z</time>
      </trkpt>
      <trkpt lat="42.744759" lon="0.323983">
        <ele>2229.0</ele>
        <time>2020-06-10T08:39:19Z</time>
      </trkpt>
      <trkpt lat="42.744747" lon="0.324076">
        <ele>2234.5</ele>
        <time>2020-06-10T08:39:44Z</time>
      </trkpt>
      <trkpt lat="42.744741" lon="0.324188">
        <ele>2238.0</ele>
        <time>2020-06-10T08:40:13Z</time>
      </trkpt>
      <trkpt lat="42.744762" lon="0.324254">
        <ele>2242.2</ele>
        <time>2020-06-10T08:42:59Z</time>
      </trkpt>
      <trkpt lat="42.744818" lon="0.324298">
        <ele>2245.1</ele>
        <time>2020-06-10T08:43:53Z</time>
      </trkpt>
      <trkpt lat="42.744885" lon="0.324388">
        <ele>2247.9</ele>
        <time>2020-06-10T08:44:12Z</time>
      </trkpt>
      <trkpt lat="42.744959" lon="0.324463">
        <ele>2252.4</ele>
        <time>2020-06-10T08:44:35Z</time>
      </trkpt>
      <trkpt lat="42.745022" lon="0.324544">
        <ele>2256.0</ele>
        <time>2020-06-10T08:44:55Z</time>
      </trkpt>
      <trkpt lat="42.745091" lon="0.324608">
        <ele>2258.7</ele>
        <time>2020-06-10T08:45:14Z</time>
      </trkpt>
      <trkpt lat="42.745158" lon="0.324600">
        <ele>2262.1</ele>
        <time>2020-06-10T08:45:34Z</time>
      </trkpt>
      <trkpt lat="42.745205" lon="0.324680">
        <ele>2265.8</ele>
        <time>2020-06-10T08:45:54Z</time>
      </trkpt>
      <trkpt lat="42.745285" lon="0.324709">
        <ele>2270.9</ele>
        <time>2020-06-10T08:46:21Z</time>
      </trkpt>
      <trkpt lat="42.745375" lon="0.324725">
        <ele>2274.4</ele>
        <time>2020-06-10T08:46:42Z</time>
      </trkpt>
      <trkpt lat="42.745465" lon="0.324778">
        <ele>2280.1</ele>
        <time>2020-06-10T08:47:10Z</time>
      </trkpt>
      <trkpt lat="42.745513" lon="0.324795">
        <ele>2284.0</ele>
        <time>2020-06-10T08:47:38Z</time>
      </trkpt>
      <trkpt lat="42.745580" lon="0.324852">
        <ele>2289.6</ele>
        <time>2020-06-10T08:48:16Z</time>
      </trkpt>
      <trkpt lat="42.745667" lon="0.324867">
        <ele>2294.5</ele>
        <time>2020-06-10T08:48:50Z</time>
      </trkpt>
      <trkpt lat="42.745636" lon="0.324956">
        <ele>2300.3</ele>
        <time>2020-06-10T08:49:22Z</time>
      </trkpt>
      <trkpt lat="42.745642" lon="0.325054">
        <ele>2303.7</ele>
        <time>2020-06-10T08:49:45Z</time>
      </trkpt>
      <trkpt lat="42.745706" lon="0.325090">
        <ele>2308.7</ele>
        <time>2020-06-10T08:50:07Z</time>
      </trkpt>
      <trkpt lat="42.745775" lon="0.325162">
        <ele>2311.6</ele>
        <time>2020-06-10T08:50:27Z</time>
      </trkpt>
      <trkpt lat="42.745830" lon="0.325252">
        <ele>2316.0</ele>
        <time>2020-06-10T08:50:46Z</time>
      </trkpt>
      <trkpt lat="42.745878" lon="0.325285">
        <ele>2318.9</ele>
        <time>2020-06-10T08:51:05Z</time>
      </trkpt>
      <trkpt lat="42.745957" lon="0.325319">
        <ele>2322.5</ele>
        <time>2020-06-10T08:51:28Z</time>
      </trkpt>
      <trkpt lat="42.746031" lon="0.325393">
        <ele>2325.9</ele>
        <time>2020-06-10T08:51:47Z</time>
      </trkpt>
      <trkpt lat="42.746104" lon="0.325423">
        <ele>2330.7</ele>
        <time>2020-06-10T08:52:10Z</time>
      </trkpt>
      <trkpt lat="42.746147" lon="0.325504">
        <ele>2334.3</ele>
        <time>2020-06-10T08:52:32Z</time>
      </trkpt>
      <trkpt lat="42.746212" lon="0.325570">
        <ele>2338.9</ele>
        <time>2020-06-10T08:52:53Z</time>
      </trkpt>
      <trkpt lat="42.746289" lon="0.325582">
        <ele>2342.9</ele>
        <time>2020-06-10T08:53:13Z</time>
      </trkpt>
      <trkpt lat="42.746370" lon="0.325597">
        <ele>2345.7</ele>
        <time>2020-06-10T08:53:33Z</time>
      </trkpt>
      <trkpt lat="42.746468" lon="0.325579">
        <ele>2348.3</ele>
        <time>2020-06-10T08:53:48Z</time>
      </trkpt>
      <trkpt lat="42.746552" lon="0.325581">
        <ele>2350.7</ele>
        <time>2020-06-10T08:54:05Z</time>
      </trkpt>
      <trkpt lat="42.746629" lon="0.325627">
        <ele>2354.5</ele>
        <time>2020-06-10T08:54:27Z</time>
      </trkpt>
      <trkpt lat="42.746710" lon="0.325684">
        <ele>2358.8</ele>
        <time>2020-06-10T08:55:05Z</time>
      </trkpt>
      <trkpt lat="42.746782" lon="0.325723">
        <ele>2364.0</ele>
        <time>2020-06-10T08:55:36Z</time>
      </trkpt>
      <trkpt lat="42.746879" lon="0.325740">
        <ele>2369.1</ele>
        <time>2020-06-10T08:56:05Z</time>
      </trkpt>
      <trkpt lat="42.746966" lon="0.325795">
        <ele>2374.7</ele>
        <time>2020-06-10T08:56:34Z</time>
      </trkpt>
      <trkpt lat="42.747048" lon="0.325880">
        <ele>2378.3</ele>
        <time>2020-06-10T08:56:56Z</time>
      </trkpt>
      <trkpt lat="42.747132" lon="0.325959">
        <ele>2382.9</ele>
        <time>2020-06-10T08:57:20Z</time>
      </trkpt>
      <trkpt lat="42.747216" lon="0.326028">
        <ele>2388.1</ele>
        <time>2020-06-10T08:57:49Z</time>
      </trkpt>
      <trkpt lat="42.747317" lon="0.326010">
        <ele>2392.9</ele>
        <time>2020-06-10T08:58:17Z</time>
      </trkpt>
      <trkpt lat="42.747399" lon="0.325969">
        <ele>2399.0</ele>
        <time>2020-06-10T08:58:46Z</time>
      </trkpt>
      <trkpt lat="42.747452" lon="0.325939">
        <ele>2403.0</ele>
        <time>2020-06-10T08:59:09Z</time>
      </trkpt>
      <trkpt lat="42.747545" lon="0.325939">
        <ele>2404.9</ele>
        <time>2020-06-10T08:59:27Z</time>
      </trkpt>
      <trkpt lat="42.747599" lon="0.326033">
        <ele>2410.4</ele>
        <time>2020-06-10T08:59:50Z</time>
      </trkpt>
      <trkpt lat="42.747669" lon="0.326097">
        <ele>2411.2</ele>
        <time>2020-06-10T09:00:03Z</time>
      </trkpt>
      <trkpt lat="42.747754" lon="0.326139">
        <ele>2414.0</ele>
        <time>2020-06-10T09:00:19Z</time>
      </trkpt>
      <trkpt lat="42.747837" lon="0.326195">
        <ele>2416.7</ele>
        <time>2020-06-10T09:00:36Z</time>
      </trkpt>
      <trkpt lat="42.747890" lon="0.326288">
        <ele>2419.3</ele>
        <time>2020-06-10T09:00:57Z</time>
      </trkpt>
      <trkpt lat="42.747954" lon="0.326388">
        <ele>2422.1</ele>
        <time>2020-06-10T09:01:12Z</time>
      </trkpt>
      <trkpt lat="42.747973" lon="0.326479">
        <ele>2423.0</ele>
        <time>2020-06-10T09:01:30Z</time>
      </trkpt>
      <trkpt lat="42.748058" lon="0.326483">
        <ele>2423.2</ele>
        <time>2020-06-10T09:01:50Z</time>
      </trkpt>
      <trkpt lat="42.748130" lon="0.326548">
        <ele>2424.1</ele>
        <time>2020-06-10T09:02:01Z</time>
      </trkpt>
      <trkpt lat="42.748189" lon="0.326641">
        <ele>2424.0</ele>
        <time>2020-06-10T09:02:14Z</time>
      </trkpt>
      <trkpt lat="42.748252" lon="0.326722">
        <ele>2424.1</ele>
        <time>2020-06-10T09:02:31Z</time>
      </trkpt>
      <trkpt lat="42.748336" lon="0.326756">
        <ele>2426.8</ele>
        <time>2020-06-10T09:02:54Z</time>
      </trkpt>
      <trkpt lat="42.748410" lon="0.326811">
        <ele>2427.6</ele>
        <time>2020-06-10T09:03:14Z</time>
      </trkpt>
      <trkpt lat="42.748511" lon="0.326841">
        <ele>2430.4</ele>
        <time>2020-06-10T09:03:30Z</time>
      </trkpt>
      <trkpt lat="42.748597" lon="0.326827">
        <ele>2434.1</ele>
        <time>2020-06-10T09:03:48Z</time>
      </trkpt>
      <trkpt lat="42.748675" lon="0.326840">
        <ele>2436.9</ele>
        <time>2020-06-10T09:04:09Z</time>
      </trkpt>
      <trkpt lat="42.748792" lon="0.326880">
        <ele>2439.4</ele>
        <time>2020-06-10T09:04:28Z</time>
      </trkpt>
      <trkpt lat="42.748888" lon="0.326882">
        <ele>2441.0</ele>
        <time>2020-06-10T09:04:43Z</time>
      </trkpt>
      <trkpt lat="42.748959" lon="0.326972">
        <ele>2441.9</ele>
        <time>2020-06-10T09:04:57Z</time>
      </trkpt>
      <trkpt lat="42.749025" lon="0.327062">
        <ele>2443.6</ele>
        <time>2020-06-10T09:05:12Z</time>
      </trkpt>
      <trkpt lat="42.749104" lon="0.327119">
        <ele>2446.4</ele>
        <time>2020-06-10T09:05:28Z</time>
      </trkpt>
      <trkpt lat="42.749176" lon="0.327183">
        <ele>2449.0</ele>
        <time>2020-06-10T09:05:45Z</time>
      </trkpt>
      <trkpt lat="42.749233" lon="0.327271">
        <ele>2450.6</ele>
        <time>2020-06-10T09:06:00Z</time>
      </trkpt>
      <trkpt lat="42.749294" lon="0.327359">
        <ele>2453.9</ele>
        <time>2020-06-10T09:06:21Z</time>
      </trkpt>
      <trkpt lat="42.749312" lon="0.327481">
        <ele>2455.6</ele>
        <time>2020-06-10T09:06:44Z</time>
      </trkpt>
      <trkpt lat="42.749387" lon="0.327514">
        <ele>2459.5</ele>
        <time>2020-06-10T09:07:07Z</time>
      </trkpt>
      <trkpt lat="42.749428" lon="0.327595">
        <ele>2463.1</ele>
        <time>2020-06-10T09:07:26Z</time>
      </trkpt>
      <trkpt lat="42.749419" lon="0.327691">
        <ele>2465.8</ele>
        <time>2020-06-10T09:07:49Z</time>
      </trkpt>
      <trkpt lat="42.749488" lon="0.327709">
        <ele>2470.3</ele>
        <time>2020-06-10T09:08:14Z</time>
      </trkpt>
      <trkpt lat="42.749534" lon="0.327773">
        <ele>2471.9</ele>
        <time>2020-06-10T09:08:31Z</time>
      </trkpt>
      <trkpt lat="42.749590" lon="0.327734">
        <ele>2477.6</ele>
        <time>2020-06-10T09:09:06Z</time>
      </trkpt>
      <trkpt lat="42.749643" lon="0.327743">
        <ele>2483.8</ele>
        <time>2020-06-10T09:09:34Z</time>
      </trkpt>
      <trkpt lat="42.749719" lon="0.327802">
        <ele>2486.3</ele>
        <time>2020-06-10T09:09:52Z</time>
      </trkpt>
      <trkpt lat="42.749773" lon="0.327867">
        <ele>2490.5</ele>
        <time>2020-06-10T09:10:15Z</time>
      </trkpt>
      <trkpt lat="42.749842" lon="0.327926">
        <ele>2495.8</ele>
        <time>2020-06-10T09:10:38Z</time>
      </trkpt>
      <trkpt lat="42.749915" lon="0.327961">
        <ele>2500.3</ele>
        <time>2020-06-10T09:11:02Z</time>
      </trkpt>
      <trkpt lat="42.749956" lon="0.328035">
        <ele>2505.7</ele>
        <time>2020-06-10T09:11:27Z</time>
      </trkpt>
      <trkpt lat="42.750018" lon="0.328113">
        <ele>2512.4</ele>
        <time>2020-06-10T09:12:08Z</time>
      </trkpt>
      <trkpt lat="42.750095" lon="0.328152">
        <ele>2518.6</ele>
        <time>2020-06-10T09:12:38Z</time>
      </trkpt>
      <trkpt lat="42.750189" lon="0.328174">
        <ele>2521.3</ele>
        <time>2020-06-10T09:12:58Z</time>
      </trkpt>
      <trkpt lat="42.750278" lon="0.328227">
        <ele>2525.7</ele>
        <time>2020-06-10T09:13:23Z</time>
      </trkpt>
      <trkpt lat="42.750303" lon="0.328333">
        <ele>2532.8</ele>
        <time>2020-06-10T09:14:03Z</time>
      </trkpt>
      <trkpt lat="42.750346" lon="0.328417">
        <ele>2538.0</ele>
        <time>2020-06-10T09:14:51Z</time>
      </trkpt>
      <trkpt lat="42.750409" lon="0.328511">
        <ele>2540.7</ele>
        <time>2020-06-10T09:15:08Z</time>
      </trkpt>
      <trkpt lat="42.750470" lon="0.328606">
        <ele>2541.6</ele>
        <time>2020-06-10T09:15:23Z</time>
      </trkpt>
      <trkpt lat="42.750524" lon="0.328695">
        <ele>2542.5</ele>
        <time>2020-06-10T09:15:48Z</time>
      </trkpt>
      <trkpt lat="42.750566" lon="0.328737">
        <ele>2545.6</ele>
        <time>2020-06-10T09:17:48Z</time>
      </trkpt>
      <trkpt lat="42.750625" lon="0.328833">
        <ele>2548.2</ele>
        <time>2020-06-10T09:18:09Z</time>
      </trkpt>
      <trkpt lat="42.750690" lon="0.328907">
        <ele>2550.3</ele>
        <time>2020-06-10T09:18:33Z</time>
      </trkpt>
      <trkpt lat="42.750711" lon="0.328949">
        <ele>2553.5</ele>
        <time>2020-06-10T09:18:56Z</time>
      </trkpt>
      <trkpt lat="42.750768" lon="0.329018">
        <ele>2556.8</ele>
        <time>2020-06-10T09:19:17Z</time>
      </trkpt>
      <trkpt lat="42.750832" lon="0.329089">
        <ele>2560.6</ele>
        <time>2020-06-10T09:19:37Z</time>
      </trkpt>
      <trkpt lat="42.750890" lon="0.329113">
        <ele>2563.1</ele>
        <time>2020-06-10T09:19:58Z</time>
      </trkpt>
      <trkpt lat="42.750908" lon="0.329209">
        <ele>2567.6</ele>
        <time>2020-06-10T09:20:24Z</time>
      </trkpt>
      <trkpt lat="42.750965" lon="0.329280">
        <ele>2571.1</ele>
        <time>2020-06-10T09:20:47Z</time>
      </trkpt>
      <trkpt lat="42.751014" lon="0.329339">
        <ele>2575.4</ele>
        <time>2020-06-10T09:21:10Z</time>
      </trkpt>
      <trkpt lat="42.751080" lon="0.329370">
        <ele>2579.6</ele>
        <time>2020-06-10T09:21:32Z</time>
      </trkpt>
      <trkpt lat="42.751127" lon="0.329454">
        <ele>2585.1</ele>
        <time>2020-06-10T09:22:02Z</time>
      </trkpt>
      <trkpt lat="42.751179" lon="0.329512">
        <ele>2588.9</ele>
        <time>2020-06-10T09:22:27Z</time>
      </trkpt>
      <trkpt lat="42.751245" lon="0.329553">
        <ele>2592.4</ele>
        <time>2020-06-10T09:22:49Z</time>
      </trkpt>
      <trkpt lat="42.751276" lon="0.329638">
        <ele>2597.5</ele>
        <time>2020-06-10T09:23:19Z</time>
      </trkpt>
      <trkpt lat="42.751267" lon="0.329738">
        <ele>2601.1</ele>
        <time>2020-06-10T09:23:42Z</time>
      </trkpt>
      <trkpt lat="42.751314" lon="0.329744">
        <ele>2606.2</ele>
        <time>2020-06-10T09:24:07Z</time>
      </trkpt>
      <trkpt lat="42.751354" lon="0.329806">
        <ele>2610.3</ele>
        <time>2020-06-10T09:24:32Z</time>
      </trkpt>
      <trkpt lat="42.751408" lon="0.329859">
        <ele>2615.0</ele>
        <time>2020-06-10T09:25:54Z</time>
      </trkpt>
      <trkpt lat="42.751461" lon="0.329939">
        <ele>2620.1</ele>
        <time>2020-06-10T09:26:20Z</time>
      </trkpt>
      <trkpt lat="42.751520" lon="0.330035">
        <ele>2624.2</ele>
        <time>2020-06-10T09:26:42Z</time>
      </trkpt>
      <trkpt lat="42.751561" lon="0.330115">
        <ele>2627.7</ele>
        <time>2020-06-10T09:27:04Z</time>
      </trkpt>
      <trkpt lat="42.751594" lon="0.330180">
        <ele>2633.1</ele>
        <time>2020-06-10T09:27:33Z</time>
      </trkpt>
      <trkpt lat="42.751677" lon="0.330203">
        <ele>2637.7</ele>
        <time>2020-06-10T09:28:01Z</time>
      </trkpt>
      <trkpt lat="42.751657" lon="0.330288">
        <ele>2640.3</ele>
        <time>2020-06-10T09:28:24Z</time>
      </trkpt>
      <trkpt lat="42.751718" lon="0.330355">
        <ele>2647.6</ele>
        <time>2020-06-10T09:29:03Z</time>
      </trkpt>
      <trkpt lat="42.751711" lon="0.330472">
        <ele>2651.8</ele>
        <time>2020-06-10T09:29:35Z</time>
      </trkpt>
      <trkpt lat="42.751745" lon="0.330563">
        <ele>2658.4</ele>
        <time>2020-06-10T09:30:12Z</time>
      </trkpt>
      <trkpt lat="42.751816" lon="0.330570">
        <ele>2661.7</ele>
        <time>2020-06-10T09:30:37Z</time>
      </trkpt>
      <trkpt lat="42.751847" lon="0.330647">
        <ele>2667.9</ele>
        <time>2020-06-10T09:31:13Z</time>
      </trkpt>
      <trkpt lat="42.751905" lon="0.330712">
        <ele>2672.7</ele>
        <time>2020-06-10T09:32:02Z</time>
      </trkpt>
      <trkpt lat="42.752005" lon="0.330711">
        <ele>2675.2</ele>
        <time>2020-06-10T09:32:21Z</time>
      </trkpt>
      <trkpt lat="42.752106" lon="0.330710">
        <ele>2675.2</ele>
        <time>2020-06-10T09:32:35Z</time>
      </trkpt>
      <trkpt lat="42.752195" lon="0.330702">
        <ele>2675.3</ele>
        <time>2020-06-10T09:32:51Z</time>
      </trkpt>
      <trkpt lat="42.752287" lon="0.330677">
        <ele>2676.3</ele>
        <time>2020-06-10T09:33:13Z</time>
      </trkpt>
      <trkpt lat="42.752368" lon="0.330704">
        <ele>2679.7</ele>
        <time>2020-06-10T09:33:35Z</time>
      </trkpt>
      <trkpt lat="42.752385" lon="0.330680">
        <ele>2680.2</ele>
        <time>2020-06-10T09:39:21Z</time>
      </trkpt>
      <trkpt lat="42.752443" lon="0.330620">
        <ele>2680.2</ele>
        <time>2020-06-10T09:39:38Z</time>
      </trkpt>
      <trkpt lat="42.752487" lon="0.330518">
        <ele>2676.8</ele>
        <time>2020-06-10T09:40:05Z</time>
      </trkpt>
      <trkpt lat="42.752545" lon="0.330421">
        <ele>2676.8</ele>
        <time>2020-06-10T09:40:18Z</time>
      </trkpt>
      <trkpt lat="42.752630" lon="0.330380">
        <ele>2680.5</ele>
        <time>2020-06-10T09:40:34Z</time>
      </trkpt>
      <trkpt lat="42.752701" lon="0.330319">
        <ele>2680.4</ele>
        <time>2020-06-10T09:40:54Z</time>
      </trkpt>
      <trkpt lat="42.752791" lon="0.330282">
        <ele>2682.2</ele>
        <time>2020-06-10T09:41:14Z</time>
      </trkpt>
      <trkpt lat="42.752864" lon="0.330207">
        <ele>2685.6</ele>
        <time>2020-06-10T09:42:09Z</time>
      </trkpt>
      <trkpt lat="42.752930" lon="0.330150">
        <ele>2686.5</ele>
        <time>2020-06-10T09:42:30Z</time>
      </trkpt>
      <trkpt lat="42.753000" lon="0.330112">
        <ele>2687.6</ele>
        <time>2020-06-10T09:42:51Z</time>
      </trkpt>
      <trkpt lat="42.753108" lon="0.330064">
        <ele>2690.5</ele>
        <time>2020-06-10T09:44:28Z</time>
      </trkpt>
      <trkpt lat="42.753197" lon="0.330050">
        <ele>2694.4</ele>
        <time>2020-06-10T09:45:00Z</time>
      </trkpt>
      <trkpt lat="42.753284" lon="0.330039">
        <ele>2697.0</ele>
        <time>2020-06-10T09:45:24Z</time>
      </trkpt>
      <trkpt lat="42.753380" lon="0.330045">
        <ele>2698.9</ele>
        <time>2020-06-10T09:45:46Z</time>
      </trkpt>
      <trkpt lat="42.753455" lon="0.330031">
        <ele>2700.3</ele>
        <time>2020-06-10T09:46:46Z</time>
      </trkpt>
      <trkpt lat="42.753536" lon="0.330049">
        <ele>2700.4</ele>
        <time>2020-06-10T09:47:16Z</time>
      </trkpt>
      <trkpt lat="42.753611" lon="0.330083">
        <ele>2706.0</ele>
        <time>2020-06-10T09:47:41Z</time>
      </trkpt>
      <trkpt lat="42.753703" lon="0.330103">
        <ele>2706.9</ele>
        <time>2020-06-10T09:48:00Z</time>
      </trkpt>
      <trkpt lat="42.753805" lon="0.330114">
        <ele>2709.3</ele>
        <time>2020-06-10T09:48:21Z</time>
      </trkpt>
      <trkpt lat="42.753885" lon="0.330078">
        <ele>2711.1</ele>
        <time>2020-06-10T09:48:37Z</time>
      </trkpt>
      <trkpt lat="42.753937" lon="0.329989">
        <ele>2711.0</ele>
        <time>2020-06-10T09:48:54Z</time>
      </trkpt>
      <trkpt lat="42.754021" lon="0.329952">
        <ele>2713.1</ele>
        <time>2020-06-10T09:49:22Z</time>
      </trkpt>
      <trkpt lat="42.754095" lon="0.329885">
        <ele>2715.6</ele>
        <time>2020-06-10T09:49:38Z</time>
      </trkpt>
      <trkpt lat="42.754186" lon="0.329859">
        <ele>2717.3</ele>
        <time>2020-06-10T09:49:53Z</time>
      </trkpt>
      <trkpt lat="42.754278" lon="0.329844">
        <ele>2718.9</ele>
        <time>2020-06-10T09:50:08Z</time>
      </trkpt>
      <trkpt lat="42.754368" lon="0.329840">
        <ele>2719.7</ele>
        <time>2020-06-10T09:50:30Z</time>
      </trkpt>
      <trkpt lat="42.754466" lon="0.329832">
        <ele>2717.4</ele>
        <time>2020-06-10T09:50:57Z</time>
      </trkpt>
      <trkpt lat="42.754543" lon="0.329774">
        <ele>2717.4</ele>
        <time>2020-06-10T09:51:10Z</time>
      </trkpt>
      <trkpt lat="42.754601" lon="0.329708">
        <ele>2721.5</ele>
        <time>2020-06-10T09:51:28Z</time>
      </trkpt>
      <trkpt lat="42.754690" lon="0.329731">
        <ele>2724.8</ele>
        <time>2020-06-10T09:51:49Z</time>
      </trkpt>
      <trkpt lat="42.754775" lon="0.329783">
        <ele>2725.7</ele>
        <time>2020-06-10T09:52:12Z</time>
      </trkpt>
      <trkpt lat="42.754857" lon="0.329766">
        <ele>2727.6</ele>
        <time>2020-06-10T09:52:25Z</time>
      </trkpt>
      <trkpt lat="42.754935" lon="0.329701">
        <ele>2729.1</ele>
        <time>2020-06-10T09:52:37Z</time>
      </trkpt>
      <trkpt lat="42.755020" lon="0.329648">
        <ele>2729.1</ele>
        <time>2020-06-10T09:52:51Z</time>
      </trkpt>
      <trkpt lat="42.755105" lon="0.329602">
        <ele>2729.1</ele>
        <time>2020-06-10T09:53:03Z</time>
      </trkpt>
      <trkpt lat="42.755191" lon="0.329574">
        <ele>2729.1</ele>
        <time>2020-06-10T09:53:20Z</time>
      </trkpt>
      <trkpt lat="42.755159" lon="0.329543">
        <ele>2729.1</ele>
        <time>2020-06-10T09:56:47Z</time>
      </trkpt>
      <trkpt lat="42.755072" lon="0.329581">
        <ele>2729.1</ele>
        <time>2020-06-10T09:57:04Z</time>
      </trkpt>
      <trkpt lat="42.754995" lon="0.329630">
        <ele>2729.9</ele>
        <time>2020-06-10T09:57:18Z</time>
      </trkpt>
      <trkpt lat="42.754921" lon="0.329693">
        <ele>2729.8</ele>
        <time>2020-06-10T09:58:19Z</time>
      </trkpt>
      <trkpt lat="42.754846" lon="0.329746">
        <ele>2729.8</ele>
        <time>2020-06-10T09:58:34Z</time>
      </trkpt>
      <trkpt lat="42.754770" lon="0.329772">
        <ele>2727.5</ele>
        <time>2020-06-10T09:58:55Z</time>
      </trkpt>
      <trkpt lat="42.754685" lon="0.329722">
        <ele>2725.8</ele>
        <time>2020-06-10T09:59:07Z</time>
      </trkpt>
      <trkpt lat="42.754601" lon="0.329718">
        <ele>2722.6</ele>
        <time>2020-06-10T09:59:25Z</time>
      </trkpt>
      <trkpt lat="42.754524" lon="0.329737">
        <ele>2719.9</ele>
        <time>2020-06-10T09:59:43Z</time>
      </trkpt>
      <trkpt lat="42.754447" lon="0.329795">
        <ele>2717.4</ele>
        <time>2020-06-10T10:00:03Z</time>
      </trkpt>
      <trkpt lat="42.754355" lon="0.329809">
        <ele>2717.5</ele>
        <time>2020-06-10T10:00:26Z</time>
      </trkpt>
      <trkpt lat="42.754261" lon="0.329804">
        <ele>2719.7</ele>
        <time>2020-06-10T10:00:42Z</time>
      </trkpt>
      <trkpt lat="42.754167" lon="0.329825">
        <ele>2719.7</ele>
        <time>2020-06-10T10:00:56Z</time>
      </trkpt>
      <trkpt lat="42.754076" lon="0.329863">
        <ele>2716.5</ele>
        <time>2020-06-10T10:01:16Z</time>
      </trkpt>
      <trkpt lat="42.754003" lon="0.329923">
        <ele>2715.0</ele>
        <time>2020-06-10T10:01:31Z</time>
      </trkpt>
      <trkpt lat="42.753921" lon="0.329962">
        <ele>2713.2</ele>
        <time>2020-06-10T10:01:53Z</time>
      </trkpt>
      <trkpt lat="42.753871" lon="0.330062">
        <ele>2713.2</ele>
        <time>2020-06-10T10:02:37Z</time>
      </trkpt>
      <trkpt lat="42.753804" lon="0.330100">
        <ele>2710.8</ele>
        <time>2020-06-10T10:02:55Z</time>
      </trkpt>
      <trkpt lat="42.753716" lon="0.330079">
        <ele>2709.2</ele>
        <time>2020-06-10T10:03:28Z</time>
      </trkpt>
      <trkpt lat="42.753627" lon="0.330073">
        <ele>2708.4</ele>
        <time>2020-06-10T10:03:47Z</time>
      </trkpt>
      <trkpt lat="42.753539" lon="0.330059">
        <ele>2704.0</ele>
        <time>2020-06-10T10:04:18Z</time>
      </trkpt>
      <trkpt lat="42.753470" lon="0.330011">
        <ele>2701.5</ele>
        <time>2020-06-10T10:04:51Z</time>
      </trkpt>
      <trkpt lat="42.753388" lon="0.330031">
        <ele>2701.5</ele>
        <time>2020-06-10T10:05:16Z</time>
      </trkpt>
      <trkpt lat="42.753300" lon="0.330025">
        <ele>2698.9</ele>
        <time>2020-06-10T10:05:38Z</time>
      </trkpt>
      <trkpt lat="42.753212" lon="0.330049">
        <ele>2697.2</ele>
        <time>2020-06-10T10:06:14Z</time>
      </trkpt>
      <trkpt lat="42.753113" lon="0.330063">
        <ele>2693.2</ele>
        <time>2020-06-10T10:07:35Z</time>
      </trkpt>
      <trkpt lat="42.753027" lon="0.330076">
        <ele>2690.7</ele>
        <time>2020-06-10T10:08:07Z</time>
      </trkpt>
      <trkpt lat="42.752945" lon="0.330142">
        <ele>2689.2</ele>
        <time>2020-06-10T10:08:33Z</time>
      </trkpt>
      <trkpt lat="42.752870" lon="0.330210">
        <ele>2686.7</ele>
        <time>2020-06-10T10:09:04Z</time>
      </trkpt>
      <trkpt lat="42.752777" lon="0.330265">
        <ele>2685.1</ele>
        <time>2020-06-10T10:09:45Z</time>
      </trkpt>
      <trkpt lat="42.752691" lon="0.330322">
        <ele>2683.0</ele>
        <time>2020-06-10T10:10:26Z</time>
      </trkpt>
      <trkpt lat="42.752622" lon="0.330363">
        <ele>2683.1</ele>
        <time>2020-06-10T10:11:19Z</time>
      </trkpt>
      <trkpt lat="42.752546" lon="0.330400">
        <ele>2682.0</ele>
        <time>2020-06-10T10:11:43Z</time>
      </trkpt>
      <trkpt lat="42.752488" lon="0.330493">
        <ele>2679.8</ele>
        <time>2020-06-10T10:12:11Z</time>
      </trkpt>
      <trkpt lat="42.752458" lon="0.330610">
        <ele>2679.8</ele>
        <time>2020-06-10T10:12:26Z</time>
      </trkpt>
      <trkpt lat="42.752373" lon="0.330690">
        <ele>2682.1</ele>
        <time>2020-06-10T10:13:01Z</time>
      </trkpt>
      <trkpt lat="42.752368" lon="0.330747">
        <ele>2683.4</ele>
        <time>2020-06-10T10:16:58Z</time>
      </trkpt>
      <trkpt lat="42.752306" lon="0.330835">
        <ele>2687.8</ele>
        <time>2020-06-10T10:17:28Z</time>
      </trkpt>
      <trkpt lat="42.752253" lon="0.330933">
        <ele>2691.3</ele>
        <time>2020-06-10T10:17:53Z</time>
      </trkpt>
      <trkpt lat="42.752220" lon="0.331050">
        <ele>2696.4</ele>
        <time>2020-06-10T10:18:27Z</time>
      </trkpt>
      <trkpt lat="42.752176" lon="0.331112">
        <ele>2701.4</ele>
        <time>2020-06-10T10:18:55Z</time>
      </trkpt>
      <trkpt lat="42.752140" lon="0.331213">
        <ele>2703.1</ele>
        <time>2020-06-10T10:19:14Z</time>
      </trkpt>
      <trkpt lat="42.752134" lon="0.331329">
        <ele>2705.5</ele>
        <time>2020-06-10T10:19:34Z</time>
      </trkpt>
      <trkpt lat="42.752116" lon="0.331441">
        <ele>2706.4</ele>
        <time>2020-06-10T10:19:54Z</time>
      </trkpt>
      <trkpt lat="42.752102" lon="0.331547">
        <ele>2706.3</ele>
        <time>2020-06-10T10:20:28Z</time>
      </trkpt>
      <trkpt lat="42.752066" lon="0.331610">
        <ele>2701.5</ele>
        <time>2020-06-10T10:21:41Z</time>
      </trkpt>
      <trkpt lat="42.752063" lon="0.331730">
        <ele>2700.8</ele>
        <time>2020-06-10T10:22:45Z</time>
      </trkpt>
      <trkpt lat="42.752104" lon="0.331792">
        <ele>2708.2</ele>
        <time>2020-06-10T10:23:18Z</time>
      </trkpt>
      <trkpt lat="42.752116" lon="0.331902">
        <ele>2713.4</ele>
        <time>2020-06-10T10:24:02Z</time>
      </trkpt>
      <trkpt lat="42.752093" lon="0.332003">
        <ele>2714.2</ele>
        <time>2020-06-10T10:24:19Z</time>
      </trkpt>
      <trkpt lat="42.752071" lon="0.332115">
        <ele>2716.0</ele>
        <time>2020-06-10T10:24:38Z</time>
      </trkpt>
      <trkpt lat="42.752066" lon="0.332224">
        <ele>2717.6</ele>
        <time>2020-06-10T10:24:54Z</time>
      </trkpt>
      <trkpt lat="42.752057" lon="0.332343">
        <ele>2718.3</ele>
        <time>2020-06-10T10:25:09Z</time>
      </trkpt>
      <trkpt lat="42.752068" lon="0.332468">
        <ele>2719.0</ele>
        <time>2020-06-10T10:25:51Z</time>
      </trkpt>
      <trkpt lat="42.752062" lon="0.332567">
        <ele>2720.7</ele>
        <time>2020-06-10T10:26:24Z</time>
      </trkpt>
      <trkpt lat="42.752027" lon="0.332645">
        <ele>2720.6</ele>
        <time>2020-06-10T10:27:29Z</time>
      </trkpt>
      <trkpt lat="42.752030" lon="0.332652">
        <ele>2720.5</ele>
        <time>2020-06-10T10:28:28Z</time>
      </trkpt>
      <trkpt lat="42.752008" lon="0.332703">
        <ele>2718.1</ele>
        <time>2020-06-10T10:29:36Z</time>
      </trkpt>
      <trkpt lat="42.751993" lon="0.332813">
        <ele>2715.6</ele>
        <time>2020-06-10T10:30:54Z</time>
      </trkpt>
      <trkpt lat="42.751943" lon="0.332906">
        <ele>2715.8</ele>
        <time>2020-06-10T10:31:23Z</time>
      </trkpt>
      <trkpt lat="42.751896" lon="0.333008">
        <ele>2711.1</ele>
        <time>2020-06-10T10:31:49Z</time>
      </trkpt>
      <trkpt lat="42.751852" lon="0.333122">
        <ele>2708.6</ele>
        <time>2020-06-10T10:32:04Z</time>
      </trkpt>
      <trkpt lat="42.751820" lon="0.333215">
        <ele>2708.6</ele>
        <time>2020-06-10T10:32:23Z</time>
      </trkpt>
      <trkpt lat="42.751821" lon="0.333335">
        <ele>2708.6</ele>
        <time>2020-06-10T10:32:44Z</time>
      </trkpt>
      <trkpt lat="42.751807" lon="0.333430">
        <ele>2708.6</ele>
        <time>2020-06-10T10:33:03Z</time>
      </trkpt>
      <trkpt lat="42.751836" lon="0.333505">
        <ele>2706.1</ele>
        <time>2020-06-10T10:33:22Z</time>
      </trkpt>
      <trkpt lat="42.751838" lon="0.333580">
        <ele>2700.9</ele>
        <time>2020-06-10T10:34:02Z</time>
      </trkpt>
      <trkpt lat="42.751858" lon="0.333672">
        <ele>2698.4</ele>
        <time>2020-06-10T10:34:21Z</time>
      </trkpt>
      <trkpt lat="42.751856" lon="0.333765">
        <ele>2695.0</ele>
        <time>2020-06-10T10:34:49Z</time>
      </trkpt>
      <trkpt lat="42.751853" lon="0.333882">
        <ele>2694.0</ele>
        <time>2020-06-10T10:36:01Z</time>
      </trkpt>
      <trkpt lat="42.751787" lon="0.333974">
        <ele>2691.4</ele>
        <time>2020-06-10T10:36:17Z</time>
      </trkpt>
      <trkpt lat="42.751727" lon="0.334051">
        <ele>2688.7</ele>
        <time>2020-06-10T10:36:32Z</time>
      </trkpt>
      <trkpt lat="42.751657" lon="0.334131">
        <ele>2687.2</ele>
        <time>2020-06-10T10:36:44Z</time>
      </trkpt>
      <trkpt lat="42.751593" lon="0.334216">
        <ele>2685.4</ele>
        <time>2020-06-10T10:36:54Z</time>
      </trkpt>
      <trkpt lat="42.751549" lon="0.334316">
        <ele>2685.4</ele>
        <time>2020-06-10T10:37:07Z</time>
      </trkpt>
      <trkpt lat="42.751497" lon="0.334424">
        <ele>2684.6</ele>
        <time>2020-06-10T10:37:19Z</time>
      </trkpt>
      <trkpt lat="42.751494" lon="0.334513">
        <ele>2682.6</ele>
        <time>2020-06-10T10:37:50Z</time>
      </trkpt>
      <trkpt lat="42.751550" lon="0.334611">
        <ele>2681.5</ele>
        <time>2020-06-10T10:38:04Z</time>
      </trkpt>
      <trkpt lat="42.751592" lon="0.334692">
        <ele>2688.1</ele>
        <time>2020-06-10T10:38:24Z</time>
      </trkpt>
      <trkpt lat="42.751545" lon="0.334792">
        <ele>2689.1</ele>
        <time>2020-06-10T10:38:39Z</time>
      </trkpt>
      <trkpt lat="42.751499" lon="0.334887">
        <ele>2689.0</ele>
        <time>2020-06-10T10:38:54Z</time>
      </trkpt>
      <trkpt lat="42.751458" lon="0.334983">
        <ele>2683.3</ele>
        <time>2020-06-10T10:39:15Z</time>
      </trkpt>
      <trkpt lat="42.751436" lon="0.335074">
        <ele>2679.2</ele>
        <time>2020-06-10T10:40:15Z</time>
      </trkpt>
      <trkpt lat="42.751408" lon="0.335143">
        <ele>2676.7</ele>
        <time>2020-06-10T10:40:47Z</time>
      </trkpt>
      <trkpt lat="42.751369" lon="0.335240">
        <ele>2672.7</ele>
        <time>2020-06-10T10:41:32Z</time>
      </trkpt>
      <trkpt lat="42.751304" lon="0.335301">
        <ele>2671.3</ele>
        <time>2020-06-10T10:41:55Z</time>
      </trkpt>
      <trkpt lat="42.751310" lon="0.335401">
        <ele>2668.9</ele>
        <time>2020-06-10T10:43:07Z</time>
      </trkpt>
      <trkpt lat="42.751271" lon="0.335512">
        <ele>2666.6</ele>
        <time>2020-06-10T10:44:01Z</time>
      </trkpt>
      <trkpt lat="42.751206" lon="0.335605">
        <ele>2669.0</ele>
        <time>2020-06-10T10:44:18Z</time>
      </trkpt>
      <trkpt lat="42.751158" lon="0.335702">
        <ele>2668.9</ele>
        <time>2020-06-10T10:44:43Z</time>
      </trkpt>
      <trkpt lat="42.751107" lon="0.335795">
        <ele>2668.9</ele>
        <time>2020-06-10T10:45:01Z</time>
      </trkpt>
      <trkpt lat="42.751044" lon="0.335875">
        <ele>2665.1</ele>
        <time>2020-06-10T10:45:22Z</time>
      </trkpt>
      <trkpt lat="42.751009" lon="0.335973">
        <ele>2664.4</ele>
        <time>2020-06-10T10:45:39Z</time>
      </trkpt>
      <trkpt lat="42.750947" lon="0.336056">
        <ele>2664.4</ele>
        <time>2020-06-10T10:45:56Z</time>
      </trkpt>
      <trkpt lat="42.750909" lon="0.336181">
        <ele>2663.5</ele>
        <time>2020-06-10T10:46:13Z</time>
      </trkpt>
      <trkpt lat="42.750882" lon="0.336293">
        <ele>2663.7</ele>
        <time>2020-06-10T10:46:27Z</time>
      </trkpt>
      <trkpt lat="42.750804" lon="0.336382">
        <ele>2666.1</ele>
        <time>2020-06-10T10:46:39Z</time>
      </trkpt>
      <trkpt lat="42.750769" lon="0.336496">
        <ele>2666.1</ele>
        <time>2020-06-10T10:46:50Z</time>
      </trkpt>
      <trkpt lat="42.750750" lon="0.336618">
        <ele>2666.9</ele>
        <time>2020-06-10T10:47:03Z</time>
      </trkpt>
      <trkpt lat="42.750708" lon="0.336721">
        <ele>2668.5</ele>
        <time>2020-06-10T10:47:16Z</time>
      </trkpt>
      <trkpt lat="42.750660" lon="0.336827">
        <ele>2669.4</ele>
        <time>2020-06-10T10:47:29Z</time>
      </trkpt>
      <trkpt lat="42.750628" lon="0.336942">
        <ele>2670.1</ele>
        <time>2020-06-10T10:47:43Z</time>
      </trkpt>
      <trkpt lat="42.750580" lon="0.337041">
        <ele>2670.2</ele>
        <time>2020-06-10T10:47:58Z</time>
      </trkpt>
      <trkpt lat="42.750519" lon="0.337106">
        <ele>2667.7</ele>
        <time>2020-06-10T10:48:50Z</time>
      </trkpt>
      <trkpt lat="42.750458" lon="0.337197">
        <ele>2665.8</ele>
        <time>2020-06-10T10:49:05Z</time>
      </trkpt>
      <trkpt lat="42.750389" lon="0.337267">
        <ele>2663.2</ele>
        <time>2020-06-10T10:49:23Z</time>
      </trkpt>
      <trkpt lat="42.750315" lon="0.337344">
        <ele>2660.7</ele>
        <time>2020-06-10T10:49:37Z</time>
      </trkpt>
      <trkpt lat="42.750266" lon="0.337443">
        <ele>2660.8</ele>
        <time>2020-06-10T10:49:48Z</time>
      </trkpt>
      <trkpt lat="42.750224" lon="0.337543">
        <ele>2660.1</ele>
        <time>2020-06-10T10:49:59Z</time>
      </trkpt>
      <trkpt lat="42.750214" lon="0.337653">
        <ele>2662.4</ele>
        <time>2020-06-10T10:50:16Z</time>
      </trkpt>
      <trkpt lat="42.750162" lon="0.337765">
        <ele>2663.2</ele>
        <time>2020-06-10T10:50:31Z</time>
      </trkpt>
      <trkpt lat="42.750127" lon="0.337911">
        <ele>2670.3</ele>
        <time>2020-06-10T10:51:59Z</time>
      </trkpt>
      <trkpt lat="42.750096" lon="0.338037">
        <ele>2671.9</ele>
        <time>2020-06-10T10:53:01Z</time>
      </trkpt>
      <trkpt lat="42.750039" lon="0.338141">
        <ele>2674.4</ele>
        <time>2020-06-10T10:53:25Z</time>
      </trkpt>
      <trkpt lat="42.749963" lon="0.338224">
        <ele>2674.4</ele>
        <time>2020-06-10T10:53:48Z</time>
      </trkpt>
      <trkpt lat="42.749895" lon="0.338305">
        <ele>2670.1</ele>
        <time>2020-06-10T10:55:38Z</time>
      </trkpt>
      <trkpt lat="42.749879" lon="0.338244">
        <ele>2665.8</ele>
        <time>2020-06-10T11:01:17Z</time>
      </trkpt>
      <trkpt lat="42.749894" lon="0.338228">
        <ele>2662.7</ele>
        <time>2020-06-10T11:02:07Z</time>
      </trkpt>
      <trkpt lat="42.749877" lon="0.338205">
        <ele>2659.9</ele>
        <time>2020-06-10T11:02:27Z</time>
      </trkpt>
      <trkpt lat="42.749806" lon="0.338279">
        <ele>2658.4</ele>
        <time>2020-06-10T11:02:48Z</time>
      </trkpt>
      <trkpt lat="42.749734" lon="0.338354">
        <ele>2657.4</ele>
        <time>2020-06-10T11:03:05Z</time>
      </trkpt>
      <trkpt lat="42.749667" lon="0.338406">
        <ele>2655.8</ele>
        <time>2020-06-10T11:03:37Z</time>
      </trkpt>
      <trkpt lat="42.749617" lon="0.338410">
        <ele>2655.8</ele>
        <time>2020-06-10T11:04:48Z</time>
      </trkpt>
      <trkpt lat="42.749657" lon="0.338476">
        <ele>2662.3</ele>
        <time>2020-06-10T11:05:35Z</time>
      </trkpt>
      <trkpt lat="42.749696" lon="0.338452">
        <ele>2663.7</ele>
        <time>2020-06-10T11:06:31Z</time>
      </trkpt>
      <trkpt lat="42.749743" lon="0.338437">
        <ele>2667.0</ele>
        <time>2020-06-10T11:07:03Z</time>
      </trkpt>
      <trkpt lat="42.749705" lon="0.338499">
        <ele>2671.1</ele>
        <time>2020-06-10T11:09:02Z</time>
      </trkpt>
      <trkpt lat="42.749682" lon="0.338524">
        <ele>2677.6</ele>
        <time>2020-06-10T11:09:42Z</time>
      </trkpt>
      <trkpt lat="42.749673" lon="0.338581">
        <ele>2678.4</ele>
        <time>2020-06-10T11:10:22Z</time>
      </trkpt>
      <trkpt lat="42.749614" lon="0.338671">
        <ele>2679.3</ele>
        <time>2020-06-10T11:10:50Z</time>
      </trkpt>
      <trkpt lat="42.749615" lon="0.338783">
        <ele>2679.4</ele>
        <time>2020-06-10T11:11:13Z</time>
      </trkpt>
      <trkpt lat="42.749570" lon="0.338868">
        <ele>2676.2</ele>
        <time>2020-06-10T11:11:54Z</time>
      </trkpt>
      <trkpt lat="42.749542" lon="0.338942">
        <ele>2671.4</ele>
        <time>2020-06-10T11:12:35Z</time>
      </trkpt>
      <trkpt lat="42.749546" lon="0.339058">
        <ele>2676.5</ele>
        <time>2020-06-10T11:13:16Z</time>
      </trkpt>
      <trkpt lat="42.749549" lon="0.339086">
        <ele>2678.8</ele>
        <time>2020-06-10T11:14:20Z</time>
      </trkpt>
      <trkpt lat="42.749558" lon="0.339158">
        <ele>2682.9</ele>
        <time>2020-06-10T11:15:27Z</time>
      </trkpt>
      <trkpt lat="42.749518" lon="0.339241">
        <ele>2684.5</ele>
        <time>2020-06-10T11:17:16Z</time>
      </trkpt>
      <trkpt lat="42.749445" lon="0.339283">
        <ele>2684.4</ele>
        <time>2020-06-10T11:17:46Z</time>
      </trkpt>
      <trkpt lat="42.749389" lon="0.339381">
        <ele>2684.5</ele>
        <time>2020-06-10T11:18:05Z</time>
      </trkpt>
      <trkpt lat="42.749336" lon="0.339474">
        <ele>2680.4</ele>
        <time>2020-06-10T11:18:55Z</time>
      </trkpt>
      <trkpt lat="42.749282" lon="0.339543">
        <ele>2684.5</ele>
        <time>2020-06-10T11:19:26Z</time>
      </trkpt>
      <trkpt lat="42.749259" lon="0.339665">
        <ele>2684.5</ele>
        <time>2020-06-10T11:20:03Z</time>
      </trkpt>
      <trkpt lat="42.749245" lon="0.339751">
        <ele>2687.0</ele>
        <time>2020-06-10T11:22:34Z</time>
      </trkpt>
      <trkpt lat="42.749205" lon="0.339856">
        <ele>2688.7</ele>
        <time>2020-06-10T11:22:59Z</time>
      </trkpt>
      <trkpt lat="42.749181" lon="0.339969">
        <ele>2692.3</ele>
        <time>2020-06-10T11:23:27Z</time>
      </trkpt>
      <trkpt lat="42.749158" lon="0.340099">
        <ele>2695.7</ele>
        <time>2020-06-10T11:23:44Z</time>
      </trkpt>
      <trkpt lat="42.749163" lon="0.340221">
        <ele>2698.3</ele>
        <time>2020-06-10T11:24:03Z</time>
      </trkpt>
      <trkpt lat="42.749098" lon="0.340319">
        <ele>2698.9</ele>
        <time>2020-06-10T11:25:00Z</time>
      </trkpt>
      <trkpt lat="42.749055" lon="0.340420">
        <ele>2699.7</ele>
        <time>2020-06-10T11:25:20Z</time>
      </trkpt>
      <trkpt lat="42.749029" lon="0.340536">
        <ele>2701.5</ele>
        <time>2020-06-10T11:25:52Z</time>
      </trkpt>
      <trkpt lat="42.748998" lon="0.340654">
        <ele>2703.4</ele>
        <time>2020-06-10T11:26:10Z</time>
      </trkpt>
      <trkpt lat="42.748971" lon="0.340771">
        <ele>2706.1</ele>
        <time>2020-06-10T11:26:31Z</time>
      </trkpt>
      <trkpt lat="42.748933" lon="0.340884">
        <ele>2708.8</ele>
        <time>2020-06-10T11:26:49Z</time>
      </trkpt>
      <trkpt lat="42.748902" lon="0.340993">
        <ele>2711.3</ele>
        <time>2020-06-10T11:27:06Z</time>
      </trkpt>
      <trkpt lat="42.748886" lon="0.341104">
        <ele>2712.8</ele>
        <time>2020-06-10T11:27:25Z</time>
      </trkpt>
      <trkpt lat="42.748840" lon="0.341212">
        <ele>2714.6</ele>
        <time>2020-06-10T11:27:43Z</time>
      </trkpt>
      <trkpt lat="42.748798" lon="0.341311">
        <ele>2717.4</ele>
        <time>2020-06-10T11:28:03Z</time>
      </trkpt>
      <trkpt lat="42.748775" lon="0.341422">
        <ele>2720.9</ele>
        <time>2020-06-10T11:28:26Z</time>
      </trkpt>
      <trkpt lat="42.748724" lon="0.341513">
        <ele>2723.8</ele>
        <time>2020-06-10T11:28:44Z</time>
      </trkpt>
      <trkpt lat="42.748667" lon="0.341625">
        <ele>2723.7</ele>
        <time>2020-06-10T11:29:21Z</time>
      </trkpt>
      <trkpt lat="42.748640" lon="0.341725">
        <ele>2723.8</ele>
        <time>2020-06-10T11:29:37Z</time>
      </trkpt>
      <trkpt lat="42.748618" lon="0.341826">
        <ele>2723.8</ele>
        <time>2020-06-10T11:29:52Z</time>
      </trkpt>
      <trkpt lat="42.748619" lon="0.341957">
        <ele>2725.6</ele>
        <time>2020-06-10T11:30:07Z</time>
      </trkpt>
      <trkpt lat="42.748571" lon="0.342041">
        <ele>2729.0</ele>
        <time>2020-06-10T11:30:24Z</time>
      </trkpt>
      <trkpt lat="42.748543" lon="0.342141">
        <ele>2731.6</ele>
        <time>2020-06-10T11:30:38Z</time>
      </trkpt>
      <trkpt lat="42.748493" lon="0.342232">
        <ele>2732.3</ele>
        <time>2020-06-10T11:30:49Z</time>
      </trkpt>
      <trkpt lat="42.748446" lon="0.342338">
        <ele>2733.2</ele>
        <time>2020-06-10T11:31:00Z</time>
      </trkpt>
      <trkpt lat="42.748403" lon="0.342448">
        <ele>2733.1</ele>
        <time>2020-06-10T11:31:13Z</time>
      </trkpt>
      <trkpt lat="42.748411" lon="0.342571">
        <ele>2732.7</ele>
        <time>2020-06-10T11:31:29Z</time>
      </trkpt>
      <trkpt lat="42.748430" lon="0.342669">
        <ele>2735.4</ele>
        <time>2020-06-10T11:31:45Z</time>
      </trkpt>
      <trkpt lat="42.748386" lon="0.342781">
        <ele>2736.3</ele>
        <time>2020-06-10T11:32:00Z</time>
      </trkpt>
      <trkpt lat="42.748356" lon="0.342884">
        <ele>2740.5</ele>
        <time>2020-06-10T11:32:17Z</time>
      </trkpt>
      <trkpt lat="42.748330" lon="0.342990">
        <ele>2741.2</ele>
        <time>2020-06-10T11:32:32Z</time>
      </trkpt>
      <trkpt lat="42.748299" lon="0.343090">
        <ele>2742.0</ele>
        <time>2020-06-10T11:32:54Z</time>
      </trkpt>
      <trkpt lat="42.748270" lon="0.343205">
        <ele>2741.9</ele>
        <time>2020-06-10T11:33:13Z</time>
      </trkpt>
      <trkpt lat="42.748260" lon="0.343243">
        <ele>2739.2</ele>
        <time>2020-06-10T11:56:49Z</time>
      </trkpt>
      <trkpt lat="42.748188" lon="0.343259">
        <ele>2738.2</ele>
        <time>2020-06-10T11:59:15Z</time>
      </trkpt>
      <trkpt lat="42.748093" lon="0.343295">
        <ele>2734.1</ele>
        <time>2020-06-10T11:59:29Z</time>
      </trkpt>
      <trkpt lat="42.748007" lon="0.343317">
        <ele>2731.1</ele>
        <time>2020-06-10T11:59:44Z</time>
      </trkpt>
      <trkpt lat="42.747929" lon="0.343366">
        <ele>2726.5</ele>
        <time>2020-06-10T12:00:04Z</time>
      </trkpt>
      <trkpt lat="42.747872" lon="0.343384">
        <ele>2723.8</ele>
        <time>2020-06-10T12:00:24Z</time>
      </trkpt>
      <trkpt lat="42.747816" lon="0.343446">
        <ele>2720.9</ele>
        <time>2020-06-10T12:00:39Z</time>
      </trkpt>
      <trkpt lat="42.747743" lon="0.343504">
        <ele>2718.3</ele>
        <time>2020-06-10T12:00:53Z</time>
      </trkpt>
      <trkpt lat="42.747658" lon="0.343553">
        <ele>2715.0</ele>
        <time>2020-06-10T12:01:06Z</time>
      </trkpt>
      <trkpt lat="42.747566" lon="0.343546">
        <ele>2711.6</ele>
        <time>2020-06-10T12:01:20Z</time>
      </trkpt>
      <trkpt lat="42.747472" lon="0.343537">
        <ele>2707.8</ele>
        <time>2020-06-10T12:01:33Z</time>
      </trkpt>
      <trkpt lat="42.747426" lon="0.343619">
        <ele>2703.3</ele>
        <time>2020-06-10T12:01:49Z</time>
      </trkpt>
      <trkpt lat="42.747363" lon="0.343650">
        <ele>2700.7</ele>
        <time>2020-06-10T12:02:21Z</time>
      </trkpt>
      <trkpt lat="42.747287" lon="0.343688">
        <ele>2696.1</ele>
        <time>2020-06-10T12:02:43Z</time>
      </trkpt>
      <trkpt lat="42.747207" lon="0.343720">
        <ele>2691.8</ele>
        <time>2020-06-10T12:03:04Z</time>
      </trkpt>
      <trkpt lat="42.747164" lon="0.343827">
        <ele>2689.3</ele>
        <time>2020-06-10T12:03:18Z</time>
      </trkpt>
      <trkpt lat="42.747092" lon="0.343889">
        <ele>2685.7</ele>
        <time>2020-06-10T12:03:36Z</time>
      </trkpt>
      <trkpt lat="42.747034" lon="0.343967">
        <ele>2682.2</ele>
        <time>2020-06-10T12:03:52Z</time>
      </trkpt>
      <trkpt lat="42.747005" lon="0.344072">
        <ele>2680.3</ele>
        <time>2020-06-10T12:04:13Z</time>
      </trkpt>
      <trkpt lat="42.747006" lon="0.344192">
        <ele>2678.6</ele>
        <time>2020-06-10T12:04:26Z</time>
      </trkpt>
      <trkpt lat="42.746953" lon="0.344268">
        <ele>2674.0</ele>
        <time>2020-06-10T12:04:44Z</time>
      </trkpt>
      <trkpt lat="42.746913" lon="0.344375">
        <ele>2670.4</ele>
        <time>2020-06-10T12:05:02Z</time>
      </trkpt>
      <trkpt lat="42.746869" lon="0.344453">
        <ele>2666.9</ele>
        <time>2020-06-10T12:05:20Z</time>
      </trkpt>
      <trkpt lat="42.746820" lon="0.344489">
        <ele>2662.1</ele>
        <time>2020-06-10T12:05:43Z</time>
      </trkpt>
      <trkpt lat="42.746784" lon="0.344592">
        <ele>2661.3</ele>
        <time>2020-06-10T12:05:57Z</time>
      </trkpt>
      <trkpt lat="42.746711" lon="0.344657">
        <ele>2657.6</ele>
        <time>2020-06-10T12:06:13Z</time>
      </trkpt>
      <trkpt lat="42.746645" lon="0.344722">
        <ele>2655.8</ele>
        <time>2020-06-10T12:06:27Z</time>
      </trkpt>
      <trkpt lat="42.746590" lon="0.344807">
        <ele>2651.5</ele>
        <time>2020-06-10T12:06:48Z</time>
      </trkpt>
      <trkpt lat="42.746571" lon="0.344857">
        <ele>2647.6</ele>
        <time>2020-06-10T12:07:23Z</time>
      </trkpt>
      <trkpt lat="42.746508" lon="0.344917">
        <ele>2640.8</ele>
        <time>2020-06-10T12:08:00Z</time>
      </trkpt>
      <trkpt lat="42.746458" lon="0.344977">
        <ele>2638.3</ele>
        <time>2020-06-10T12:08:21Z</time>
      </trkpt>
      <trkpt lat="42.746414" lon="0.345004">
        <ele>2633.7</ele>
        <time>2020-06-10T12:08:41Z</time>
      </trkpt>
      <trkpt lat="42.746392" lon="0.345014">
        <ele>2629.9</ele>
        <time>2020-06-10T12:09:55Z</time>
      </trkpt>
      <trkpt lat="42.746336" lon="0.344944">
        <ele>2627.3</ele>
        <time>2020-06-10T12:10:19Z</time>
      </trkpt>
      <trkpt lat="42.746268" lon="0.344924">
        <ele>2622.2</ele>
        <time>2020-06-10T12:10:38Z</time>
      </trkpt>
      <trkpt lat="42.746184" lon="0.344942">
        <ele>2618.5</ele>
        <time>2020-06-10T12:10:59Z</time>
      </trkpt>
      <trkpt lat="42.746139" lon="0.344919">
        <ele>2615.1</ele>
        <time>2020-06-10T12:11:15Z</time>
      </trkpt>
      <trkpt lat="42.746098" lon="0.345009">
        <ele>2611.7</ele>
        <time>2020-06-10T12:11:38Z</time>
      </trkpt>
      <trkpt lat="42.746037" lon="0.345054">
        <ele>2607.9</ele>
        <time>2020-06-10T12:11:53Z</time>
      </trkpt>
      <trkpt lat="42.745951" lon="0.345064">
        <ele>2604.0</ele>
        <time>2020-06-10T12:12:08Z</time>
      </trkpt>
      <trkpt lat="42.745881" lon="0.345131">
        <ele>2600.4</ele>
        <time>2020-06-10T12:12:24Z</time>
      </trkpt>
      <trkpt lat="42.745813" lon="0.345176">
        <ele>2597.0</ele>
        <time>2020-06-10T12:12:41Z</time>
      </trkpt>
      <trkpt lat="42.745756" lon="0.345222">
        <ele>2593.4</ele>
        <time>2020-06-10T12:12:57Z</time>
      </trkpt>
      <trkpt lat="42.745689" lon="0.345284">
        <ele>2589.8</ele>
        <time>2020-06-10T12:13:13Z</time>
      </trkpt>
      <trkpt lat="42.745647" lon="0.345319">
        <ele>2584.8</ele>
        <time>2020-06-10T12:13:36Z</time>
      </trkpt>
      <trkpt lat="42.745594" lon="0.345370">
        <ele>2579.7</ele>
        <time>2020-06-10T12:14:37Z</time>
      </trkpt>
      <trkpt lat="42.745510" lon="0.345434">
        <ele>2577.9</ele>
        <time>2020-06-10T12:14:52Z</time>
      </trkpt>
      <trkpt lat="42.745427" lon="0.345518">
        <ele>2576.9</ele>
        <time>2020-06-10T12:15:06Z</time>
      </trkpt>
      <trkpt lat="42.745358" lon="0.345584">
        <ele>2576.9</ele>
        <time>2020-06-10T12:15:20Z</time>
      </trkpt>
      <trkpt lat="42.745301" lon="0.345675">
        <ele>2577.0</ele>
        <time>2020-06-10T12:15:35Z</time>
      </trkpt>
      <trkpt lat="42.745243" lon="0.345727">
        <ele>2580.9</ele>
        <time>2020-06-10T12:15:55Z</time>
      </trkpt>
      <trkpt lat="42.745202" lon="0.345806">
        <ele>2584.3</ele>
        <time>2020-06-10T12:16:16Z</time>
      </trkpt>
      <trkpt lat="42.745152" lon="0.345799">
        <ele>2590.2</ele>
        <time>2020-06-10T12:16:48Z</time>
      </trkpt>
      <trkpt lat="42.745097" lon="0.345882">
        <ele>2593.4</ele>
        <time>2020-06-10T12:17:12Z</time>
      </trkpt>
      <trkpt lat="42.745064" lon="0.345954">
        <ele>2597.6</ele>
        <time>2020-06-10T12:17:34Z</time>
      </trkpt>
      <trkpt lat="42.744998" lon="0.346028">
        <ele>2601.1</ele>
        <time>2020-06-10T12:18:06Z</time>
      </trkpt>
      <trkpt lat="42.744965" lon="0.346079">
        <ele>2604.4</ele>
        <time>2020-06-10T12:18:39Z</time>
      </trkpt>
      <trkpt lat="42.744930" lon="0.346134">
        <ele>2608.7</ele>
        <time>2020-06-10T12:19:13Z</time>
      </trkpt>
      <trkpt lat="42.744881" lon="0.346205">
        <ele>2614.7</ele>
        <time>2020-06-10T12:19:57Z</time>
      </trkpt>
      <trkpt lat="42.744855" lon="0.346273">
        <ele>2617.1</ele>
        <time>2020-06-10T12:20:23Z</time>
      </trkpt>
      <trkpt lat="42.744814" lon="0.346381">
        <ele>2621.0</ele>
        <time>2020-06-10T12:20:51Z</time>
      </trkpt>
      <trkpt lat="42.744769" lon="0.346381">
        <ele>2624.5</ele>
        <time>2020-06-10T12:21:18Z</time>
      </trkpt>
      <trkpt lat="42.744741" lon="0.346458">
        <ele>2630.8</ele>
        <time>2020-06-10T12:22:05Z</time>
      </trkpt>
      <trkpt lat="42.744745" lon="0.346555">
        <ele>2632.3</ele>
        <time>2020-06-10T12:22:40Z</time>
      </trkpt>
      <trkpt lat="42.744755" lon="0.346688">
        <ele>2635.1</ele>
        <time>2020-06-10T12:23:10Z</time>
      </trkpt>
      <trkpt lat="42.744719" lon="0.346762">
        <ele>2639.6</ele>
        <time>2020-06-10T12:23:57Z</time>
      </trkpt>
      <trkpt lat="42.744669" lon="0.346832">
        <ele>2645.4</ele>
        <time>2020-06-10T12:24:27Z</time>
      </trkpt>
      <trkpt lat="42.744617" lon="0.346792">
        <ele>2653.2</ele>
        <time>2020-06-10T12:25:19Z</time>
      </trkpt>
      <trkpt lat="42.744544" lon="0.346828">
        <ele>2658.4</ele>
        <time>2020-06-10T12:25:51Z</time>
      </trkpt>
      <trkpt lat="42.744463" lon="0.346866">
        <ele>2665.5</ele>
        <time>2020-06-10T12:26:32Z</time>
      </trkpt>
      <trkpt lat="42.744390" lon="0.346925">
        <ele>2669.9</ele>
        <time>2020-06-10T12:27:03Z</time>
      </trkpt>
      <trkpt lat="42.744351" lon="0.347027">
        <ele>2671.5</ele>
        <time>2020-06-10T12:27:23Z</time>
      </trkpt>
      <trkpt lat="42.744287" lon="0.347031">
        <ele>2678.7</ele>
        <time>2020-06-10T12:27:51Z</time>
      </trkpt>
      <trkpt lat="42.744251" lon="0.346978">
        <ele>2679.4</ele>
        <time>2020-06-10T12:28:42Z</time>
      </trkpt>
      <trkpt lat="42.744176" lon="0.346991">
        <ele>2682.6</ele>
        <time>2020-06-10T12:29:30Z</time>
      </trkpt>
      <trkpt lat="42.744090" lon="0.346980">
        <ele>2684.3</ele>
        <time>2020-06-10T12:29:49Z</time>
      </trkpt>
      <trkpt lat="42.744018" lon="0.346983">
        <ele>2686.8</ele>
        <time>2020-06-10T12:30:06Z</time>
      </trkpt>
      <trkpt lat="42.743968" lon="0.347035">
        <ele>2690.9</ele>
        <time>2020-06-10T12:30:36Z</time>
      </trkpt>
      <trkpt lat="42.743884" lon="0.347039">
        <ele>2695.3</ele>
        <time>2020-06-10T12:31:00Z</time>
      </trkpt>
      <trkpt lat="42.743818" lon="0.347048">
        <ele>2697.7</ele>
        <time>2020-06-10T12:31:24Z</time>
      </trkpt>
      <trkpt lat="42.743728" lon="0.347047">
        <ele>2702.2</ele>
        <time>2020-06-10T12:31:45Z</time>
      </trkpt>
      <trkpt lat="42.743649" lon="0.347077">
        <ele>2703.7</ele>
        <time>2020-06-10T12:32:05Z</time>
      </trkpt>
      <trkpt lat="42.743561" lon="0.347082">
        <ele>2705.5</ele>
        <time>2020-06-10T12:32:29Z</time>
      </trkpt>
      <trkpt lat="42.743481" lon="0.347106">
        <ele>2705.4</ele>
        <time>2020-06-10T12:32:44Z</time>
      </trkpt>
      <trkpt lat="42.743418" lon="0.347184">
        <ele>2705.5</ele>
        <time>2020-06-10T12:33:00Z</time>
      </trkpt>
      <trkpt lat="42.743343" lon="0.347209">
        <ele>2705.4</ele>
        <time>2020-06-10T12:33:16Z</time>
      </trkpt>
      <trkpt lat="42.743290" lon="0.347246">
        <ele>2705.5</ele>
        <time>2020-06-10T12:33:36Z</time>
      </trkpt>
      <trkpt lat="42.743210" lon="0.347285">
        <ele>2706.4</ele>
        <time>2020-06-10T12:33:52Z</time>
      </trkpt>
      <trkpt lat="42.743146" lon="0.347364">
        <ele>2707.2</ele>
        <time>2020-06-10T12:34:05Z</time>
      </trkpt>
      <trkpt lat="42.743122" lon="0.347460">
        <ele>2707.2</ele>
        <time>2020-06-10T12:34:19Z</time>
      </trkpt>
      <trkpt lat="42.743043" lon="0.347517">
        <ele>2707.2</ele>
        <time>2020-06-10T12:34:34Z</time>
      </trkpt>
      <trkpt lat="42.742990" lon="0.347612">
        <ele>2707.2</ele>
        <time>2020-06-10T12:34:46Z</time>
      </trkpt>
      <trkpt lat="42.742901" lon="0.347646">
        <ele>2707.2</ele>
        <time>2020-06-10T12:34:59Z</time>
      </trkpt>
      <trkpt lat="42.742825" lon="0.347592">
        <ele>2707.3</ele>
        <time>2020-06-10T12:35:17Z</time>
      </trkpt>
      <trkpt lat="42.742734" lon="0.347554">
        <ele>2708.4</ele>
        <time>2020-06-10T12:35:36Z</time>
      </trkpt>
      <trkpt lat="42.742631" lon="0.347547">
        <ele>2710.7</ele>
        <time>2020-06-10T12:35:47Z</time>
      </trkpt>
      <trkpt lat="42.742615" lon="0.347531">
        <ele>2711.5</ele>
        <time>2020-06-10T12:36:22Z</time>
      </trkpt>
      <trkpt lat="42.742601" lon="0.347545">
        <ele>2711.9</ele>
        <time>2020-06-10T12:40:39Z</time>
      </trkpt>
      <trkpt lat="42.742553" lon="0.347605">
        <ele>2711.8</ele>
        <time>2020-06-10T12:41:00Z</time>
      </trkpt>
      <trkpt lat="42.742495" lon="0.347691">
        <ele>2705.7</ele>
        <time>2020-06-10T12:41:22Z</time>
      </trkpt>
      <trkpt lat="42.742432" lon="0.347664">
        <ele>2701.4</ele>
        <time>2020-06-10T12:41:46Z</time>
      </trkpt>
      <trkpt lat="42.742403" lon="0.347681">
        <ele>2697.1</ele>
        <time>2020-06-10T12:42:12Z</time>
      </trkpt>
      <trkpt lat="42.742334" lon="0.347743">
        <ele>2692.7</ele>
        <time>2020-06-10T12:42:45Z</time>
      </trkpt>
      <trkpt lat="42.742281" lon="0.347821">
        <ele>2688.6</ele>
        <time>2020-06-10T12:43:08Z</time>
      </trkpt>
      <trkpt lat="42.742234" lon="0.347883">
        <ele>2685.3</ele>
        <time>2020-06-10T12:43:33Z</time>
      </trkpt>
      <trkpt lat="42.742185" lon="0.347971">
        <ele>2681.6</ele>
        <time>2020-06-10T12:43:53Z</time>
      </trkpt>
      <trkpt lat="42.742141" lon="0.348064">
        <ele>2678.8</ele>
        <time>2020-06-10T12:44:09Z</time>
      </trkpt>
      <trkpt lat="42.742060" lon="0.348093">
        <ele>2675.3</ele>
        <time>2020-06-10T12:44:28Z</time>
      </trkpt>
      <trkpt lat="42.742002" lon="0.348150">
        <ele>2670.4</ele>
        <time>2020-06-10T12:44:46Z</time>
      </trkpt>
      <trkpt lat="42.741950" lon="0.348129">
        <ele>2666.3</ele>
        <time>2020-06-10T12:45:08Z</time>
      </trkpt>
      <trkpt lat="42.741889" lon="0.348226">
        <ele>2663.5</ele>
        <time>2020-06-10T12:45:25Z</time>
      </trkpt>
      <trkpt lat="42.741805" lon="0.348272">
        <ele>2660.6</ele>
        <time>2020-06-10T12:45:41Z</time>
      </trkpt>
      <trkpt lat="42.741765" lon="0.348293">
        <ele>2658.8</ele>
        <time>2020-06-10T12:46:02Z</time>
      </trkpt>
      <trkpt lat="42.741715" lon="0.348321">
        <ele>2654.0</ele>
        <time>2020-06-10T12:46:32Z</time>
      </trkpt>
      <trkpt lat="42.741647" lon="0.348386">
        <ele>2651.3</ele>
        <time>2020-06-10T12:47:03Z</time>
      </trkpt>
      <trkpt lat="42.741551" lon="0.348444">
        <ele>2650.3</ele>
        <time>2020-06-10T12:47:22Z</time>
      </trkpt>
      <trkpt lat="42.741475" lon="0.348518">
        <ele>2649.4</ele>
        <time>2020-06-10T12:47:37Z</time>
      </trkpt>
      <trkpt lat="42.741404" lon="0.348604">
        <ele>2648.6</ele>
        <time>2020-06-10T12:47:54Z</time>
      </trkpt>
      <trkpt lat="42.741340" lon="0.348660">
        <ele>2645.7</ele>
        <time>2020-06-10T12:48:14Z</time>
      </trkpt>
      <trkpt lat="42.741286" lon="0.348744">
        <ele>2646.0</ele>
        <time>2020-06-10T12:49:12Z</time>
      </trkpt>
      <trkpt lat="42.741208" lon="0.348820">
        <ele>2646.0</ele>
        <time>2020-06-10T12:49:25Z</time>
      </trkpt>
      <trkpt lat="42.741123" lon="0.348876">
        <ele>2642.9</ele>
        <time>2020-06-10T12:49:44Z</time>
      </trkpt>
      <trkpt lat="42.741044" lon="0.348943">
        <ele>2642.0</ele>
        <time>2020-06-10T12:49:57Z</time>
      </trkpt>
      <trkpt lat="42.740960" lon="0.349000">
        <ele>2642.0</ele>
        <time>2020-06-10T12:50:11Z</time>
      </trkpt>
      <trkpt lat="42.740872" lon="0.349025">
        <ele>2641.3</ele>
        <time>2020-06-10T12:50:27Z</time>
      </trkpt>
      <trkpt lat="42.740781" lon="0.349055">
        <ele>2639.6</ele>
        <time>2020-06-10T12:50:42Z</time>
      </trkpt>
      <trkpt lat="42.740686" lon="0.349075">
        <ele>2637.1</ele>
        <time>2020-06-10T12:50:57Z</time>
      </trkpt>
      <trkpt lat="42.740595" lon="0.349085">
        <ele>2634.4</ele>
        <time>2020-06-10T12:51:13Z</time>
      </trkpt>
      <trkpt lat="42.740501" lon="0.349090">
        <ele>2632.8</ele>
        <time>2020-06-10T12:51:24Z</time>
      </trkpt>
      <trkpt lat="42.740407" lon="0.349126">
        <ele>2630.4</ele>
        <time>2020-06-10T12:51:35Z</time>
      </trkpt>
      <trkpt lat="42.740319" lon="0.349187">
        <ele>2630.4</ele>
        <time>2020-06-10T12:51:46Z</time>
      </trkpt>
      <trkpt lat="42.740233" lon="0.349222">
        <ele>2630.4</ele>
        <time>2020-06-10T12:51:57Z</time>
      </trkpt>
      <trkpt lat="42.740147" lon="0.349271">
        <ele>2630.4</ele>
        <time>2020-06-10T12:52:08Z</time>
      </trkpt>
      <trkpt lat="42.740053" lon="0.349291">
        <ele>2629.6</ele>
        <time>2020-06-10T12:52:19Z</time>
      </trkpt>
      <trkpt lat="42.739965" lon="0.349312">
        <ele>2628.8</ele>
        <time>2020-06-10T12:52:31Z</time>
      </trkpt>
      <trkpt lat="42.739868" lon="0.349326">
        <ele>2628.0</ele>
        <time>2020-06-10T12:52:43Z</time>
      </trkpt>
      <trkpt lat="42.739779" lon="0.349358">
        <ele>2626.2</ele>
        <time>2020-06-10T12:52:58Z</time>
      </trkpt>
      <trkpt lat="42.739722" lon="0.349416">
        <ele>2625.4</ele>
        <time>2020-06-10T12:53:19Z</time>
      </trkpt>
      <trkpt lat="42.739623" lon="0.349453">
        <ele>2627.8</ele>
        <time>2020-06-10T12:53:36Z</time>
      </trkpt>
      <trkpt lat="42.739532" lon="0.349470">
        <ele>2627.8</ele>
        <time>2020-06-10T12:53:49Z</time>
      </trkpt>
      <trkpt lat="42.739431" lon="0.349497">
        <ele>2627.8</ele>
        <time>2020-06-10T12:54:02Z</time>
      </trkpt>
      <trkpt lat="42.739332" lon="0.349509">
        <ele>2627.8</ele>
        <time>2020-06-10T12:54:16Z</time>
      </trkpt>
      <trkpt lat="42.739245" lon="0.349554">
        <ele>2627.8</ele>
        <time>2020-06-10T12:54:31Z</time>
      </trkpt>
      <trkpt lat="42.739149" lon="0.349561">
        <ele>2627.8</ele>
        <time>2020-06-10T12:54:46Z</time>
      </trkpt>
      <trkpt lat="42.739049" lon="0.349563">
        <ele>2625.5</ele>
        <time>2020-06-10T12:55:01Z</time>
      </trkpt>
      <trkpt lat="42.738954" lon="0.349575">
        <ele>2625.5</ele>
        <time>2020-06-10T12:55:11Z</time>
      </trkpt>
      <trkpt lat="42.738860" lon="0.349604">
        <ele>2624.7</ele>
        <time>2020-06-10T12:55:21Z</time>
      </trkpt>
      <trkpt lat="42.738772" lon="0.349639">
        <ele>2624.7</ele>
        <time>2020-06-10T12:55:32Z</time>
      </trkpt>
      <trkpt lat="42.738689" lon="0.349693">
        <ele>2622.4</ele>
        <time>2020-06-10T12:55:45Z</time>
      </trkpt>
      <trkpt lat="42.738614" lon="0.349769">
        <ele>2622.4</ele>
        <time>2020-06-10T12:55:57Z</time>
      </trkpt>
      <trkpt lat="42.738531" lon="0.349830">
        <ele>2622.4</ele>
        <time>2020-06-10T12:56:13Z</time>
      </trkpt>
      <trkpt lat="42.738462" lon="0.349914">
        <ele>2621.5</ele>
        <time>2020-06-10T12:56:23Z</time>
      </trkpt>
      <trkpt lat="42.738392" lon="0.349990">
        <ele>2618.5</ele>
        <time>2020-06-10T12:56:35Z</time>
      </trkpt>
      <trkpt lat="42.738318" lon="0.350059">
        <ele>2617.7</ele>
        <time>2020-06-10T12:57:02Z</time>
      </trkpt>
      <trkpt lat="42.738241" lon="0.350135">
        <ele>2616.8</ele>
        <time>2020-06-10T12:57:15Z</time>
      </trkpt>
      <trkpt lat="42.738165" lon="0.350203">
        <ele>2615.1</ele>
        <time>2020-06-10T12:57:27Z</time>
      </trkpt>
      <trkpt lat="42.738098" lon="0.350280">
        <ele>2612.4</ele>
        <time>2020-06-10T12:57:39Z</time>
      </trkpt>
      <trkpt lat="42.738023" lon="0.350326">
        <ele>2609.7</ele>
        <time>2020-06-10T12:57:50Z</time>
      </trkpt>
      <trkpt lat="42.737933" lon="0.350357">
        <ele>2607.4</ele>
        <time>2020-06-10T12:58:07Z</time>
      </trkpt>
      <trkpt lat="42.737842" lon="0.350396">
        <ele>2603.0</ele>
        <time>2020-06-10T12:58:23Z</time>
      </trkpt>
      <trkpt lat="42.737766" lon="0.350426">
        <ele>2599.2</ele>
        <time>2020-06-10T12:58:39Z</time>
      </trkpt>
      <trkpt lat="42.737718" lon="0.350447">
        <ele>2597.0</ele>
        <time>2020-06-10T12:58:56Z</time>
      </trkpt>
      <trkpt lat="42.737632" lon="0.350451">
        <ele>2592.7</ele>
        <time>2020-06-10T12:59:14Z</time>
      </trkpt>
      <trkpt lat="42.737534" lon="0.350479">
        <ele>2590.1</ele>
        <time>2020-06-10T12:59:29Z</time>
      </trkpt>
      <trkpt lat="42.737442" lon="0.350478">
        <ele>2588.4</ele>
        <time>2020-06-10T12:59:40Z</time>
      </trkpt>
      <trkpt lat="42.737359" lon="0.350419">
        <ele>2585.1</ele>
        <time>2020-06-10T12:59:53Z</time>
      </trkpt>
      <trkpt lat="42.737285" lon="0.350355">
        <ele>2581.8</ele>
        <time>2020-06-10T13:00:07Z</time>
      </trkpt>
      <trkpt lat="42.737203" lon="0.350320">
        <ele>2579.3</ele>
        <time>2020-06-10T13:00:32Z</time>
      </trkpt>
      <trkpt lat="42.737138" lon="0.350254">
        <ele>2575.7</ele>
        <time>2020-06-10T13:00:50Z</time>
      </trkpt>
      <trkpt lat="42.737052" lon="0.350199">
        <ele>2572.7</ele>
        <time>2020-06-10T13:01:08Z</time>
      </trkpt>
      <trkpt lat="42.737022" lon="0.350108">
        <ele>2569.1</ele>
        <time>2020-06-10T13:01:24Z</time>
      </trkpt>
      <trkpt lat="42.736972" lon="0.350004">
        <ele>2566.6</ele>
        <time>2020-06-10T13:01:38Z</time>
      </trkpt>
      <trkpt lat="42.736917" lon="0.349914">
        <ele>2562.0</ele>
        <time>2020-06-10T13:01:54Z</time>
      </trkpt>
      <trkpt lat="42.736852" lon="0.349847">
        <ele>2559.4</ele>
        <time>2020-06-10T13:02:08Z</time>
      </trkpt>
      <trkpt lat="42.736801" lon="0.349801">
        <ele>2556.0</ele>
        <time>2020-06-10T13:02:26Z</time>
      </trkpt>
      <trkpt lat="42.736736" lon="0.349729">
        <ele>2551.6</ele>
        <time>2020-06-10T13:02:41Z</time>
      </trkpt>
      <trkpt lat="42.736685" lon="0.349662">
        <ele>2548.3</ele>
        <time>2020-06-10T13:02:57Z</time>
      </trkpt>
      <trkpt lat="42.736594" lon="0.349630">
        <ele>2547.5</ele>
        <time>2020-06-10T13:03:10Z</time>
      </trkpt>
      <trkpt lat="42.736554" lon="0.349529">
        <ele>2544.8</ele>
        <time>2020-06-10T13:03:36Z</time>
      </trkpt>
      <trkpt lat="42.736520" lon="0.349408">
        <ele>2541.5</ele>
        <time>2020-06-10T13:03:49Z</time>
      </trkpt>
      <trkpt lat="42.736467" lon="0.349324">
        <ele>2537.9</ele>
        <time>2020-06-10T13:04:02Z</time>
      </trkpt>
      <trkpt lat="42.736373" lon="0.349313">
        <ele>2535.9</ele>
        <time>2020-06-10T13:04:15Z</time>
      </trkpt>
      <trkpt lat="42.736281" lon="0.349296">
        <ele>2532.3</ele>
        <time>2020-06-10T13:04:28Z</time>
      </trkpt>
      <trkpt lat="42.736225" lon="0.349205">
        <ele>2528.1</ele>
        <time>2020-06-10T13:04:43Z</time>
      </trkpt>
      <trkpt lat="42.736160" lon="0.349125">
        <ele>2524.3</ele>
        <time>2020-06-10T13:05:03Z</time>
      </trkpt>
      <trkpt lat="42.736093" lon="0.349019">
        <ele>2520.6</ele>
        <time>2020-06-10T13:05:17Z</time>
      </trkpt>
      <trkpt lat="42.736027" lon="0.348924">
        <ele>2519.2</ele>
        <time>2020-06-10T13:05:32Z</time>
      </trkpt>
      <trkpt lat="42.735933" lon="0.348874">
        <ele>2519.3</ele>
        <time>2020-06-10T13:05:44Z</time>
      </trkpt>
      <trkpt lat="42.735849" lon="0.348808">
        <ele>2519.3</ele>
        <time>2020-06-10T13:05:57Z</time>
      </trkpt>
      <trkpt lat="42.735805" lon="0.348700">
        <ele>2517.3</ele>
        <time>2020-06-10T13:06:14Z</time>
      </trkpt>
      <trkpt lat="42.735728" lon="0.348631">
        <ele>2514.6</ele>
        <time>2020-06-10T13:06:28Z</time>
      </trkpt>
      <trkpt lat="42.735663" lon="0.348557">
        <ele>2511.2</ele>
        <time>2020-06-10T13:06:51Z</time>
      </trkpt>
      <trkpt lat="42.735648" lon="0.348456">
        <ele>2507.3</ele>
        <time>2020-06-10T13:07:06Z</time>
      </trkpt>
      <trkpt lat="42.735668" lon="0.348334">
        <ele>2502.6</ele>
        <time>2020-06-10T13:07:19Z</time>
      </trkpt>
      <trkpt lat="42.735670" lon="0.348229">
        <ele>2496.6</ele>
        <time>2020-06-10T13:07:35Z</time>
      </trkpt>
      <trkpt lat="42.735646" lon="0.348116">
        <ele>2494.5</ele>
        <time>2020-06-10T13:08:49Z</time>
      </trkpt>
      <trkpt lat="42.735717" lon="0.348023">
        <ele>2493.4</ele>
        <time>2020-06-10T13:09:00Z</time>
      </trkpt>
      <trkpt lat="42.735811" lon="0.348000">
        <ele>2491.4</ele>
        <time>2020-06-10T13:09:09Z</time>
      </trkpt>
      <trkpt lat="42.735881" lon="0.347935">
        <ele>2489.7</ele>
        <time>2020-06-10T13:09:19Z</time>
      </trkpt>
      <trkpt lat="42.735952" lon="0.347848">
        <ele>2487.2</ele>
        <time>2020-06-10T13:09:31Z</time>
      </trkpt>
      <trkpt lat="42.736022" lon="0.347754">
        <ele>2483.4</ele>
        <time>2020-06-10T13:09:42Z</time>
      </trkpt>
      <trkpt lat="42.736077" lon="0.347648">
        <ele>2479.8</ele>
        <time>2020-06-10T13:09:53Z</time>
      </trkpt>
      <trkpt lat="42.736147" lon="0.347556">
        <ele>2477.1</ele>
        <time>2020-06-10T13:10:03Z</time>
      </trkpt>
      <trkpt lat="42.736197" lon="0.347454">
        <ele>2473.4</ele>
        <time>2020-06-10T13:10:14Z</time>
      </trkpt>
      <trkpt lat="42.736234" lon="0.347347">
        <ele>2470.4</ele>
        <time>2020-06-10T13:10:25Z</time>
      </trkpt>
      <trkpt lat="42.736301" lon="0.347261">
        <ele>2467.6</ele>
        <time>2020-06-10T13:10:36Z</time>
      </trkpt>
      <trkpt lat="42.736353" lon="0.347162">
        <ele>2464.6</ele>
        <time>2020-06-10T13:10:47Z</time>
      </trkpt>
      <trkpt lat="42.736362" lon="0.347035">
        <ele>2459.1</ele>
        <time>2020-06-10T13:11:01Z</time>
      </trkpt>
      <trkpt lat="42.736325" lon="0.346929">
        <ele>2455.5</ele>
        <time>2020-06-10T13:11:14Z</time>
      </trkpt>
      <trkpt lat="42.736273" lon="0.346819">
        <ele>2451.9</ele>
        <time>2020-06-10T13:11:29Z</time>
      </trkpt>
      <trkpt lat="42.736213" lon="0.346738">
        <ele>2448.1</ele>
        <time>2020-06-10T13:11:44Z</time>
      </trkpt>
      <trkpt lat="42.736129" lon="0.346696">
        <ele>2445.5</ele>
        <time>2020-06-10T13:11:59Z</time>
      </trkpt>
      <trkpt lat="42.736135" lon="0.346594">
        <ele>2440.3</ele>
        <time>2020-06-10T13:12:18Z</time>
      </trkpt>
      <trkpt lat="42.736152" lon="0.346486">
        <ele>2436.4</ele>
        <time>2020-06-10T13:12:38Z</time>
      </trkpt>
      <trkpt lat="42.736111" lon="0.346389">
        <ele>2430.4</ele>
        <time>2020-06-10T13:12:56Z</time>
      </trkpt>
      <trkpt lat="42.736048" lon="0.346287">
        <ele>2427.6</ele>
        <time>2020-06-10T13:13:12Z</time>
      </trkpt>
      <trkpt lat="42.736012" lon="0.346179">
        <ele>2424.9</ele>
        <time>2020-06-10T13:13:26Z</time>
      </trkpt>
      <trkpt lat="42.735950" lon="0.346083">
        <ele>2422.4</ele>
        <time>2020-06-10T13:13:39Z</time>
      </trkpt>
      <trkpt lat="42.735874" lon="0.346029">
        <ele>2418.6</ele>
        <time>2020-06-10T13:13:53Z</time>
      </trkpt>
      <trkpt lat="42.735826" lon="0.345956">
        <ele>2415.6</ele>
        <time>2020-06-10T13:14:09Z</time>
      </trkpt>
      <trkpt lat="42.735746" lon="0.345924">
        <ele>2412.1</ele>
        <time>2020-06-10T13:14:22Z</time>
      </trkpt>
      <trkpt lat="42.735704" lon="0.345844">
        <ele>2409.4</ele>
        <time>2020-06-10T13:14:36Z</time>
      </trkpt>
      <trkpt lat="42.735697" lon="0.345733">
        <ele>2406.2</ele>
        <time>2020-06-10T13:14:49Z</time>
      </trkpt>
      <trkpt lat="42.735756" lon="0.345661">
        <ele>2402.8</ele>
        <time>2020-06-10T13:15:06Z</time>
      </trkpt>
      <trkpt lat="42.735747" lon="0.345568">
        <ele>2398.6</ele>
        <time>2020-06-10T13:15:22Z</time>
      </trkpt>
      <trkpt lat="42.735742" lon="0.345476">
        <ele>2395.7</ele>
        <time>2020-06-10T13:15:42Z</time>
      </trkpt>
      <trkpt lat="42.735796" lon="0.345417">
        <ele>2392.8</ele>
        <time>2020-06-10T13:15:57Z</time>
      </trkpt>
      <trkpt lat="42.735856" lon="0.345332">
        <ele>2389.6</ele>
        <time>2020-06-10T13:16:21Z</time>
      </trkpt>
      <trkpt lat="42.735805" lon="0.345238">
        <ele>2384.7</ele>
        <time>2020-06-10T13:16:37Z</time>
      </trkpt>
      <trkpt lat="42.735849" lon="0.345156">
        <ele>2382.0</ele>
        <time>2020-06-10T13:16:51Z</time>
      </trkpt>
      <trkpt lat="42.735899" lon="0.345063">
        <ele>2380.1</ele>
        <time>2020-06-10T13:17:04Z</time>
      </trkpt>
      <trkpt lat="42.735946" lon="0.344980">
        <ele>2377.4</ele>
        <time>2020-06-10T13:17:17Z</time>
      </trkpt>
      <trkpt lat="42.736019" lon="0.344900">
        <ele>2374.0</ele>
        <time>2020-06-10T13:17:32Z</time>
      </trkpt>
      <trkpt lat="42.736071" lon="0.344825">
        <ele>2370.6</ele>
        <time>2020-06-10T13:17:47Z</time>
      </trkpt>
      <trkpt lat="42.736101" lon="0.344746">
        <ele>2367.6</ele>
        <time>2020-06-10T13:18:01Z</time>
      </trkpt>
      <trkpt lat="42.736172" lon="0.344677">
        <ele>2364.3</ele>
        <time>2020-06-10T13:18:17Z</time>
      </trkpt>
      <trkpt lat="42.736230" lon="0.344574">
        <ele>2361.6</ele>
        <time>2020-06-10T13:18:30Z</time>
      </trkpt>
      <trkpt lat="42.736264" lon="0.344473">
        <ele>2357.4</ele>
        <time>2020-06-10T13:18:44Z</time>
      </trkpt>
      <trkpt lat="42.736301" lon="0.344377">
        <ele>2354.7</ele>
        <time>2020-06-10T13:19:00Z</time>
      </trkpt>
      <trkpt lat="42.736351" lon="0.344290">
        <ele>2352.7</ele>
        <time>2020-06-10T13:19:12Z</time>
      </trkpt>
      <trkpt lat="42.736390" lon="0.344185">
        <ele>2349.5</ele>
        <time>2020-06-10T13:19:25Z</time>
      </trkpt>
      <trkpt lat="42.736395" lon="0.344100">
        <ele>2345.7</ele>
        <time>2020-06-10T13:19:40Z</time>
      </trkpt>
      <trkpt lat="42.736446" lon="0.343988">
        <ele>2344.0</ele>
        <time>2020-06-10T13:19:52Z</time>
      </trkpt>
      <trkpt lat="42.736512" lon="0.343900">
        <ele>2342.3</ele>
        <time>2020-06-10T13:20:03Z</time>
      </trkpt>
      <trkpt lat="42.736598" lon="0.343839">
        <ele>2341.4</ele>
        <time>2020-06-10T13:20:14Z</time>
      </trkpt>
      <trkpt lat="42.736675" lon="0.343779">
        <ele>2341.4</ele>
        <time>2020-06-10T13:20:26Z</time>
      </trkpt>
      <trkpt lat="42.736753" lon="0.343705">
        <ele>2339.5</ele>
        <time>2020-06-10T13:20:38Z</time>
      </trkpt>
      <trkpt lat="42.736818" lon="0.343615">
        <ele>2335.9</ele>
        <time>2020-06-10T13:20:51Z</time>
      </trkpt>
      <trkpt lat="42.736899" lon="0.343550">
        <ele>2333.3</ele>
        <time>2020-06-10T13:21:02Z</time>
      </trkpt>
      <trkpt lat="42.736965" lon="0.343469">
        <ele>2331.7</ele>
        <time>2020-06-10T13:21:13Z</time>
      </trkpt>
      <trkpt lat="42.737035" lon="0.343399">
        <ele>2329.6</ele>
        <time>2020-06-10T13:21:25Z</time>
      </trkpt>
      <trkpt lat="42.737106" lon="0.343315">
        <ele>2326.3</ele>
        <time>2020-06-10T13:21:38Z</time>
      </trkpt>
      <trkpt lat="42.737190" lon="0.343258">
        <ele>2324.6</ele>
        <time>2020-06-10T13:21:50Z</time>
      </trkpt>
      <trkpt lat="42.737266" lon="0.343187">
        <ele>2323.0</ele>
        <time>2020-06-10T13:22:01Z</time>
      </trkpt>
      <trkpt lat="42.737294" lon="0.343132">
        <ele>2320.3</ele>
        <time>2020-06-10T13:22:20Z</time>
      </trkpt>
      <trkpt lat="42.737268" lon="0.343074">
        <ele>2318.5</ele>
        <time>2020-06-10T13:22:34Z</time>
      </trkpt>
      <trkpt lat="42.737221" lon="0.343012">
        <ele>2314.9</ele>
        <time>2020-06-10T13:22:49Z</time>
      </trkpt>
      <trkpt lat="42.737166" lon="0.342924">
        <ele>2311.3</ele>
        <time>2020-06-10T13:23:06Z</time>
      </trkpt>
      <trkpt lat="42.737127" lon="0.342826">
        <ele>2308.1</ele>
        <time>2020-06-10T13:23:22Z</time>
      </trkpt>
      <trkpt lat="42.737180" lon="0.342745">
        <ele>2304.4</ele>
        <time>2020-06-10T13:23:36Z</time>
      </trkpt>
      <trkpt lat="42.737264" lon="0.342691">
        <ele>2300.8</ele>
        <time>2020-06-10T13:23:51Z</time>
      </trkpt>
      <trkpt lat="42.737324" lon="0.342608">
        <ele>2296.9</ele>
        <time>2020-06-10T13:24:04Z</time>
      </trkpt>
      <trkpt lat="42.737351" lon="0.342532">
        <ele>2294.9</ele>
        <time>2020-06-10T13:24:16Z</time>
      </trkpt>
      <trkpt lat="42.737370" lon="0.342420">
        <ele>2290.3</ele>
        <time>2020-06-10T13:24:31Z</time>
      </trkpt>
      <trkpt lat="42.737379" lon="0.342329">
        <ele>2287.7</ele>
        <time>2020-06-10T13:24:47Z</time>
      </trkpt>
      <trkpt lat="42.737345" lon="0.342232">
        <ele>2283.1</ele>
        <time>2020-06-10T13:25:02Z</time>
      </trkpt>
      <trkpt lat="42.737304" lon="0.342116">
        <ele>2279.6</ele>
        <time>2020-06-10T13:25:16Z</time>
      </trkpt>
      <trkpt lat="42.737339" lon="0.342031">
        <ele>2276.9</ele>
        <time>2020-06-10T13:25:33Z</time>
      </trkpt>
      <trkpt lat="42.737411" lon="0.341963">
        <ele>2272.6</ele>
        <time>2020-06-10T13:25:49Z</time>
      </trkpt>
      <trkpt lat="42.737436" lon="0.341872">
        <ele>2268.6</ele>
        <time>2020-06-10T13:26:03Z</time>
      </trkpt>
      <trkpt lat="42.737387" lon="0.341775">
        <ele>2265.8</ele>
        <time>2020-06-10T13:26:18Z</time>
      </trkpt>
      <trkpt lat="42.737359" lon="0.341660">
        <ele>2262.3</ele>
        <time>2020-06-10T13:26:32Z</time>
      </trkpt>
      <trkpt lat="42.737354" lon="0.341545">
        <ele>2258.4</ele>
        <time>2020-06-10T13:26:48Z</time>
      </trkpt>
      <trkpt lat="42.737292" lon="0.341456">
        <ele>2256.6</ele>
        <time>2020-06-10T13:27:01Z</time>
      </trkpt>
      <trkpt lat="42.737321" lon="0.341356">
        <ele>2254.5</ele>
        <time>2020-06-10T13:27:18Z</time>
      </trkpt>
      <trkpt lat="42.737376" lon="0.341262">
        <ele>2250.9</ele>
        <time>2020-06-10T13:27:32Z</time>
      </trkpt>
      <trkpt lat="42.737433" lon="0.341198">
        <ele>2247.4</ele>
        <time>2020-06-10T13:27:48Z</time>
      </trkpt>
      <trkpt lat="42.737437" lon="0.341098">
        <ele>2244.8</ele>
        <time>2020-06-10T13:28:04Z</time>
      </trkpt>
      <trkpt lat="42.737464" lon="0.341016">
        <ele>2241.3</ele>
        <time>2020-06-10T13:28:19Z</time>
      </trkpt>
      <trkpt lat="42.737467" lon="0.340923">
        <ele>2237.9</ele>
        <time>2020-06-10T13:28:36Z</time>
      </trkpt>
      <trkpt lat="42.737498" lon="0.340840">
        <ele>2233.4</ele>
        <time>2020-06-10T13:28:55Z</time>
      </trkpt>
      <trkpt lat="42.737520" lon="0.340763">
        <ele>2230.0</ele>
        <time>2020-06-10T13:29:15Z</time>
      </trkpt>
      <trkpt lat="42.737515" lon="0.340678">
        <ele>2226.5</ele>
        <time>2020-06-10T13:29:35Z</time>
      </trkpt>
      <trkpt lat="42.737521" lon="0.340589">
        <ele>2223.9</ele>
        <time>2020-06-10T13:29:52Z</time>
      </trkpt>
      <trkpt lat="42.737576" lon="0.340547">
        <ele>2220.3</ele>
        <time>2020-06-10T13:30:10Z</time>
      </trkpt>
      <trkpt lat="42.737525" lon="0.340448">
        <ele>2216.6</ele>
        <time>2020-06-10T13:30:27Z</time>
      </trkpt>
      <trkpt lat="42.737575" lon="0.340368">
        <ele>2212.5</ele>
        <time>2020-06-10T13:30:44Z</time>
      </trkpt>
      <trkpt lat="42.737617" lon="0.340299">
        <ele>2210.6</ele>
        <time>2020-06-10T13:31:01Z</time>
      </trkpt>
      <trkpt lat="42.737629" lon="0.340222">
        <ele>2206.6</ele>
        <time>2020-06-10T13:31:17Z</time>
      </trkpt>
      <trkpt lat="42.737564" lon="0.340149">
        <ele>2202.8</ele>
        <time>2020-06-10T13:31:34Z</time>
      </trkpt>
      <trkpt lat="42.737496" lon="0.340098">
        <ele>2198.6</ele>
        <time>2020-06-10T13:31:51Z</time>
      </trkpt>
      <trkpt lat="42.737484" lon="0.340025">
        <ele>2196.1</ele>
        <time>2020-06-10T13:32:08Z</time>
      </trkpt>
      <trkpt lat="42.737514" lon="0.339926">
        <ele>2191.3</ele>
        <time>2020-06-10T13:32:23Z</time>
      </trkpt>
      <trkpt lat="42.737512" lon="0.339833">
        <ele>2187.4</ele>
        <time>2020-06-10T13:32:38Z</time>
      </trkpt>
      <trkpt lat="42.737497" lon="0.339733">
        <ele>2183.3</ele>
        <time>2020-06-10T13:32:55Z</time>
      </trkpt>
      <trkpt lat="42.737437" lon="0.339663">
        <ele>2179.6</ele>
        <time>2020-06-10T13:33:10Z</time>
      </trkpt>
      <trkpt lat="42.737351" lon="0.339643">
        <ele>2175.9</ele>
        <time>2020-06-10T13:33:24Z</time>
      </trkpt>
      <trkpt lat="42.737389" lon="0.339545">
        <ele>2173.3</ele>
        <time>2020-06-10T13:33:39Z</time>
      </trkpt>
      <trkpt lat="42.737385" lon="0.339437">
        <ele>2169.0</ele>
        <time>2020-06-10T13:33:56Z</time>
      </trkpt>
      <trkpt lat="42.737338" lon="0.339351">
        <ele>2165.2</ele>
        <time>2020-06-10T13:34:12Z</time>
      </trkpt>
      <trkpt lat="42.737339" lon="0.339244">
        <ele>2161.4</ele>
        <time>2020-06-10T13:34:29Z</time>
      </trkpt>
      <trkpt lat="42.737384" lon="0.339151">
        <ele>2157.9</ele>
        <time>2020-06-10T13:34:46Z</time>
      </trkpt>
      <trkpt lat="42.737423" lon="0.339062">
        <ele>2153.5</ele>
        <time>2020-06-10T13:35:04Z</time>
      </trkpt>
      <trkpt lat="42.737477" lon="0.338957">
        <ele>2150.1</ele>
        <time>2020-06-10T13:35:21Z</time>
      </trkpt>
      <trkpt lat="42.737530" lon="0.338856">
        <ele>2146.6</ele>
        <time>2020-06-10T13:35:39Z</time>
      </trkpt>
      <trkpt lat="42.737585" lon="0.338748">
        <ele>2143.2</ele>
        <time>2020-06-10T13:35:52Z</time>
      </trkpt>
      <trkpt lat="42.737626" lon="0.338651">
        <ele>2139.5</ele>
        <time>2020-06-10T13:36:24Z</time>
      </trkpt>
      <trkpt lat="42.737647" lon="0.338546">
        <ele>2136.6</ele>
        <time>2020-06-10T13:36:40Z</time>
      </trkpt>
      <trkpt lat="42.737640" lon="0.338442">
        <ele>2132.0</ele>
        <time>2020-06-10T13:36:56Z</time>
      </trkpt>
      <trkpt lat="42.737686" lon="0.338336">
        <ele>2128.1</ele>
        <time>2020-06-10T13:37:11Z</time>
      </trkpt>
      <trkpt lat="42.737703" lon="0.338218">
        <ele>2123.8</ele>
        <time>2020-06-10T13:37:24Z</time>
      </trkpt>
      <trkpt lat="42.737639" lon="0.338151">
        <ele>2120.4</ele>
        <time>2020-06-10T13:37:37Z</time>
      </trkpt>
      <trkpt lat="42.737570" lon="0.338069">
        <ele>2116.0</ele>
        <time>2020-06-10T13:37:53Z</time>
      </trkpt>
      <trkpt lat="42.737537" lon="0.337991">
        <ele>2112.0</ele>
        <time>2020-06-10T13:38:06Z</time>
      </trkpt>
      <trkpt lat="42.737571" lon="0.337886">
        <ele>2108.3</ele>
        <time>2020-06-10T13:38:19Z</time>
      </trkpt>
      <trkpt lat="42.737538" lon="0.337795">
        <ele>2104.9</ele>
        <time>2020-06-10T13:38:33Z</time>
      </trkpt>
      <trkpt lat="42.737459" lon="0.337720">
        <ele>2101.2</ele>
        <time>2020-06-10T13:38:47Z</time>
      </trkpt>
      <trkpt lat="42.737455" lon="0.337620">
        <ele>2097.1</ele>
        <time>2020-06-10T13:39:07Z</time>
      </trkpt>
      <trkpt lat="42.737484" lon="0.337505">
        <ele>2093.5</ele>
        <time>2020-06-10T13:39:21Z</time>
      </trkpt>
      <trkpt lat="42.737531" lon="0.337411">
        <ele>2089.6</ele>
        <time>2020-06-10T13:39:35Z</time>
      </trkpt>
      <trkpt lat="42.737598" lon="0.337324">
        <ele>2086.9</ele>
        <time>2020-06-10T13:39:49Z</time>
      </trkpt>
      <trkpt lat="42.737599" lon="0.337222">
        <ele>2082.4</ele>
        <time>2020-06-10T13:40:06Z</time>
      </trkpt>
      <trkpt lat="42.737621" lon="0.337115">
        <ele>2079.6</ele>
        <time>2020-06-10T13:40:22Z</time>
      </trkpt>
      <trkpt lat="42.737655" lon="0.337029">
        <ele>2075.8</ele>
        <time>2020-06-10T13:40:36Z</time>
      </trkpt>
      <trkpt lat="42.737711" lon="0.336962">
        <ele>2073.2</ele>
        <time>2020-06-10T13:40:53Z</time>
      </trkpt>
      <trkpt lat="42.737739" lon="0.336873">
        <ele>2069.3</ele>
        <time>2020-06-10T13:41:08Z</time>
      </trkpt>
      <trkpt lat="42.737857" lon="0.336771">
        <ele>2064.2</ele>
        <time>2020-06-10T13:45:00Z</time>
      </trkpt>
      <trkpt lat="42.737880" lon="0.336686">
        <ele>2061.7</ele>
        <time>2020-06-10T13:45:29Z</time>
      </trkpt>
      <trkpt lat="42.737972" lon="0.336665">
        <ele>2057.9</ele>
        <time>2020-06-10T13:45:45Z</time>
      </trkpt>
      <trkpt lat="42.738036" lon="0.336586">
        <ele>2054.1</ele>
        <time>2020-06-10T13:46:14Z</time>
      </trkpt>
      <trkpt lat="42.738084" lon="0.336496">
        <ele>2050.5</ele>
        <time>2020-06-10T13:46:31Z</time>
      </trkpt>
      <trkpt lat="42.738072" lon="0.336402">
        <ele>2046.2</ele>
        <time>2020-06-10T13:46:49Z</time>
      </trkpt>
      <trkpt lat="42.738081" lon="0.336311">
        <ele>2041.7</ele>
        <time>2020-06-10T13:47:06Z</time>
      </trkpt>
      <trkpt lat="42.738129" lon="0.336238">
        <ele>2037.9</ele>
        <time>2020-06-10T13:47:24Z</time>
      </trkpt>
      <trkpt lat="42.738127" lon="0.336132">
        <ele>2034.9</ele>
        <time>2020-06-10T13:47:42Z</time>
      </trkpt>
      <trkpt lat="42.738210" lon="0.336116">
        <ele>2030.6</ele>
        <time>2020-06-10T13:47:57Z</time>
      </trkpt>
      <trkpt lat="42.738208" lon="0.336044">
        <ele>2026.8</ele>
        <time>2020-06-10T13:48:11Z</time>
      </trkpt>
      <trkpt lat="42.738160" lon="0.335938">
        <ele>2023.3</ele>
        <time>2020-06-10T13:48:28Z</time>
      </trkpt>
      <trkpt lat="42.738208" lon="0.335889">
        <ele>2019.0</ele>
        <time>2020-06-10T13:48:45Z</time>
      </trkpt>
      <trkpt lat="42.738222" lon="0.335804">
        <ele>2014.4</ele>
        <time>2020-06-10T13:49:05Z</time>
      </trkpt>
      <trkpt lat="42.738175" lon="0.335690">
        <ele>2010.7</ele>
        <time>2020-06-10T13:49:22Z</time>
      </trkpt>
      <trkpt lat="42.738129" lon="0.335592">
        <ele>2006.8</ele>
        <time>2020-06-10T13:49:37Z</time>
      </trkpt>
      <trkpt lat="42.738101" lon="0.335480">
        <ele>2004.0</ele>
        <time>2020-06-10T13:49:49Z</time>
      </trkpt>
      <trkpt lat="42.738130" lon="0.335367">
        <ele>2001.3</ele>
        <time>2020-06-10T13:50:00Z</time>
      </trkpt>
      <trkpt lat="42.738156" lon="0.335252">
        <ele>1998.5</ele>
        <time>2020-06-10T13:50:12Z</time>
      </trkpt>
      <trkpt lat="42.738239" lon="0.335204">
        <ele>1996.7</ele>
        <time>2020-06-10T13:50:25Z</time>
      </trkpt>
      <trkpt lat="42.738331" lon="0.335186">
        <ele>1993.2</ele>
        <time>2020-06-10T13:50:38Z</time>
      </trkpt>
      <trkpt lat="42.738374" lon="0.335102">
        <ele>1988.0</ele>
        <time>2020-06-10T13:50:53Z</time>
      </trkpt>
      <trkpt lat="42.738425" lon="0.335012">
        <ele>1986.0</ele>
        <time>2020-06-10T13:51:08Z</time>
      </trkpt>
      <trkpt lat="42.738478" lon="0.334928">
        <ele>1981.4</ele>
        <time>2020-06-10T13:51:22Z</time>
      </trkpt>
      <trkpt lat="42.738477" lon="0.334808">
        <ele>1975.3</ele>
        <time>2020-06-10T13:51:34Z</time>
      </trkpt>
      <trkpt lat="42.738465" lon="0.334702">
        <ele>1972.5</ele>
        <time>2020-06-10T13:51:47Z</time>
      </trkpt>
      <trkpt lat="42.738463" lon="0.334600">
        <ele>1968.9</ele>
        <time>2020-06-10T13:52:00Z</time>
      </trkpt>
      <trkpt lat="42.738497" lon="0.334490">
        <ele>1965.2</ele>
        <time>2020-06-10T13:52:12Z</time>
      </trkpt>
      <trkpt lat="42.738490" lon="0.334392">
        <ele>1960.4</ele>
        <time>2020-06-10T13:52:25Z</time>
      </trkpt>
      <trkpt lat="42.738405" lon="0.334351">
        <ele>1955.8</ele>
        <time>2020-06-10T13:52:43Z</time>
      </trkpt>
      <trkpt lat="42.738380" lon="0.334253">
        <ele>1952.1</ele>
        <time>2020-06-10T13:53:01Z</time>
      </trkpt>
      <trkpt lat="42.738350" lon="0.334139">
        <ele>1947.3</ele>
        <time>2020-06-10T13:53:20Z</time>
      </trkpt>
      <trkpt lat="42.738273" lon="0.334077">
        <ele>1942.6</ele>
        <time>2020-06-10T13:53:38Z</time>
      </trkpt>
      <trkpt lat="42.738273" lon="0.333962">
        <ele>1939.9</ele>
        <time>2020-06-10T13:53:55Z</time>
      </trkpt>
      <trkpt lat="42.738236" lon="0.333888">
        <ele>1937.4</ele>
        <time>2020-06-10T13:54:09Z</time>
      </trkpt>
      <trkpt lat="42.738139" lon="0.333879">
        <ele>1934.9</ele>
        <time>2020-06-10T13:54:22Z</time>
      </trkpt>
      <trkpt lat="42.738082" lon="0.333840">
        <ele>1931.0</ele>
        <time>2020-06-10T13:54:35Z</time>
      </trkpt>
      <trkpt lat="42.737999" lon="0.333807">
        <ele>1927.6</ele>
        <time>2020-06-10T13:54:49Z</time>
      </trkpt>
      <trkpt lat="42.737896" lon="0.333783">
        <ele>1925.0</ele>
        <time>2020-06-10T13:55:02Z</time>
      </trkpt>
      <trkpt lat="42.737835" lon="0.333706">
        <ele>1920.9</ele>
        <time>2020-06-10T13:55:17Z</time>
      </trkpt>
      <trkpt lat="42.737794" lon="0.333601">
        <ele>1918.5</ele>
        <time>2020-06-10T13:55:30Z</time>
      </trkpt>
      <trkpt lat="42.737742" lon="0.333518">
        <ele>1916.7</ele>
        <time>2020-06-10T13:55:46Z</time>
      </trkpt>
      <trkpt lat="42.737674" lon="0.333489">
        <ele>1915.9</ele>
        <time>2020-06-10T13:55:57Z</time>
      </trkpt>
      <trkpt lat="42.737582" lon="0.333420">
        <ele>1915.0</ele>
        <time>2020-06-10T13:56:11Z</time>
      </trkpt>
      <trkpt lat="42.737612" lon="0.333318">
        <ele>1914.1</ele>
        <time>2020-06-10T13:56:25Z</time>
      </trkpt>
      <trkpt lat="42.737631" lon="0.333197">
        <ele>1913.2</ele>
        <time>2020-06-10T13:56:36Z</time>
      </trkpt>
      <trkpt lat="42.737680" lon="0.333144">
        <ele>1912.0</ele>
        <time>2020-06-10T13:57:06Z</time>
      </trkpt>
      <trkpt lat="42.737718" lon="0.333032">
        <ele>1910.0</ele>
        <time>2020-06-10T13:57:41Z</time>
      </trkpt>
      <trkpt lat="42.737776" lon="0.332926">
        <ele>1909.1</ele>
        <time>2020-06-10T13:57:52Z</time>
      </trkpt>
      <trkpt lat="42.737832" lon="0.332824">
        <ele>1906.5</ele>
        <time>2020-06-10T13:58:03Z</time>
      </trkpt>
      <trkpt lat="42.737871" lon="0.332710">
        <ele>1903.9</ele>
        <time>2020-06-10T13:58:13Z</time>
      </trkpt>
      <trkpt lat="42.737932" lon="0.332615">
        <ele>1901.1</ele>
        <time>2020-06-10T13:58:24Z</time>
      </trkpt>
      <trkpt lat="42.737951" lon="0.332495">
        <ele>1899.0</ele>
        <time>2020-06-10T13:58:34Z</time>
      </trkpt>
      <trkpt lat="42.737997" lon="0.332383">
        <ele>1896.2</ele>
        <time>2020-06-10T13:58:44Z</time>
      </trkpt>
      <trkpt lat="42.738040" lon="0.332284">
        <ele>1894.6</ele>
        <time>2020-06-10T13:58:55Z</time>
      </trkpt>
      <trkpt lat="42.738090" lon="0.332178">
        <ele>1891.9</ele>
        <time>2020-06-10T13:59:09Z</time>
      </trkpt>
      <trkpt lat="42.738138" lon="0.332073">
        <ele>1889.4</ele>
        <time>2020-06-10T13:59:22Z</time>
      </trkpt>
      <trkpt lat="42.738161" lon="0.331962">
        <ele>1887.8</ele>
        <time>2020-06-10T13:59:34Z</time>
      </trkpt>
      <trkpt lat="42.738224" lon="0.331855">
        <ele>1885.0</ele>
        <time>2020-06-10T13:59:47Z</time>
      </trkpt>
      <trkpt lat="42.738237" lon="0.331736">
        <ele>1884.2</ele>
        <time>2020-06-10T13:59:57Z</time>
      </trkpt>
      <trkpt lat="42.738254" lon="0.331602">
        <ele>1883.3</ele>
        <time>2020-06-10T14:00:07Z</time>
      </trkpt>
      <trkpt lat="42.738294" lon="0.331470">
        <ele>1882.5</ele>
        <time>2020-06-10T14:00:17Z</time>
      </trkpt>
      <trkpt lat="42.738327" lon="0.331355">
        <ele>1880.6</ele>
        <time>2020-06-10T14:00:27Z</time>
      </trkpt>
      <trkpt lat="42.738381" lon="0.331266">
        <ele>1878.3</ele>
        <time>2020-06-10T14:00:39Z</time>
      </trkpt>
      <trkpt lat="42.738447" lon="0.331198">
        <ele>1874.8</ele>
        <time>2020-06-10T14:00:51Z</time>
      </trkpt>
      <trkpt lat="42.738519" lon="0.331245">
        <ele>1873.1</ele>
        <time>2020-06-10T14:01:03Z</time>
      </trkpt>
      <trkpt lat="42.738604" lon="0.331199">
        <ele>1870.4</ele>
        <time>2020-06-10T14:01:16Z</time>
      </trkpt>
      <trkpt lat="42.738679" lon="0.331133">
        <ele>1867.6</ele>
        <time>2020-06-10T14:01:27Z</time>
      </trkpt>
      <trkpt lat="42.738703" lon="0.331003">
        <ele>1864.5</ele>
        <time>2020-06-10T14:01:37Z</time>
      </trkpt>
      <trkpt lat="42.738789" lon="0.331019">
        <ele>1862.6</ele>
        <time>2020-06-10T14:01:49Z</time>
      </trkpt>
      <trkpt lat="42.738787" lon="0.330882">
        <ele>1859.0</ele>
        <time>2020-06-10T14:02:03Z</time>
      </trkpt>
      <trkpt lat="42.738786" lon="0.330755">
        <ele>1855.5</ele>
        <time>2020-06-10T14:02:16Z</time>
      </trkpt>
      <trkpt lat="42.738785" lon="0.330628">
        <ele>1853.8</ele>
        <time>2020-06-10T14:02:26Z</time>
      </trkpt>
      <trkpt lat="42.738802" lon="0.330504">
        <ele>1852.9</ele>
        <time>2020-06-10T14:02:35Z</time>
      </trkpt>
      <trkpt lat="42.738847" lon="0.330405">
        <ele>1852.1</ele>
        <time>2020-06-10T14:02:53Z</time>
      </trkpt>
      <trkpt lat="42.738906" lon="0.330309">
        <ele>1848.4</ele>
        <time>2020-06-10T14:03:05Z</time>
      </trkpt>
      <trkpt lat="42.738954" lon="0.330214">
        <ele>1845.8</ele>
        <time>2020-06-10T14:03:17Z</time>
      </trkpt>
      <trkpt lat="42.739022" lon="0.330142">
        <ele>1843.1</ele>
        <time>2020-06-10T14:03:31Z</time>
      </trkpt>
      <trkpt lat="42.739102" lon="0.330097">
        <ele>1839.5</ele>
        <time>2020-06-10T14:03:46Z</time>
      </trkpt>
      <trkpt lat="42.739171" lon="0.330082">
        <ele>1836.6</ele>
        <time>2020-06-10T14:04:01Z</time>
      </trkpt>
      <trkpt lat="42.739192" lon="0.330010">
        <ele>1834.8</ele>
        <time>2020-06-10T14:04:36Z</time>
      </trkpt>
      <trkpt lat="42.739186" lon="0.329883">
        <ele>1831.0</ele>
        <time>2020-06-10T14:04:50Z</time>
      </trkpt>
      <trkpt lat="42.739268" lon="0.329829">
        <ele>1828.3</ele>
        <time>2020-06-10T14:05:05Z</time>
      </trkpt>
      <trkpt lat="42.739326" lon="0.329721">
        <ele>1825.0</ele>
        <time>2020-06-10T14:05:19Z</time>
      </trkpt>
      <trkpt lat="42.739383" lon="0.329618">
        <ele>1822.2</ele>
        <time>2020-06-10T14:05:38Z</time>
      </trkpt>
      <trkpt lat="42.739430" lon="0.329530">
        <ele>1819.8</ele>
        <time>2020-06-10T14:05:55Z</time>
      </trkpt>
      <trkpt lat="42.739465" lon="0.329452">
        <ele>1817.2</ele>
        <time>2020-06-10T14:06:11Z</time>
      </trkpt>
      <trkpt lat="42.739553" lon="0.329425">
        <ele>1815.3</ele>
        <time>2020-06-10T14:06:32Z</time>
      </trkpt>
      <trkpt lat="42.739586" lon="0.329378">
        <ele>1812.5</ele>
        <time>2020-06-10T14:07:17Z</time>
      </trkpt>
      <trkpt lat="42.739580" lon="0.329274">
        <ele>1807.8</ele>
        <time>2020-06-10T14:07:43Z</time>
      </trkpt>
      <trkpt lat="42.739514" lon="0.329174">
        <ele>1803.5</ele>
        <time>2020-06-10T14:07:56Z</time>
      </trkpt>
      <trkpt lat="42.739497" lon="0.329056">
        <ele>1799.7</ele>
        <time>2020-06-10T14:08:12Z</time>
      </trkpt>
      <trkpt lat="42.739544" lon="0.328986">
        <ele>1796.0</ele>
        <time>2020-06-10T14:08:29Z</time>
      </trkpt>
      <trkpt lat="42.739591" lon="0.328936">
        <ele>1791.2</ele>
        <time>2020-06-10T14:09:29Z</time>
      </trkpt>
      <trkpt lat="42.739655" lon="0.328966">
        <ele>1787.9</ele>
        <time>2020-06-10T14:09:47Z</time>
      </trkpt>
      <trkpt lat="42.739703" lon="0.328849">
        <ele>1783.6</ele>
        <time>2020-06-10T14:10:04Z</time>
      </trkpt>
      <trkpt lat="42.739752" lon="0.328724">
        <ele>1779.1</ele>
        <time>2020-06-10T14:10:21Z</time>
      </trkpt>
      <trkpt lat="42.739808" lon="0.328675">
        <ele>1777.3</ele>
        <time>2020-06-10T14:10:45Z</time>
      </trkpt>
      <trkpt lat="42.739714" lon="0.328580">
        <ele>1773.1</ele>
        <time>2020-06-10T14:11:02Z</time>
      </trkpt>
      <trkpt lat="42.739672" lon="0.328503">
        <ele>1769.6</ele>
        <time>2020-06-10T14:11:18Z</time>
      </trkpt>
      <trkpt lat="42.739642" lon="0.328398">
        <ele>1766.6</ele>
        <time>2020-06-10T14:12:04Z</time>
      </trkpt>
      <trkpt lat="42.739555" lon="0.328322">
        <ele>1763.6</ele>
        <time>2020-06-10T14:12:30Z</time>
      </trkpt>
      <trkpt lat="42.739519" lon="0.328264">
        <ele>1760.2</ele>
        <time>2020-06-10T14:12:45Z</time>
      </trkpt>
      <trkpt lat="42.739430" lon="0.328210">
        <ele>1756.6</ele>
        <time>2020-06-10T14:13:00Z</time>
      </trkpt>
      <trkpt lat="42.739353" lon="0.328111">
        <ele>1752.7</ele>
        <time>2020-06-10T14:13:14Z</time>
      </trkpt>
      <trkpt lat="42.739263" lon="0.327998">
        <ele>1749.9</ele>
        <time>2020-06-10T14:13:27Z</time>
      </trkpt>
      <trkpt lat="42.739182" lon="0.327905">
        <ele>1747.2</ele>
        <time>2020-06-10T14:13:40Z</time>
      </trkpt>
      <trkpt lat="42.739143" lon="0.327806">
        <ele>1743.7</ele>
        <time>2020-06-10T14:13:54Z</time>
      </trkpt>
      <trkpt lat="42.739110" lon="0.327690">
        <ele>1741.7</ele>
        <time>2020-06-10T14:14:06Z</time>
      </trkpt>
      <trkpt lat="42.739011" lon="0.327610">
        <ele>1739.1</ele>
        <time>2020-06-10T14:14:20Z</time>
      </trkpt>
      <trkpt lat="42.738950" lon="0.327521">
        <ele>1735.4</ele>
        <time>2020-06-10T14:14:37Z</time>
      </trkpt>
      <trkpt lat="42.738852" lon="0.327490">
        <ele>1733.5</ele>
        <time>2020-06-10T14:14:49Z</time>
      </trkpt>
      <trkpt lat="42.738796" lon="0.327410">
        <ele>1728.8</ele>
        <time>2020-06-10T14:15:03Z</time>
      </trkpt>
      <trkpt lat="42.738702" lon="0.327336">
        <ele>1727.0</ele>
        <time>2020-06-10T14:15:17Z</time>
      </trkpt>
      <trkpt lat="42.738610" lon="0.327280">
        <ele>1725.3</ele>
        <time>2020-06-10T14:15:27Z</time>
      </trkpt>
      <trkpt lat="42.738540" lon="0.327157">
        <ele>1721.8</ele>
        <time>2020-06-10T14:15:41Z</time>
      </trkpt>
      <trkpt lat="42.738529" lon="0.327096">
        <ele>1719.2</ele>
        <time>2020-06-10T14:15:58Z</time>
      </trkpt>
      <trkpt lat="42.738473" lon="0.326986">
        <ele>1714.8</ele>
        <time>2020-06-10T14:16:15Z</time>
      </trkpt>
      <trkpt lat="42.738445" lon="0.326856">
        <ele>1710.9</ele>
        <time>2020-06-10T14:16:29Z</time>
      </trkpt>
      <trkpt lat="42.738366" lon="0.326766">
        <ele>1707.0</ele>
        <time>2020-06-10T14:16:42Z</time>
      </trkpt>
      <trkpt lat="42.738270" lon="0.326725">
        <ele>1705.2</ele>
        <time>2020-06-10T14:16:55Z</time>
      </trkpt>
      <trkpt lat="42.738185" lon="0.326640">
        <ele>1702.5</ele>
        <time>2020-06-10T14:17:07Z</time>
      </trkpt>
      <trkpt lat="42.738090" lon="0.326540">
        <ele>1699.4</ele>
        <time>2020-06-10T14:17:20Z</time>
      </trkpt>
      <trkpt lat="42.738009" lon="0.326448">
        <ele>1696.9</ele>
        <time>2020-06-10T14:17:33Z</time>
      </trkpt>
      <trkpt lat="42.737934" lon="0.326358">
        <ele>1694.0</ele>
        <time>2020-06-10T14:17:44Z</time>
      </trkpt>
      <trkpt lat="42.737841" lon="0.326315">
        <ele>1690.6</ele>
        <time>2020-06-10T14:17:57Z</time>
      </trkpt>
      <trkpt lat="42.737755" lon="0.326264">
        <ele>1687.9</ele>
        <time>2020-06-10T14:18:09Z</time>
      </trkpt>
      <trkpt lat="42.737679" lon="0.326189">
        <ele>1684.8</ele>
        <time>2020-06-10T14:18:22Z</time>
      </trkpt>
      <trkpt lat="42.737619" lon="0.326065">
        <ele>1682.2</ele>
        <time>2020-06-10T14:18:36Z</time>
      </trkpt>
      <trkpt lat="42.737546" lon="0.325974">
        <ele>1678.7</ele>
        <time>2020-06-10T14:18:49Z</time>
      </trkpt>
      <trkpt lat="42.737460" lon="0.325877">
        <ele>1675.8</ele>
        <time>2020-06-10T14:19:02Z</time>
      </trkpt>
      <trkpt lat="42.737372" lon="0.325816">
        <ele>1673.0</ele>
        <time>2020-06-10T14:19:14Z</time>
      </trkpt>
      <trkpt lat="42.737297" lon="0.325721">
        <ele>1670.4</ele>
        <time>2020-06-10T14:19:25Z</time>
      </trkpt>
      <trkpt lat="42.737228" lon="0.325610">
        <ele>1667.2</ele>
        <time>2020-06-10T14:19:38Z</time>
      </trkpt>
      <trkpt lat="42.737136" lon="0.325565">
        <ele>1663.2</ele>
        <time>2020-06-10T14:19:51Z</time>
      </trkpt>
      <trkpt lat="42.737059" lon="0.325468">
        <ele>1660.9</ele>
        <time>2020-06-10T14:20:03Z</time>
      </trkpt>
      <trkpt lat="42.736961" lon="0.325415">
        <ele>1657.9</ele>
        <time>2020-06-10T14:20:15Z</time>
      </trkpt>
      <trkpt lat="42.736871" lon="0.325339">
        <ele>1654.4</ele>
        <time>2020-06-10T14:20:28Z</time>
      </trkpt>
      <trkpt lat="42.736763" lon="0.325296">
        <ele>1651.7</ele>
        <time>2020-06-10T14:20:42Z</time>
      </trkpt>
      <trkpt lat="42.736670" lon="0.325275">
        <ele>1649.0</ele>
        <time>2020-06-10T14:20:54Z</time>
      </trkpt>
      <trkpt lat="42.736582" lon="0.325212">
        <ele>1644.9</ele>
        <time>2020-06-10T14:21:07Z</time>
      </trkpt>
      <trkpt lat="42.736536" lon="0.325058">
        <ele>1642.2</ele>
        <time>2020-06-10T14:21:19Z</time>
      </trkpt>
      <trkpt lat="42.736427" lon="0.325047">
        <ele>1640.3</ele>
        <time>2020-06-10T14:21:32Z</time>
      </trkpt>
      <trkpt lat="42.736339" lon="0.325022">
        <ele>1637.3</ele>
        <time>2020-06-10T14:21:46Z</time>
      </trkpt>
      <trkpt lat="42.736232" lon="0.324951">
        <ele>1636.1</ele>
        <time>2020-06-10T14:21:58Z</time>
      </trkpt>
      <trkpt lat="42.736171" lon="0.324945">
        <ele>1633.0</ele>
        <time>2020-06-10T14:22:18Z</time>
      </trkpt>
      <trkpt lat="42.736079" lon="0.324877">
        <ele>1630.2</ele>
        <time>2020-06-10T14:22:30Z</time>
      </trkpt>
      <trkpt lat="42.735988" lon="0.324758">
        <ele>1627.5</ele>
        <time>2020-06-10T14:22:45Z</time>
      </trkpt>
      <trkpt lat="42.735909" lon="0.324643">
        <ele>1625.7</ele>
        <time>2020-06-10T14:23:00Z</time>
      </trkpt>
      <trkpt lat="42.735826" lon="0.324537">
        <ele>1622.3</ele>
        <time>2020-06-10T14:23:15Z</time>
      </trkpt>
      <trkpt lat="42.735746" lon="0.324498">
        <ele>1619.5</ele>
        <time>2020-06-10T14:23:31Z</time>
      </trkpt>
      <trkpt lat="42.735632" lon="0.324457">
        <ele>1616.7</ele>
        <time>2020-06-10T14:23:47Z</time>
      </trkpt>
      <trkpt lat="42.735511" lon="0.324387">
        <ele>1611.7</ele>
        <time>2020-06-10T14:24:05Z</time>
      </trkpt>
      <trkpt lat="42.735378" lon="0.324327">
        <ele>1608.7</ele>
        <time>2020-06-10T14:24:23Z</time>
      </trkpt>
      <trkpt lat="42.735282" lon="0.324266">
        <ele>1606.8</ele>
        <time>2020-06-10T14:24:45Z</time>
      </trkpt>
      <trkpt lat="42.735188" lon="0.324173">
        <ele>1604.8</ele>
        <time>2020-06-10T14:25:04Z</time>
      </trkpt>
      <trkpt lat="42.735078" lon="0.324146">
        <ele>1600.9</ele>
        <time>2020-06-10T14:25:20Z</time>
      </trkpt>
      <trkpt lat="42.734995" lon="0.324120">
        <ele>1596.4</ele>
        <time>2020-06-10T14:25:35Z</time>
      </trkpt>
      <trkpt lat="42.734910" lon="0.324028">
        <ele>1595.9</ele>
        <time>2020-06-10T14:27:37Z</time>
      </trkpt>
      <trkpt lat="42.734780" lon="0.323996">
        <ele>1592.4</ele>
        <time>2020-06-10T14:27:56Z</time>
      </trkpt>
      <trkpt lat="42.734702" lon="0.323925">
        <ele>1589.3</ele>
        <time>2020-06-10T14:28:08Z</time>
      </trkpt>
      <trkpt lat="42.734586" lon="0.323878">
        <ele>1585.9</ele>
        <time>2020-06-10T14:28:24Z</time>
      </trkpt>
      <trkpt lat="42.734456" lon="0.323822">
        <ele>1582.2</ele>
        <time>2020-06-10T14:28:39Z</time>
      </trkpt>
      <trkpt lat="42.734354" lon="0.323816">
        <ele>1580.5</ele>
        <time>2020-06-10T14:28:50Z</time>
      </trkpt>
      <trkpt lat="42.734268" lon="0.323785">
        <ele>1577.5</ele>
        <time>2020-06-10T14:29:01Z</time>
      </trkpt>
      <trkpt lat="42.734152" lon="0.323752">
        <ele>1574.7</ele>
        <time>2020-06-10T14:29:14Z</time>
      </trkpt>
      <trkpt lat="42.734056" lon="0.323742">
        <ele>1571.9</ele>
        <time>2020-06-10T14:29:24Z</time>
      </trkpt>
      <trkpt lat="42.733946" lon="0.323701">
        <ele>1569.2</ele>
        <time>2020-06-10T14:29:36Z</time>
      </trkpt>
      <trkpt lat="42.733798" lon="0.323656">
        <ele>1565.6</ele>
        <time>2020-06-10T14:29:51Z</time>
      </trkpt>
      <trkpt lat="42.733699" lon="0.323628">
        <ele>1563.7</ele>
        <time>2020-06-10T14:30:02Z</time>
      </trkpt>
      <trkpt lat="42.733603" lon="0.323566">
        <ele>1559.5</ele>
        <time>2020-06-10T14:30:15Z</time>
      </trkpt>
      <trkpt lat="42.733476" lon="0.323420">
        <ele>1559.5</ele>
        <time>2020-06-10T14:30:29Z</time>
      </trkpt>
      <trkpt lat="42.733194" lon="0.323271">
        <ele>1558.3</ele>
        <time>2020-06-10T14:31:03Z</time>
      </trkpt>
      <trkpt lat="42.732932" lon="0.323091">
        <ele>1556.2</ele>
        <time>2020-06-10T14:31:36Z</time>
      </trkpt>
      <trkpt lat="42.732779" lon="0.322951">
        <ele>1554.4</ele>
        <time>2020-06-10T14:38:07Z</time>
      </trkpt>
      <trkpt lat="42.732698" lon="0.322884">
        <ele>1551.2</ele>
        <time>2020-06-10T14:38:22Z</time>
      </trkpt>
      <trkpt lat="42.732610" lon="0.322842">
        <ele>1544.2</ele>
        <time>2020-06-10T14:38:35Z</time>
      </trkpt>
      <trkpt lat="42.732569" lon="0.322799">
        <ele>1534.1</ele>
        <time>2020-06-10T14:38:49Z</time>
      </trkpt>
      <trkpt lat="42.732463" lon="0.322729">
        <ele>1524.2</ele>
        <time>2020-06-10T14:39:03Z</time>
      </trkpt>
      <trkpt lat="42.732552" lon="0.322695">
        <ele>1517.9</ele>
        <time>2020-06-10T14:39:17Z</time>
      </trkpt>
      <trkpt lat="42.732652" lon="0.322640">
        <ele>1513.3</ele>
        <time>2020-06-10T14:39:32Z</time>
      </trkpt>
      <trkpt lat="42.732733" lon="0.322563">
        <ele>1509.1</ele>
        <time>2020-06-10T14:39:52Z</time>
      </trkpt>
      <trkpt lat="42.732827" lon="0.322449">
        <ele>1507.7</ele>
        <time>2020-06-10T14:40:10Z</time>
      </trkpt>
      <trkpt lat="42.732742" lon="0.322382">
        <ele>1505.1</ele>
        <time>2020-06-10T14:40:21Z</time>
      </trkpt>
      <trkpt lat="42.732683" lon="0.322280">
        <ele>1502.8</ele>
        <time>2020-06-10T14:40:35Z</time>
      </trkpt>
      <trkpt lat="42.732634" lon="0.322203">
        <ele>1499.7</ele>
        <time>2020-06-10T14:40:52Z</time>
      </trkpt>
      <trkpt lat="42.732659" lon="0.322134">
        <ele>1498.0</ele>
        <time>2020-06-10T14:41:10Z</time>
      </trkpt>
      <trkpt lat="42.732690" lon="0.322099">
        <ele>1499.9</ele>
        <time>2020-06-10T14:43:26Z</time>
      </trkpt>
      <trkpt lat="42.732622" lon="0.321973">
        <ele>1494.8</ele>
        <time>2020-06-10T14:43:38Z</time>
      </trkpt>
      <trkpt lat="42.732613" lon="0.321824">
        <ele>1492.9</ele>
        <time>2020-06-10T14:43:49Z</time>
      </trkpt>
      <trkpt lat="42.732653" lon="0.321700">
        <ele>1492.1</ele>
        <time>2020-06-10T14:43:59Z</time>
      </trkpt>
      <trkpt lat="42.732706" lon="0.321581">
        <ele>1490.4</ele>
        <time>2020-06-10T14:44:10Z</time>
      </trkpt>
      <trkpt lat="42.732747" lon="0.321451">
        <ele>1488.8</ele>
        <time>2020-06-10T14:44:22Z</time>
      </trkpt>
      <trkpt lat="42.732865" lon="0.321293">
        <ele>1486.0</ele>
        <time>2020-06-10T14:44:33Z</time>
      </trkpt>
      <trkpt lat="42.732967" lon="0.321122">
        <ele>1484.2</ele>
        <time>2020-06-10T14:44:45Z</time>
      </trkpt>
      <trkpt lat="42.733022" lon="0.320983">
        <ele>1483.3</ele>
        <time>2020-06-10T14:44:54Z</time>
      </trkpt>
      <trkpt lat="42.733078" lon="0.320792">
        <ele>1481.3</ele>
        <time>2020-06-10T14:45:08Z</time>
      </trkpt>
      <trkpt lat="42.733081" lon="0.320609">
        <ele>1478.5</ele>
        <time>2020-06-10T14:45:23Z</time>
      </trkpt>
      <trkpt lat="42.733080" lon="0.320456">
        <ele>1477.6</ele>
        <time>2020-06-10T14:45:36Z</time>
      </trkpt>
      <trkpt lat="42.733082" lon="0.320315">
        <ele>1474.6</ele>
        <time>2020-06-10T14:45:46Z</time>
      </trkpt>
      <trkpt lat="42.733032" lon="0.320183">
        <ele>1474.5</ele>
        <time>2020-06-10T14:45:59Z</time>
      </trkpt>
      <trkpt lat="42.733020" lon="0.320113">
        <ele>1474.3</ele>
        <time>2020-06-10T14:46:26Z</time>
      </trkpt>
      <trkpt lat="42.733016" lon="0.319984">
        <ele>1474.2</ele>
        <time>2020-06-10T14:46:38Z</time>
      </trkpt>
      <trkpt lat="42.733038" lon="0.319847">
        <ele>1474.2</ele>
        <time>2020-06-10T14:46:47Z</time>
      </trkpt>
      <trkpt lat="42.733077" lon="0.319714">
        <ele>1474.1</ele>
        <time>2020-06-10T14:46:56Z</time>
      </trkpt>
      <trkpt lat="42.733136" lon="0.319583">
        <ele>1473.2</ele>
        <time>2020-06-10T14:47:05Z</time>
      </trkpt>
      <trkpt lat="42.733182" lon="0.319460">
        <ele>1473.2</ele>
        <time>2020-06-10T14:47:13Z</time>
      </trkpt>
      <trkpt lat="42.733240" lon="0.319335">
        <ele>1472.4</ele>
        <time>2020-06-10T14:47:22Z</time>
      </trkpt>
      <trkpt lat="42.733343" lon="0.319165">
        <ele>1472.3</ele>
        <time>2020-06-10T14:47:32Z</time>
      </trkpt>
      <trkpt lat="42.733420" lon="0.319010">
        <ele>1470.8</ele>
        <time>2020-06-10T14:47:40Z</time>
      </trkpt>
      <trkpt lat="42.733480" lon="0.318886">
        <ele>1470.8</ele>
        <time>2020-06-10T14:47:48Z</time>
      </trkpt>
      <trkpt lat="42.733546" lon="0.318745">
        <ele>1470.7</ele>
        <time>2020-06-10T14:47:57Z</time>
      </trkpt>
      <trkpt lat="42.733596" lon="0.318612">
        <ele>1469.8</ele>
        <time>2020-06-10T14:48:05Z</time>
      </trkpt>
      <trkpt lat="42.733646" lon="0.318469">
        <ele>1469.8</ele>
        <time>2020-06-10T14:48:13Z</time>
      </trkpt>
      <trkpt lat="42.733696" lon="0.318334">
        <ele>1468.7</ele>
        <time>2020-06-10T14:48:21Z</time>
      </trkpt>
      <trkpt lat="42.733697" lon="0.318195">
        <ele>1468.6</ele>
        <time>2020-06-10T14:48:29Z</time>
      </trkpt>
      <trkpt lat="42.733701" lon="0.318053">
        <ele>1468.6</ele>
        <time>2020-06-10T14:48:38Z</time>
      </trkpt>
      <trkpt lat="42.733687" lon="0.317907">
        <ele>1467.8</ele>
        <time>2020-06-10T14:48:46Z</time>
      </trkpt>
      <trkpt lat="42.733712" lon="0.317722">
        <ele>1467.7</ele>
        <time>2020-06-10T14:48:55Z</time>
      </trkpt>
      <trkpt lat="42.733737" lon="0.317565">
        <ele>1466.1</ele>
        <time>2020-06-10T14:49:03Z</time>
      </trkpt>
      <trkpt lat="42.733770" lon="0.317434">
        <ele>1465.9</ele>
        <time>2020-06-10T14:49:10Z</time>
      </trkpt>
      <trkpt lat="42.733794" lon="0.317291">
        <ele>1464.9</ele>
        <time>2020-06-10T14:49:18Z</time>
      </trkpt>
      <trkpt lat="42.733807" lon="0.317135">
        <ele>1464.9</ele>
        <time>2020-06-10T14:49:26Z</time>
      </trkpt>
      <trkpt lat="42.733817" lon="0.316998">
        <ele>1463.2</ele>
        <time>2020-06-10T14:49:33Z</time>
      </trkpt>
      <trkpt lat="42.733851" lon="0.316861">
        <ele>1463.1</ele>
        <time>2020-06-10T14:49:41Z</time>
      </trkpt>
      <trkpt lat="42.733870" lon="0.316699">
        <ele>1463.1</ele>
        <time>2020-06-10T14:49:50Z</time>
      </trkpt>
      <trkpt lat="42.733914" lon="0.316563">
        <ele>1463.1</ele>
        <time>2020-06-10T14:49:57Z</time>
      </trkpt>
      <trkpt lat="42.733971" lon="0.316461">
        <ele>1462.2</ele>
        <time>2020-06-10T14:50:04Z</time>
      </trkpt>
      <trkpt lat="42.734020" lon="0.316351">
        <ele>1461.4</ele>
        <time>2020-06-10T14:50:11Z</time>
      </trkpt>
      <trkpt lat="42.734062" lon="0.316233">
        <ele>1460.4</ele>
        <time>2020-06-10T14:50:19Z</time>
      </trkpt>
      <trkpt lat="42.734096" lon="0.316107">
        <ele>1459.6</ele>
        <time>2020-06-10T14:50:27Z</time>
      </trkpt>
      <trkpt lat="42.734114" lon="0.315965">
        <ele>1458.1</ele>
        <time>2020-06-10T14:50:36Z</time>
      </trkpt>
      <trkpt lat="42.734121" lon="0.315809">
        <ele>1457.2</ele>
        <time>2020-06-10T14:50:45Z</time>
      </trkpt>
      <trkpt lat="42.734136" lon="0.315642">
        <ele>1456.2</ele>
        <time>2020-06-10T14:50:54Z</time>
      </trkpt>
      <trkpt lat="42.734181" lon="0.315515">
        <ele>1455.1</ele>
        <time>2020-06-10T14:51:01Z</time>
      </trkpt>
      <trkpt lat="42.734247" lon="0.315410">
        <ele>1454.2</ele>
        <time>2020-06-10T14:51:09Z</time>
      </trkpt>
      <trkpt lat="42.734297" lon="0.315257">
        <ele>1452.6</ele>
        <time>2020-06-10T14:51:19Z</time>
      </trkpt>
      <trkpt lat="42.734334" lon="0.315093">
        <ele>1452.6</ele>
        <time>2020-06-10T14:51:27Z</time>
      </trkpt>
      <trkpt lat="42.734378" lon="0.314936">
        <ele>1451.8</ele>
        <time>2020-06-10T14:51:35Z</time>
      </trkpt>
      <trkpt lat="42.734428" lon="0.314766">
        <ele>1451.6</ele>
        <time>2020-06-10T14:51:44Z</time>
      </trkpt>
      <trkpt lat="42.734491" lon="0.314608">
        <ele>1449.9</ele>
        <time>2020-06-10T14:51:53Z</time>
      </trkpt>
      <trkpt lat="42.734536" lon="0.314455">
        <ele>1449.0</ele>
        <time>2020-06-10T14:52:02Z</time>
      </trkpt>
      <trkpt lat="42.734592" lon="0.314280">
        <ele>1448.9</ele>
        <time>2020-06-10T14:52:12Z</time>
      </trkpt>
      <trkpt lat="42.734631" lon="0.314119">
        <ele>1447.2</ele>
        <time>2020-06-10T14:52:20Z</time>
      </trkpt>
      <trkpt lat="42.734681" lon="0.313991">
        <ele>1447.2</ele>
        <time>2020-06-10T14:52:27Z</time>
      </trkpt>
      <trkpt lat="42.734738" lon="0.313857">
        <ele>1445.4</ele>
        <time>2020-06-10T14:52:35Z</time>
      </trkpt>
      <trkpt lat="42.734772" lon="0.313719">
        <ele>1444.5</ele>
        <time>2020-06-10T14:52:43Z</time>
      </trkpt>
      <trkpt lat="42.734800" lon="0.313579">
        <ele>1443.7</ele>
        <time>2020-06-10T14:52:51Z</time>
      </trkpt>
      <trkpt lat="42.734813" lon="0.313432">
        <ele>1442.8</ele>
        <time>2020-06-10T14:53:01Z</time>
      </trkpt>
      <trkpt lat="42.734824" lon="0.313286">
        <ele>1441.9</ele>
        <time>2020-06-10T14:53:09Z</time>
      </trkpt>
      <trkpt lat="42.734838" lon="0.313134">
        <ele>1440.9</ele>
        <time>2020-06-10T14:53:18Z</time>
      </trkpt>
      <trkpt lat="42.734822" lon="0.312966">
        <ele>1440.0</ele>
        <time>2020-06-10T14:53:26Z</time>
      </trkpt>
      <trkpt lat="42.734813" lon="0.312811">
        <ele>1439.1</ele>
        <time>2020-06-10T14:53:35Z</time>
      </trkpt>
      <trkpt lat="42.734806" lon="0.312649">
        <ele>1437.2</ele>
        <time>2020-06-10T14:53:44Z</time>
      </trkpt>
      <trkpt lat="42.734769" lon="0.312485">
        <ele>1435.2</ele>
        <time>2020-06-10T14:53:53Z</time>
      </trkpt>
      <trkpt lat="42.734740" lon="0.312345">
        <ele>1433.3</ele>
        <time>2020-06-10T14:54:01Z</time>
      </trkpt>
      <trkpt lat="42.734726" lon="0.312207">
        <ele>1432.4</ele>
        <time>2020-06-10T14:54:10Z</time>
      </trkpt>
      <trkpt lat="42.734666" lon="0.312047">
        <ele>1430.6</ele>
        <time>2020-06-10T14:54:19Z</time>
      </trkpt>
      <trkpt lat="42.734651" lon="0.311873">
        <ele>1428.7</ele>
        <time>2020-06-10T14:54:27Z</time>
      </trkpt>
      <trkpt lat="42.734658" lon="0.311719">
        <ele>1426.9</ele>
        <time>2020-06-10T14:54:36Z</time>
      </trkpt>
      <trkpt lat="42.734661" lon="0.311560">
        <ele>1424.3</ele>
        <time>2020-06-10T14:54:45Z</time>
      </trkpt>
      <trkpt lat="42.734750" lon="0.311407">
        <ele>1423.3</ele>
        <time>2020-06-10T14:54:55Z</time>
      </trkpt>
      <trkpt lat="42.734898" lon="0.311334">
        <ele>1421.5</ele>
        <time>2020-06-10T14:55:07Z</time>
      </trkpt>
      <trkpt lat="42.735018" lon="0.311261">
        <ele>1419.8</ele>
        <time>2020-06-10T14:55:17Z</time>
      </trkpt>
      <trkpt lat="42.735166" lon="0.311180">
        <ele>1417.2</ele>
        <time>2020-06-10T14:55:28Z</time>
      </trkpt>
      <trkpt lat="42.735292" lon="0.311060">
        <ele>1415.2</ele>
        <time>2020-06-10T14:55:41Z</time>
      </trkpt>
      <trkpt lat="42.735416" lon="0.310987">
        <ele>1412.9</ele>
        <time>2020-06-10T14:55:52Z</time>
      </trkpt>
      <trkpt lat="42.735547" lon="0.310892">
        <ele>1410.5</ele>
        <time>2020-06-10T14:56:06Z</time>
      </trkpt>
      <trkpt lat="42.735675" lon="0.310834">
        <ele>1408.6</ele>
        <time>2020-06-10T14:56:19Z</time>
      </trkpt>
      <trkpt lat="42.735810" lon="0.310739">
        <ele>1405.7</ele>
        <time>2020-06-10T14:56:30Z</time>
      </trkpt>
      <trkpt lat="42.735947" lon="0.310651">
        <ele>1404.0</ele>
        <time>2020-06-10T14:56:39Z</time>
      </trkpt>
      <trkpt lat="42.736045" lon="0.310582">
        <ele>1402.2</ele>
        <time>2020-06-10T14:56:47Z</time>
      </trkpt>
      <trkpt lat="42.736147" lon="0.310484">
        <ele>1400.6</ele>
        <time>2020-06-10T14:56:57Z</time>
      </trkpt>
      <trkpt lat="42.736256" lon="0.310416">
        <ele>1398.7</ele>
        <time>2020-06-10T14:57:06Z</time>
      </trkpt>
      <trkpt lat="42.736343" lon="0.310344">
        <ele>1396.8</ele>
        <time>2020-06-10T14:57:14Z</time>
      </trkpt>
      <trkpt lat="42.736455" lon="0.310312">
        <ele>1395.0</ele>
        <time>2020-06-10T14:57:23Z</time>
      </trkpt>
      <trkpt lat="42.736589" lon="0.310253">
        <ele>1393.3</ele>
        <time>2020-06-10T14:57:33Z</time>
      </trkpt>
      <trkpt lat="42.736720" lon="0.310187">
        <ele>1391.3</ele>
        <time>2020-06-10T14:57:42Z</time>
      </trkpt>
      <trkpt lat="42.736840" lon="0.310137">
        <ele>1389.6</ele>
        <time>2020-06-10T14:57:51Z</time>
      </trkpt>
      <trkpt lat="42.736974" lon="0.310065">
        <ele>1387.7</ele>
        <time>2020-06-10T14:58:01Z</time>
      </trkpt>
      <trkpt lat="42.737071" lon="0.310006">
        <ele>1386.7</ele>
        <time>2020-06-10T14:58:10Z</time>
      </trkpt>
      <trkpt lat="42.737155" lon="0.309929">
        <ele>1384.9</ele>
        <time>2020-06-10T14:58:19Z</time>
      </trkpt>
      <trkpt lat="42.737249" lon="0.309845">
        <ele>1384.0</ele>
        <time>2020-06-10T14:58:27Z</time>
      </trkpt>
      <trkpt lat="42.737359" lon="0.309800">
        <ele>1383.2</ele>
        <time>2020-06-10T14:58:35Z</time>
      </trkpt>
      <trkpt lat="42.737456" lon="0.309740">
        <ele>1381.1</ele>
        <time>2020-06-10T14:58:43Z</time>
      </trkpt>
      <trkpt lat="42.737566" lon="0.309696">
        <ele>1379.5</ele>
        <time>2020-06-10T14:58:52Z</time>
      </trkpt>
      <trkpt lat="42.737697" lon="0.309625">
        <ele>1376.6</ele>
        <time>2020-06-10T14:59:05Z</time>
      </trkpt>
      <trkpt lat="42.737823" lon="0.309599">
        <ele>1374.6</ele>
        <time>2020-06-10T14:59:14Z</time>
      </trkpt>
      <trkpt lat="42.737951" lon="0.309570">
        <ele>1373.8</ele>
        <time>2020-06-10T14:59:24Z</time>
      </trkpt>
      <trkpt lat="42.738077" lon="0.309546">
        <ele>1372.1</ele>
        <time>2020-06-10T14:59:34Z</time>
      </trkpt>
      <trkpt lat="42.738178" lon="0.309543">
        <ele>1370.3</ele>
        <time>2020-06-10T14:59:44Z</time>
      </trkpt>
      <trkpt lat="42.738278" lon="0.309526">
        <ele>1368.6</ele>
        <time>2020-06-10T14:59:51Z</time>
      </trkpt>
      <trkpt lat="42.738405" lon="0.309512">
        <ele>1367.3</ele>
        <time>2020-06-10T14:59:58Z</time>
      </trkpt>
      <trkpt lat="42.738564" lon="0.309479">
        <ele>1365.7</ele>
        <time>2020-06-10T15:00:09Z</time>
      </trkpt>
      <trkpt lat="42.738676" lon="0.309408">
        <ele>1364.1</ele>
        <time>2020-06-10T15:00:19Z</time>
      </trkpt>
      <trkpt lat="42.738770" lon="0.309338">
        <ele>1363.1</ele>
        <time>2020-06-10T15:00:28Z</time>
      </trkpt>
      <trkpt lat="42.738859" lon="0.309268">
        <ele>1360.3</ele>
        <time>2020-06-10T15:00:37Z</time>
      </trkpt>
      <trkpt lat="42.738962" lon="0.309201">
        <ele>1360.3</ele>
        <time>2020-06-10T15:00:44Z</time>
      </trkpt>
      <trkpt lat="42.739067" lon="0.309122">
        <ele>1358.6</ele>
        <time>2020-06-10T15:00:52Z</time>
      </trkpt>
      <trkpt lat="42.739156" lon="0.309052">
        <ele>1357.7</ele>
        <time>2020-06-10T15:01:00Z</time>
      </trkpt>
      <trkpt lat="42.739288" lon="0.308983">
        <ele>1357.0</ele>
        <time>2020-06-10T15:01:09Z</time>
      </trkpt>
      <trkpt lat="42.739400" lon="0.308908">
        <ele>1357.0</ele>
        <time>2020-06-10T15:01:18Z</time>
      </trkpt>
      <trkpt lat="42.739543" lon="0.308863">
        <ele>1356.0</ele>
        <time>2020-06-10T15:01:27Z</time>
      </trkpt>
      <trkpt lat="42.739668" lon="0.308790">
        <ele>1355.3</ele>
        <time>2020-06-10T15:01:38Z</time>
      </trkpt>
      <trkpt lat="42.739795" lon="0.308737">
        <ele>1355.3</ele>
        <time>2020-06-10T15:01:45Z</time>
      </trkpt>
      <trkpt lat="42.739932" lon="0.308663">
        <ele>1355.4</ele>
        <time>2020-06-10T15:01:56Z</time>
      </trkpt>
      <trkpt lat="42.740058" lon="0.308554">
        <ele>1355.4</ele>
        <time>2020-06-10T15:02:05Z</time>
      </trkpt>
      <trkpt lat="42.740132" lon="0.308411">
        <ele>1355.4</ele>
        <time>2020-06-10T15:02:13Z</time>
      </trkpt>
      <trkpt lat="42.740211" lon="0.308292">
        <ele>1355.5</ele>
        <time>2020-06-10T15:02:21Z</time>
      </trkpt>
      <trkpt lat="42.740284" lon="0.308168">
        <ele>1355.5</ele>
        <time>2020-06-10T15:02:31Z</time>
      </trkpt>
      <trkpt lat="42.740361" lon="0.308056">
        <ele>1353.6</ele>
        <time>2020-06-10T15:02:41Z</time>
      </trkpt>
      <trkpt lat="42.740446" lon="0.307999">
        <ele>1353.6</ele>
        <time>2020-06-10T15:02:52Z</time>
      </trkpt>
      <trkpt lat="42.740452" lon="0.307996">
        <ele>1320.4</ele>
        <time>2020-06-10T15:02:53Z</time>
      </trkpt>
    </trkseg>
  </trk>
</gpx>

